<?xml version='1.0' encoding='UTF-8'?><gpx version="1.1" creator="JPX - https://github.com/jenetics/jpx" xmlns="http://www.topografix.com/GPX/1/1"><trk><trkseg><trkpt lat="45.054778790934186" lon="8.16205894479628"><ele>254.0</ele><time>2026-04-18T14:03:16Z</time></trkpt><trkpt lat="45.0546899414579" lon="8.162075152188706"><ele>253.99999999999997</ele><time>2026-04-18T14:03:19Z</time></trkpt><trkpt lat="45.05459134892633" lon="8.162114193277507"><ele>253.99999999999997</ele><time>2026-04-18T14:03:22Z</time></trkpt><trkpt lat="45.0545140210188" lon="8.162153306070195"><ele>254.0</ele><time>2026-04-18T14:03:24Z</time></trkpt><trkpt lat="45.0544285178124" lon="8.1621748937987"><ele>254.0</ele><time>2026-04-18T14:03:26Z</time></trkpt><trkpt lat="45.0543376463618" lon="8.162187861340092"><ele>254.0</ele><time>2026-04-18T14:03:28Z</time></trkpt><trkpt lat="45.054256822645826" lon="8.162221038500908"><ele>253.99999999999997</ele><time>2026-04-18T14:03:30Z</time></trkpt><trkpt lat="45.05419099175004" lon="8.162246823115195"><ele>253.99999999999997</ele><time>2026-04-18T14:03:32Z</time></trkpt><trkpt lat="45.0541122006538" lon="8.162269791849928"><ele>254.0</ele><time>2026-04-18T14:03:34Z</time></trkpt><trkpt lat="45.0539727379153" lon="8.162308069793585"><ele>254.0</ele><time>2026-04-18T14:03:36Z</time></trkpt><trkpt lat="45.05389588853647" lon="8.162325166876338"><ele>253.2</ele><time>2026-04-18T14:03:37Z</time></trkpt><trkpt lat="45.053803356504375" lon="8.1623149396893"><ele>252.39999999999998</ele><time>2026-04-18T14:03:38Z</time></trkpt><trkpt lat="45.05371235428069" lon="8.162349342343084"><ele>251.6</ele><time>2026-04-18T14:03:39Z</time></trkpt><trkpt lat="45.05360807173766" lon="8.162328749839519"><ele>250.8</ele><time>2026-04-18T14:03:40Z</time></trkpt><trkpt lat="45.05351528773805" lon="8.162323667711666"><ele>250.0</ele><time>2026-04-18T14:03:41Z</time></trkpt><trkpt lat="45.053409566413855" lon="8.162312578932697"><ele>250.0</ele><time>2026-04-18T14:03:42Z</time></trkpt><trkpt lat="45.05330067139103" lon="8.162300717463703"><ele>250.0</ele><time>2026-04-18T14:03:43Z</time></trkpt><trkpt lat="45.0532111244275" lon="8.162293892016875"><ele>250.0</ele><time>2026-04-18T14:03:44Z</time></trkpt><trkpt lat="45.05311583033543" lon="8.162286628515545"><ele>250.0</ele><time>2026-04-18T14:03:45Z</time></trkpt><trkpt lat="45.053031462626606" lon="8.162279643840076"><ele>250.0</ele><time>2026-04-18T14:03:46Z</time></trkpt><trkpt lat="45.05293043157067" lon="8.16226762219982"><ele>249.83333333333331</ele><time>2026-04-18T14:03:47Z</time></trkpt><trkpt lat="45.05282952039261" lon="8.162247841397114"><ele>249.66666666666666</ele><time>2026-04-18T14:03:48Z</time></trkpt><trkpt lat="45.05272957101198" lon="8.16222426159344"><ele>249.5</ele><time>2026-04-18T14:03:49Z</time></trkpt><trkpt lat="45.05265871407429" lon="8.162227987880993"><ele>249.33333333333331</ele><time>2026-04-18T14:03:50Z</time></trkpt><trkpt lat="45.0525915463864" lon="8.162176107245388"><ele>249.16666666666666</ele><time>2026-04-18T14:03:53Z</time></trkpt><trkpt lat="45.05261206868113" lon="8.162084727626533"><ele>249.0</ele><time>2026-04-18T14:03:54Z</time></trkpt><trkpt lat="45.05257877096657" lon="8.162007653091083"><ele>249.0</ele><time>2026-04-18T14:03:55Z</time></trkpt><trkpt lat="45.0525365870694" lon="8.161934548462046"><ele>249.0</ele><time>2026-04-18T14:03:56Z</time></trkpt><trkpt lat="45.05247966865638" lon="8.16184669606081"><ele>249.0</ele><time>2026-04-18T14:03:57Z</time></trkpt><trkpt lat="45.05240850644822" lon="8.161760278667899"><ele>249.0</ele><time>2026-04-18T14:03:58Z</time></trkpt><trkpt lat="45.052336534849786" lon="8.16168663913973"><ele>249.0</ele><time>2026-04-18T14:03:59Z</time></trkpt><trkpt lat="45.05227063835136" lon="8.16162722729323"><ele>249.0</ele><time>2026-04-18T14:04:00Z</time></trkpt><trkpt lat="45.05221523485074" lon="8.16157727586372"><ele>247.5</ele><time>2026-04-18T14:04:01Z</time></trkpt><trkpt lat="45.052157389020834" lon="8.161523465806555"><ele>246.0</ele><time>2026-04-18T14:04:02Z</time></trkpt><trkpt lat="45.05210628682724" lon="8.161469819602127"><ele>244.5</ele><time>2026-04-18T14:04:03Z</time></trkpt><trkpt lat="45.05206484165094" lon="8.161396238327976"><ele>243.0</ele><time>2026-04-18T14:04:04Z</time></trkpt><trkpt lat="45.0520339867543" lon="8.161233592220647"><ele>241.5</ele><time>2026-04-18T14:04:06Z</time></trkpt><trkpt lat="45.05203988681006" lon="8.161120773422523"><ele>240.0</ele><time>2026-04-18T14:04:07Z</time></trkpt><trkpt lat="45.0520467598766" lon="8.160995350088134"><ele>240.0</ele><time>2026-04-18T14:04:08Z</time></trkpt><trkpt lat="45.05203723097058" lon="8.160893080944573"><ele>240.0</ele><time>2026-04-18T14:04:09Z</time></trkpt><trkpt lat="45.05205786562701" lon="8.160804658741776"><ele>240.0</ele><time>2026-04-18T14:04:10Z</time></trkpt><trkpt lat="45.05206258693183" lon="8.160664061498402"><ele>240.0</ele><time>2026-04-18T14:04:12Z</time></trkpt><trkpt lat="45.05205044173747" lon="8.160559995736985"><ele>240.0</ele><time>2026-04-18T14:04:14Z</time></trkpt><trkpt lat="45.05211994007428" lon="8.160513213201682"><ele>240.0</ele><time>2026-04-18T14:04:19Z</time></trkpt><trkpt lat="45.05223719754976" lon="8.160500445641427"><ele>239.16666666666666</ele><time>2026-04-18T14:04:21Z</time></trkpt><trkpt lat="45.0523050706617" lon="8.160493055290763"><ele>238.33333333333331</ele><time>2026-04-18T14:04:22Z</time></trkpt><trkpt lat="45.05237915114486" lon="8.160482742119047"><ele>237.5</ele><time>2026-04-18T14:04:23Z</time></trkpt><trkpt lat="45.05245702613796" lon="8.160470296756605"><ele>236.66666666666666</ele><time>2026-04-18T14:04:24Z</time></trkpt><trkpt lat="45.05253944570824" lon="8.160455303379921"><ele>235.83333333333331</ele><time>2026-04-18T14:04:25Z</time></trkpt><trkpt lat="45.05261169130361" lon="8.160420568410437"><ele>235.0</ele><time>2026-04-18T14:04:26Z</time></trkpt><trkpt lat="45.05268531610052" lon="8.160433314634972"><ele>234.99999999999997</ele><time>2026-04-18T14:04:27Z</time></trkpt><trkpt lat="45.052758014378675" lon="8.160432571748732"><ele>235.0</ele><time>2026-04-18T14:04:28Z</time></trkpt><trkpt lat="45.05283447930262" lon="8.160448811802276"><ele>235.0</ele><time>2026-04-18T14:04:29Z</time></trkpt><trkpt lat="45.052898088910524" lon="8.160463434422986"><ele>235.0</ele><time>2026-04-18T14:04:30Z</time></trkpt><trkpt lat="45.05301668140784" lon="8.160479871520362"><ele>234.99999999999997</ele><time>2026-04-18T14:04:32Z</time></trkpt><trkpt lat="45.05308990317932" lon="8.160461937917853"><ele>235.0</ele><time>2026-04-18T14:04:33Z</time></trkpt><trkpt lat="45.053172291164444" lon="8.160434278641604"><ele>235.0</ele><time>2026-04-18T14:04:34Z</time></trkpt><trkpt lat="45.05325215540504" lon="8.160384621488932"><ele>235.0</ele><time>2026-04-18T14:04:35Z</time></trkpt><trkpt lat="45.05333637943756" lon="8.160375807229023"><ele>235.0</ele><time>2026-04-18T14:04:36Z</time></trkpt><trkpt lat="45.0534190227896" lon="8.160347519661771"><ele>235.0</ele><time>2026-04-18T14:04:37Z</time></trkpt><trkpt lat="45.05351150771569" lon="8.160315900345921"><ele>235.0</ele><time>2026-04-18T14:04:38Z</time></trkpt><trkpt lat="45.053608740310715" lon="8.16026085353834"><ele>235.4</ele><time>2026-04-18T14:04:39Z</time></trkpt><trkpt lat="45.05371780028857" lon="8.160238687870587"><ele>235.8</ele><time>2026-04-18T14:04:40Z</time></trkpt><trkpt lat="45.05381382180943" lon="8.160184279540085"><ele>236.2</ele><time>2026-04-18T14:04:41Z</time></trkpt><trkpt lat="45.05391056373818" lon="8.160157666610607"><ele>236.6</ele><time>2026-04-18T14:04:42Z</time></trkpt><trkpt lat="45.05400854650006" lon="8.160174844456833"><ele>237.0</ele><time>2026-04-18T14:04:43Z</time></trkpt><trkpt lat="45.05410852527462" lon="8.160145600845466"><ele>237.33333333333334</ele><time>2026-04-18T14:04:44Z</time></trkpt><trkpt lat="45.054203185148054" lon="8.160138594283493"><ele>237.66666666666669</ele><time>2026-04-18T14:04:45Z</time></trkpt><trkpt lat="45.054287943414266" lon="8.160099773038006"><ele>238.0</ele><time>2026-04-18T14:04:46Z</time></trkpt><trkpt lat="45.05436045257007" lon="8.16006751045729"><ele>238.33333333333334</ele><time>2026-04-18T14:04:47Z</time></trkpt><trkpt lat="45.05442280185423" lon="8.16004859738257"><ele>238.66666666666669</ele><time>2026-04-18T14:04:48Z</time></trkpt><trkpt lat="45.054499128666805" lon="8.1600353647841"><ele>239.0</ele><time>2026-04-18T14:04:50Z</time></trkpt><trkpt lat="45.05456542382083" lon="8.160044674695428"><ele>239.0</ele><time>2026-04-18T14:04:54Z</time></trkpt><trkpt lat="45.05459336698728" lon="8.160165702295275"><ele>238.99999999999997</ele><time>2026-04-18T14:05:04Z</time></trkpt><trkpt lat="45.05460426747223" lon="8.160320610926403"><ele>238.99999999999997</ele><time>2026-04-18T14:05:06Z</time></trkpt><trkpt lat="45.054618238028844" lon="8.16042817954533"><ele>239.0</ele><time>2026-04-18T14:05:08Z</time></trkpt><trkpt lat="45.05466051355011" lon="8.160561900188013"><ele>239.0</ele><time>2026-04-18T14:05:21Z</time></trkpt><trkpt lat="45.054725429134315" lon="8.160670679964898"><ele>239.00000000000003</ele><time>2026-04-18T14:05:23Z</time></trkpt><trkpt lat="45.05467756611068" lon="8.160590709385131"><ele>239.0</ele><time>2026-04-18T14:05:56Z</time></trkpt><trkpt lat="45.05462991969637" lon="8.160495496828544"><ele>239.0</ele><time>2026-04-18T14:05:58Z</time></trkpt><trkpt lat="45.05461925773011" lon="8.160382109420373"><ele>239.0</ele><time>2026-04-18T14:05:59Z</time></trkpt><trkpt lat="45.054607800667966" lon="8.160243779910337"><ele>239.00000000000003</ele><time>2026-04-18T14:06:01Z</time></trkpt><trkpt lat="45.054603764780346" lon="8.160141371888553"><ele>239.0</ele><time>2026-04-18T14:06:03Z</time></trkpt><trkpt lat="45.05458175314878" lon="8.160047996986297"><ele>239.0</ele><time>2026-04-18T14:06:06Z</time></trkpt><trkpt lat="45.05451460909139" lon="8.15997212598985"><ele>238.99999999999997</ele><time>2026-04-18T14:06:09Z</time></trkpt><trkpt lat="45.05461110100593" lon="8.160011565642202"><ele>238.99999999999997</ele><time>2026-04-18T14:06:11Z</time></trkpt><trkpt lat="45.05469912434119" lon="8.159833425978944"><ele>239.0</ele><time>2026-04-18T14:06:14Z</time></trkpt><trkpt lat="45.05478263852862" lon="8.159822970847374"><ele>239.0</ele><time>2026-04-18T14:06:16Z</time></trkpt><trkpt lat="45.05484714146734" lon="8.15982890379079"><ele>236.79999999999998</ele><time>2026-04-18T14:06:18Z</time></trkpt><trkpt lat="45.05497288263578" lon="8.159833799729286"><ele>234.59999999999997</ele><time>2026-04-18T14:06:20Z</time></trkpt><trkpt lat="45.055036344027" lon="8.159830975679341"><ele>232.4</ele><time>2026-04-18T14:06:21Z</time></trkpt><trkpt lat="45.05515569300415" lon="8.15984941030403"><ele>230.2</ele><time>2026-04-18T14:06:23Z</time></trkpt><trkpt lat="45.055275396801925" lon="8.15984705707121"><ele>228.0</ele><time>2026-04-18T14:06:25Z</time></trkpt><trkpt lat="45.05534190813717" lon="8.159853698344401"><ele>228.0</ele><time>2026-04-18T14:06:26Z</time></trkpt><trkpt lat="45.05541323347184" lon="8.1598582352204"><ele>228.0</ele><time>2026-04-18T14:06:27Z</time></trkpt><trkpt lat="45.05548624155733" lon="8.159857056336346"><ele>228.0</ele><time>2026-04-18T14:06:28Z</time></trkpt><trkpt lat="45.055613991124915" lon="8.159865404393186"><ele>228.0</ele><time>2026-04-18T14:06:30Z</time></trkpt><trkpt lat="45.05568898800169" lon="8.159867060289558"><ele>228.0</ele><time>2026-04-18T14:06:31Z</time></trkpt><trkpt lat="45.055758624015844" lon="8.15987639765023"><ele>228.0</ele><time>2026-04-18T14:06:32Z</time></trkpt><trkpt lat="45.05587521153887" lon="8.159872497925415"><ele>228.33333333333334</ele><time>2026-04-18T14:06:34Z</time></trkpt><trkpt lat="45.05594799427561" lon="8.159871463935103"><ele>228.66666666666669</ele><time>2026-04-18T14:06:35Z</time></trkpt><trkpt lat="45.056010948079276" lon="8.15986416108182"><ele>229.0</ele><time>2026-04-18T14:06:36Z</time></trkpt><trkpt lat="45.05612657751516" lon="8.15979197350694"><ele>229.33333333333334</ele><time>2026-04-18T14:06:38Z</time></trkpt><trkpt lat="45.05617373827867" lon="8.15972682363113"><ele>229.66666666666669</ele><time>2026-04-18T14:06:39Z</time></trkpt><trkpt lat="45.05622587567705" lon="8.159622333237666"><ele>230.0</ele><time>2026-04-18T14:06:41Z</time></trkpt><trkpt lat="45.05627619657188" lon="8.159567330610312"><ele>230.00000000000003</ele><time>2026-04-18T14:06:44Z</time></trkpt><trkpt lat="45.05634459894484" lon="8.15970308563016"><ele>230.0</ele><time>2026-04-18T14:06:47Z</time></trkpt><trkpt lat="45.05637969838991" lon="8.15979568518385"><ele>230.0</ele><time>2026-04-18T14:06:48Z</time></trkpt><trkpt lat="45.056416251123515" lon="8.159891008541223"><ele>230.0</ele><time>2026-04-18T14:06:49Z</time></trkpt><trkpt lat="45.056455152648766" lon="8.159978463260082"><ele>230.00000000000003</ele><time>2026-04-18T14:06:50Z</time></trkpt><trkpt lat="45.05649465638867" lon="8.1600596808352"><ele>230.0</ele><time>2026-04-18T14:06:51Z</time></trkpt><trkpt lat="45.056539939598316" lon="8.160145682909599"><ele>230.16666666666669</ele><time>2026-04-18T14:06:52Z</time></trkpt><trkpt lat="45.05658613376327" lon="8.1602400381399"><ele>230.33333333333334</ele><time>2026-04-18T14:06:53Z</time></trkpt><trkpt lat="45.05662772540088" lon="8.160327138154305"><ele>230.5</ele><time>2026-04-18T14:06:54Z</time></trkpt><trkpt lat="45.0566719390256" lon="8.160413106573818"><ele>230.66666666666669</ele><time>2026-04-18T14:06:55Z</time></trkpt><trkpt lat="45.056709173308505" lon="8.160509567301256"><ele>230.83333333333334</ele><time>2026-04-18T14:06:56Z</time></trkpt><trkpt lat="45.056749923289345" lon="8.160607125412065"><ele>231.0</ele><time>2026-04-18T14:06:57Z</time></trkpt><trkpt lat="45.05678658605901" lon="8.160701196888567"><ele>231.83333333333334</ele><time>2026-04-18T14:06:58Z</time></trkpt><trkpt lat="45.05681504099107" lon="8.160797496170728"><ele>232.66666666666669</ele><time>2026-04-18T14:06:59Z</time></trkpt><trkpt lat="45.05684158476822" lon="8.160897514462361"><ele>233.5</ele><time>2026-04-18T14:07:00Z</time></trkpt><trkpt lat="45.056871651313756" lon="8.160997902467654"><ele>234.33333333333334</ele><time>2026-04-18T14:07:01Z</time></trkpt><trkpt lat="45.056895577960105" lon="8.16110521099425"><ele>235.16666666666669</ele><time>2026-04-18T14:07:02Z</time></trkpt><trkpt lat="45.056915546352776" lon="8.161217751562518"><ele>236.0</ele><time>2026-04-18T14:07:03Z</time></trkpt><trkpt lat="45.056935458534156" lon="8.161334608462328"><ele>236.0</ele><time>2026-04-18T14:07:04Z</time></trkpt><trkpt lat="45.056956782371046" lon="8.16144925579514"><ele>236.00000000000003</ele><time>2026-04-18T14:07:05Z</time></trkpt><trkpt lat="45.056982177269695" lon="8.161568371888999"><ele>236.00000000000003</ele><time>2026-04-18T14:07:06Z</time></trkpt><trkpt lat="45.057003501594274" lon="8.16168453117731"><ele>236.0</ele><time>2026-04-18T14:07:07Z</time></trkpt><trkpt lat="45.05702210239612" lon="8.161792737759265"><ele>236.0</ele><time>2026-04-18T14:07:08Z</time></trkpt><trkpt lat="45.05705071304489" lon="8.161969851804303"><ele>237.20000000000002</ele><time>2026-04-18T14:07:10Z</time></trkpt><trkpt lat="45.057071262095306" lon="8.162126124674357"><ele>238.40000000000003</ele><time>2026-04-18T14:07:12Z</time></trkpt><trkpt lat="45.05707822929939" lon="8.1622847697484"><ele>239.6</ele><time>2026-04-18T14:07:14Z</time></trkpt><trkpt lat="45.05705113101964" lon="8.162387912197381"><ele>240.8</ele><time>2026-04-18T14:07:16Z</time></trkpt><trkpt lat="45.05712030368102" lon="8.162438428879039"><ele>242.0</ele><time>2026-04-18T14:07:37Z</time></trkpt><trkpt lat="45.05719334102124" lon="8.162420299852625"><ele>242.8</ele><time>2026-04-18T14:07:39Z</time></trkpt><trkpt lat="45.0572817614925" lon="8.162408587510692"><ele>243.6</ele><time>2026-04-18T14:07:41Z</time></trkpt><trkpt lat="45.057376356362674" lon="8.162419900375783"><ele>244.40000000000003</ele><time>2026-04-18T14:07:43Z</time></trkpt><trkpt lat="45.05744962905108" lon="8.162452985359172"><ele>245.20000000000002</ele><time>2026-04-18T14:07:45Z</time></trkpt><trkpt lat="45.057548630521914" lon="8.162551473024815"><ele>246.0</ele><time>2026-04-18T14:07:47Z</time></trkpt><trkpt lat="45.057587099491414" lon="8.162641596890149"><ele>244.66666666666666</ele><time>2026-04-18T14:07:49Z</time></trkpt><trkpt lat="45.057626824255586" lon="8.162719030109812"><ele>243.33333333333331</ele><time>2026-04-18T14:07:52Z</time></trkpt><trkpt lat="45.05767102962347" lon="8.162816898085088"><ele>242.0</ele><time>2026-04-18T14:07:54Z</time></trkpt><trkpt lat="45.05771849214906" lon="8.162895502244256"><ele>240.66666666666666</ele><time>2026-04-18T14:07:56Z</time></trkpt><trkpt lat="45.05776778357962" lon="8.16298318460545"><ele>239.33333333333331</ele><time>2026-04-18T14:07:58Z</time></trkpt><trkpt lat="45.057839811809224" lon="8.16307265568087"><ele>238.0</ele><time>2026-04-18T14:08:00Z</time></trkpt><trkpt lat="45.05792302012509" lon="8.163125339041363"><ele>238.0</ele><time>2026-04-18T14:08:03Z</time></trkpt><trkpt lat="45.05798816764278" lon="8.163178616024293"><ele>238.0</ele><time>2026-04-18T14:08:05Z</time></trkpt><trkpt lat="45.0580736978748" lon="8.163234219190246"><ele>238.0</ele><time>2026-04-18T14:08:07Z</time></trkpt><trkpt lat="45.05816730519519" lon="8.163302881739877"><ele>238.0</ele><time>2026-04-18T14:08:09Z</time></trkpt><trkpt lat="45.05825268489679" lon="8.163365411729329"><ele>238.0</ele><time>2026-04-18T14:08:11Z</time></trkpt><trkpt lat="45.05835256529144" lon="8.163429476558617"><ele>235.83333333333331</ele><time>2026-04-18T14:08:13Z</time></trkpt><trkpt lat="45.05840924765221" lon="8.163479812809097"><ele>233.66666666666666</ele><time>2026-04-18T14:08:14Z</time></trkpt><trkpt lat="45.058465928153375" lon="8.16352334658752"><ele>231.5</ele><time>2026-04-18T14:08:15Z</time></trkpt><trkpt lat="45.058582448957516" lon="8.163609189814085"><ele>229.33333333333331</ele><time>2026-04-18T14:08:17Z</time></trkpt><trkpt lat="45.05864206621395" lon="8.163653354439944"><ele>227.16666666666666</ele><time>2026-04-18T14:08:18Z</time></trkpt><trkpt lat="45.05870370314146" lon="8.163701911834039"><ele>225.0</ele><time>2026-04-18T14:08:19Z</time></trkpt><trkpt lat="45.05880726512089" lon="8.163778268699975"><ele>225.0</ele><time>2026-04-18T14:08:21Z</time></trkpt><trkpt lat="45.058866330397024" lon="8.163818558096123"><ele>225.0</ele><time>2026-04-18T14:08:22Z</time></trkpt><trkpt lat="45.05896384981642" lon="8.16387379865999"><ele>225.0</ele><time>2026-04-18T14:08:24Z</time></trkpt><trkpt lat="45.0590531517385" lon="8.163909576598675"><ele>225.0</ele><time>2026-04-18T14:08:26Z</time></trkpt><trkpt lat="45.05914139603617" lon="8.163948638048694"><ele>225.0</ele><time>2026-04-18T14:08:28Z</time></trkpt><trkpt lat="45.0592198173217" lon="8.163984786100125"><ele>225.0</ele><time>2026-04-18T14:08:31Z</time></trkpt><trkpt lat="45.059281387546605" lon="8.16391848477776"><ele>223.2</ele><time>2026-04-18T14:08:33Z</time></trkpt><trkpt lat="45.059336617285666" lon="8.163789495557825"><ele>221.4</ele><time>2026-04-18T14:08:35Z</time></trkpt><trkpt lat="45.05940777408258" lon="8.163668535324037"><ele>219.60000000000002</ele><time>2026-04-18T14:08:37Z</time></trkpt><trkpt lat="45.05945078136437" lon="8.163575182891671"><ele>217.8</ele><time>2026-04-18T14:08:39Z</time></trkpt><trkpt lat="45.05951501072789" lon="8.163648591754093"><ele>216.0</ele><time>2026-04-18T14:08:43Z</time></trkpt><trkpt lat="45.059553483418604" lon="8.163761359768694"><ele>216.0</ele><time>2026-04-18T14:08:46Z</time></trkpt><trkpt lat="45.05959103171622" lon="8.163836140786062"><ele>216.0</ele><time>2026-04-18T14:08:48Z</time></trkpt><trkpt lat="45.0596512613219" lon="8.163937256378908"><ele>216.0</ele><time>2026-04-18T14:08:50Z</time></trkpt><trkpt lat="45.05969308071049" lon="8.164015271995394"><ele>216.0</ele><time>2026-04-18T14:08:51Z</time></trkpt><trkpt lat="45.059739478026025" lon="8.16410073213689"><ele>216.0</ele><time>2026-04-18T14:08:52Z</time></trkpt><trkpt lat="45.05979093237849" lon="8.164196700483227"><ele>216.0</ele><time>2026-04-18T14:08:53Z</time></trkpt><trkpt lat="45.05985285347352" lon="8.164300856861354"><ele>215.8</ele><time>2026-04-18T14:08:54Z</time></trkpt><trkpt lat="45.05992354982964" lon="8.164413903581064"><ele>215.60000000000002</ele><time>2026-04-18T14:08:55Z</time></trkpt><trkpt lat="45.060000120080836" lon="8.16452654354039"><ele>215.4</ele><time>2026-04-18T14:08:56Z</time></trkpt><trkpt lat="45.06008627546701" lon="8.164640520260399"><ele>215.2</ele><time>2026-04-18T14:08:57Z</time></trkpt><trkpt lat="45.06015981133806" lon="8.164744508345615"><ele>215.0</ele><time>2026-04-18T14:08:58Z</time></trkpt><trkpt lat="45.06021502080396" lon="8.164833589771835"><ele>215.00000000000003</ele><time>2026-04-18T14:08:59Z</time></trkpt><trkpt lat="45.06025410747894" lon="8.164905177591466"><ele>215.0</ele><time>2026-04-18T14:09:00Z</time></trkpt><trkpt lat="45.06022461375919" lon="8.16499545085685"><ele>215.0</ele><time>2026-04-18T14:09:03Z</time></trkpt><trkpt lat="45.06016337045163" lon="8.164904828268458"><ele>215.0</ele><time>2026-04-18T14:09:05Z</time></trkpt><trkpt lat="45.06007791850902" lon="8.164823655162099"><ele>215.00000000000003</ele><time>2026-04-18T14:09:06Z</time></trkpt><trkpt lat="45.0599700347744" lon="8.164758121752355"><ele>215.0</ele><time>2026-04-18T14:09:07Z</time></trkpt><trkpt lat="45.05984424752515" lon="8.164667179425283"><ele>219.0</ele><time>2026-04-18T14:09:08Z</time></trkpt><trkpt lat="45.059719447234706" lon="8.164547777182449"><ele>223.0</ele><time>2026-04-18T14:09:09Z</time></trkpt><trkpt lat="45.05957172071087" lon="8.164435890828651"><ele>227.0</ele><time>2026-04-18T14:09:10Z</time></trkpt><trkpt lat="45.05942558950095" lon="8.164326230685884"><ele>227.0</ele><time>2026-04-18T14:09:11Z</time></trkpt><trkpt lat="45.059295039331694" lon="8.16422797347253"><ele>227.0</ele><time>2026-04-18T14:09:12Z</time></trkpt><trkpt lat="45.0591818381783" lon="8.16414664476941"><ele>227.0</ele><time>2026-04-18T14:09:13Z</time></trkpt><trkpt lat="45.05908419900066" lon="8.164092700461834"><ele>227.0</ele><time>2026-04-18T14:09:14Z</time></trkpt><trkpt lat="45.05898706779404" lon="8.164060497883927"><ele>229.2</ele><time>2026-04-18T14:09:15Z</time></trkpt><trkpt lat="45.058889446598634" lon="8.164093614781033"><ele>231.39999999999998</ele><time>2026-04-18T14:09:16Z</time></trkpt><trkpt lat="45.058814610723154" lon="8.164195028999474"><ele>233.60000000000002</ele><time>2026-04-18T14:09:17Z</time></trkpt><trkpt lat="45.05881073339386" lon="8.16434231072381"><ele>235.8</ele><time>2026-04-18T14:09:18Z</time></trkpt><trkpt lat="45.05882574870628" lon="8.16448496563896"><ele>238.0</ele><time>2026-04-18T14:09:19Z</time></trkpt><trkpt lat="45.05890937526632" lon="8.164638435340638"><ele>238.0</ele><time>2026-04-18T14:09:20Z</time></trkpt><trkpt lat="45.058968460505106" lon="8.164830212008225"><ele>238.0</ele><time>2026-04-18T14:09:21Z</time></trkpt><trkpt lat="45.05906022298148" lon="8.165036415404751"><ele>238.0</ele><time>2026-04-18T14:09:22Z</time></trkpt><trkpt lat="45.059152640646126" lon="8.165235273166008"><ele>237.25</ele><time>2026-04-18T14:09:23Z</time></trkpt><trkpt lat="45.05924133885181" lon="8.165418024102518"><ele>236.5</ele><time>2026-04-18T14:09:24Z</time></trkpt><trkpt lat="45.05932520081076" lon="8.165590471727253"><ele>235.75</ele><time>2026-04-18T14:09:25Z</time></trkpt><trkpt lat="45.05940299738587" lon="8.165757831438631"><ele>235.0</ele><time>2026-04-18T14:09:26Z</time></trkpt><trkpt lat="45.059457684309635" lon="8.165918052607246"><ele>237.0</ele><time>2026-04-18T14:09:27Z</time></trkpt><trkpt lat="45.05952416351145" lon="8.16606617894044"><ele>239.0</ele><time>2026-04-18T14:09:28Z</time></trkpt><trkpt lat="45.0595904874702" lon="8.166216144368175"><ele>241.0</ele><time>2026-04-18T14:09:29Z</time></trkpt><trkpt lat="45.05963652034138" lon="8.166404794959812"><ele>243.0</ele><time>2026-04-18T14:09:30Z</time></trkpt><trkpt lat="45.059682770856114" lon="8.166602556903538"><ele>243.5</ele><time>2026-04-18T14:09:31Z</time></trkpt><trkpt lat="45.05972702287668" lon="8.166803060906535"><ele>244.0</ele><time>2026-04-18T14:09:32Z</time></trkpt><trkpt lat="45.05976106942481" lon="8.166973541297754"><ele>244.5</ele><time>2026-04-18T14:09:33Z</time></trkpt><trkpt lat="45.0597882311664" lon="8.167120291140638"><ele>245.0</ele><time>2026-04-18T14:09:34Z</time></trkpt><trkpt lat="45.05980555983732" lon="8.167248867301742"><ele>244.66666666666669</ele><time>2026-04-18T14:09:35Z</time></trkpt><trkpt lat="45.05979735499916" lon="8.167361389044155"><ele>244.33333333333334</ele><time>2026-04-18T14:09:36Z</time></trkpt><trkpt lat="45.059770337054715" lon="8.167460616779044"><ele>244.0</ele><time>2026-04-18T14:09:37Z</time></trkpt><trkpt lat="45.05970447228489" lon="8.167529952599711"><ele>243.66666666666669</ele><time>2026-04-18T14:09:39Z</time></trkpt><trkpt lat="45.05966763861699" lon="8.167686900762014"><ele>243.33333333333334</ele><time>2026-04-18T14:09:50Z</time></trkpt><trkpt lat="45.059687261499725" lon="8.16781263985447"><ele>243.0</ele><time>2026-04-18T14:09:51Z</time></trkpt><trkpt lat="45.05972701861825" lon="8.167964078749447"><ele>243.0</ele><time>2026-04-18T14:09:52Z</time></trkpt><trkpt lat="45.059767346410794" lon="8.168145245861192"><ele>243.0</ele><time>2026-04-18T14:09:53Z</time></trkpt><trkpt lat="45.059841773048916" lon="8.16832164792789"><ele>243.0</ele><time>2026-04-18T14:09:54Z</time></trkpt><trkpt lat="45.0598868571266" lon="8.168515783574646"><ele>243.0</ele><time>2026-04-18T14:09:55Z</time></trkpt><trkpt lat="45.05990861800224" lon="8.168681684040662"><ele>243.0</ele><time>2026-04-18T14:09:56Z</time></trkpt><trkpt lat="45.05989430212681" lon="8.168797748258612"><ele>243.0</ele><time>2026-04-18T14:09:57Z</time></trkpt><trkpt lat="45.05986599496452" lon="8.168913553033269"><ele>243.0</ele><time>2026-04-18T14:09:58Z</time></trkpt><trkpt lat="45.05992956090309" lon="8.169048586674144"><ele>243.0</ele><time>2026-04-18T14:09:59Z</time></trkpt><trkpt lat="45.059954963206025" lon="8.169168046504357"><ele>243.0</ele><time>2026-04-18T14:10:00Z</time></trkpt><trkpt lat="45.05998464375549" lon="8.169292771269944"><ele>244.25</ele><time>2026-04-18T14:10:01Z</time></trkpt><trkpt lat="45.0600189772782" lon="8.16942722487866"><ele>245.5</ele><time>2026-04-18T14:10:02Z</time></trkpt><trkpt lat="45.06004782197938" lon="8.169591693715441"><ele>246.75</ele><time>2026-04-18T14:10:03Z</time></trkpt><trkpt lat="45.060077404247856" lon="8.16978283703646"><ele>248.0</ele><time>2026-04-18T14:10:04Z</time></trkpt><trkpt lat="45.06010170008353" lon="8.169981784640294"><ele>250.33333333333334</ele><time>2026-04-18T14:10:05Z</time></trkpt><trkpt lat="45.06011400759258" lon="8.170185556583307"><ele>252.66666666666669</ele><time>2026-04-18T14:10:06Z</time></trkpt><trkpt lat="45.06011727167027" lon="8.170411473940234"><ele>255.0</ele><time>2026-04-18T14:10:07Z</time></trkpt><trkpt lat="45.060117822509184" lon="8.170669523316166"><ele>256.3333333333333</ele><time>2026-04-18T14:10:08Z</time></trkpt><trkpt lat="45.06012579051528" lon="8.17092175510074"><ele>257.66666666666663</ele><time>2026-04-18T14:10:09Z</time></trkpt><trkpt lat="45.06014542350575" lon="8.171146257396185"><ele>259.0</ele><time>2026-04-18T14:10:10Z</time></trkpt><trkpt lat="45.060157113134174" lon="8.171344289552168"><ele>260.5</ele><time>2026-04-18T14:10:11Z</time></trkpt><trkpt lat="45.060160732202554" lon="8.171530959821522"><ele>262.0</ele><time>2026-04-18T14:10:12Z</time></trkpt><trkpt lat="45.060148370500976" lon="8.171729523001192"><ele>263.5</ele><time>2026-04-18T14:10:13Z</time></trkpt><trkpt lat="45.06010998473392" lon="8.171960315775966"><ele>265.0</ele><time>2026-04-18T14:10:14Z</time></trkpt><trkpt lat="45.060054135886574" lon="8.172212067718155"><ele>266.66666666666663</ele><time>2026-04-18T14:10:15Z</time></trkpt><trkpt lat="45.059994865236504" lon="8.172489040594396"><ele>268.3333333333333</ele><time>2026-04-18T14:10:16Z</time></trkpt><trkpt lat="45.05992689704803" lon="8.172781975537818"><ele>270.0</ele><time>2026-04-18T14:10:17Z</time></trkpt><trkpt lat="45.0598004766789" lon="8.173290777012266"><ele>272.0</ele><time>2026-04-18T14:10:19Z</time></trkpt><trkpt lat="45.059749181663385" lon="8.173496406145345"><ele>274.0</ele><time>2026-04-18T14:10:20Z</time></trkpt><trkpt lat="45.05970424840212" lon="8.173679114979272"><ele>276.0</ele><time>2026-04-18T14:10:21Z</time></trkpt><trkpt lat="45.05965509863116" lon="8.173851687122058"><ele>278.0</ele><time>2026-04-18T14:10:22Z</time></trkpt><trkpt lat="45.059593099452584" lon="8.174008379006054"><ele>281.6666666666667</ele><time>2026-04-18T14:10:23Z</time></trkpt><trkpt lat="45.05950320183516" lon="8.174172761700175"><ele>285.3333333333333</ele><time>2026-04-18T14:10:24Z</time></trkpt><trkpt lat="45.0593880720042" lon="8.17434243501976"><ele>289.0</ele><time>2026-04-18T14:10:25Z</time></trkpt><trkpt lat="45.05927240781235" lon="8.174518358853188"><ele>289.0</ele><time>2026-04-18T14:10:26Z</time></trkpt><trkpt lat="45.059162863152494" lon="8.174702173366859"><ele>289.0</ele><time>2026-04-18T14:10:27Z</time></trkpt><trkpt lat="45.05906592175176" lon="8.174897663369174"><ele>289.0</ele><time>2026-04-18T14:10:28Z</time></trkpt><trkpt lat="45.05898920216895" lon="8.17509444556193"><ele>291.0</ele><time>2026-04-18T14:10:29Z</time></trkpt><trkpt lat="45.05892684767315" lon="8.175287047137772"><ele>293.0</ele><time>2026-04-18T14:10:30Z</time></trkpt><trkpt lat="45.058879684313" lon="8.17547085668032"><ele>295.0</ele><time>2026-04-18T14:10:31Z</time></trkpt><trkpt lat="45.05884044392569" lon="8.175662199772956"><ele>297.0</ele><time>2026-04-18T14:10:32Z</time></trkpt><trkpt lat="45.05880366234564" lon="8.175861243707566"><ele>298.75</ele><time>2026-04-18T14:10:33Z</time></trkpt><trkpt lat="45.05876784316951" lon="8.176058470952329"><ele>300.5</ele><time>2026-04-18T14:10:34Z</time></trkpt><trkpt lat="45.05873576146871" lon="8.176234803845464"><ele>302.25</ele><time>2026-04-18T14:10:35Z</time></trkpt><trkpt lat="45.05870605714991" lon="8.176387372750522"><ele>304.0</ele><time>2026-04-18T14:10:36Z</time></trkpt><trkpt lat="45.05867523413778" lon="8.176508948649982"><ele>304.4</ele><time>2026-04-18T14:10:37Z</time></trkpt><trkpt lat="45.05864996188097" lon="8.17659353820701"><ele>304.79999999999995</ele><time>2026-04-18T14:10:38Z</time></trkpt><trkpt lat="45.058632259394315" lon="8.176693563162262"><ele>305.20000000000005</ele><time>2026-04-18T14:10:40Z</time></trkpt><trkpt lat="45.05880701718615" lon="8.176790931579815"><ele>305.6</ele><time>2026-04-18T14:10:44Z</time></trkpt><trkpt lat="45.05892491827274" lon="8.176767744101104"><ele>306.0</ele><time>2026-04-18T14:10:45Z</time></trkpt><trkpt lat="45.059048928567655" lon="8.176782788757656"><ele>307.0</ele><time>2026-04-18T14:10:46Z</time></trkpt><trkpt lat="45.05918354863413" lon="8.176773480771555"><ele>308.0</ele><time>2026-04-18T14:10:47Z</time></trkpt><trkpt lat="45.05930477717057" lon="8.176753783069241"><ele>309.0</ele><time>2026-04-18T14:10:48Z</time></trkpt><trkpt lat="45.05941279668852" lon="8.176753545166923"><ele>310.0</ele><time>2026-04-18T14:10:49Z</time></trkpt><trkpt lat="45.0595067260044" lon="8.17677781885037"><ele>310.0</ele><time>2026-04-18T14:10:50Z</time></trkpt><trkpt lat="45.059607791796" lon="8.176831018369368"><ele>310.0</ele><time>2026-04-18T14:10:51Z</time></trkpt><trkpt lat="45.05970995833796" lon="8.176914534148162"><ele>310.0</ele><time>2026-04-18T14:10:52Z</time></trkpt><trkpt lat="45.059827556416046" lon="8.17703893316673"><ele>310.0</ele><time>2026-04-18T14:10:53Z</time></trkpt><trkpt lat="45.05993772442578" lon="8.177158109244353"><ele>310.2</ele><time>2026-04-18T14:10:54Z</time></trkpt><trkpt lat="45.06003328406368" lon="8.17726489029169"><ele>310.4</ele><time>2026-04-18T14:10:55Z</time></trkpt><trkpt lat="45.06011398189254" lon="8.17737168923367"><ele>310.6</ele><time>2026-04-18T14:10:56Z</time></trkpt><trkpt lat="45.06018060960084" lon="8.177477342300296"><ele>310.8</ele><time>2026-04-18T14:10:57Z</time></trkpt><trkpt lat="45.06024086015979" lon="8.17760969681485"><ele>311.0</ele><time>2026-04-18T14:10:58Z</time></trkpt><trkpt lat="45.0603019732732" lon="8.177756492337826"><ele>311.0</ele><time>2026-04-18T14:10:59Z</time></trkpt><trkpt lat="45.06038195587516" lon="8.177911285307061"><ele>311.0</ele><time>2026-04-18T14:11:00Z</time></trkpt><trkpt lat="45.0604730825866" lon="8.178074783495658"><ele>311.0</ele><time>2026-04-18T14:11:01Z</time></trkpt><trkpt lat="45.06056400374655" lon="8.178232758218048"><ele>311.0</ele><time>2026-04-18T14:11:02Z</time></trkpt><trkpt lat="45.06065293122954" lon="8.178378000402635"><ele>311.0</ele><time>2026-04-18T14:11:03Z</time></trkpt><trkpt lat="45.06072507172666" lon="8.178497298107532"><ele>311.0</ele><time>2026-04-18T14:11:04Z</time></trkpt><trkpt lat="45.0607957500949" lon="8.1786117986602"><ele>311.0</ele><time>2026-04-18T14:11:05Z</time></trkpt><trkpt lat="45.060870851252496" lon="8.178728730070933"><ele>311.0</ele><time>2026-04-18T14:11:06Z</time></trkpt><trkpt lat="45.060966095591006" lon="8.17885444586912"><ele>312.75</ele><time>2026-04-18T14:11:07Z</time></trkpt><trkpt lat="45.06107678021692" lon="8.178985848476472"><ele>314.5</ele><time>2026-04-18T14:11:08Z</time></trkpt><trkpt lat="45.06119010002552" lon="8.179120969869953"><ele>316.25</ele><time>2026-04-18T14:11:09Z</time></trkpt><trkpt lat="45.06130131034292" lon="8.179250184216126"><ele>318.0</ele><time>2026-04-18T14:11:10Z</time></trkpt><trkpt lat="45.06140434440132" lon="8.179375284617054"><ele>318.3333333333333</ele><time>2026-04-18T14:11:11Z</time></trkpt><trkpt lat="45.0614900872658" lon="8.179476335822102"><ele>318.6666666666667</ele><time>2026-04-18T14:11:12Z</time></trkpt><trkpt lat="45.06154981608007" lon="8.179549242355636"><ele>319.0</ele><time>2026-04-18T14:11:13Z</time></trkpt><trkpt lat="45.06159922428425" lon="8.179621612621395"><ele>319.33333333333337</ele><time>2026-04-18T14:11:14Z</time></trkpt><trkpt lat="45.061632348595694" lon="8.179713289734787"><ele>319.6666666666667</ele><time>2026-04-18T14:11:15Z</time></trkpt><trkpt lat="45.06167130943681" lon="8.179861603955787"><ele>320.0</ele><time>2026-04-18T14:11:16Z</time></trkpt><trkpt lat="45.06171018127188" lon="8.179994614339522"><ele>323.4</ele><time>2026-04-18T14:11:17Z</time></trkpt><trkpt lat="45.06174538555312" lon="8.180128460432998"><ele>326.8</ele><time>2026-04-18T14:11:19Z</time></trkpt><trkpt lat="45.06180592936486" lon="8.180320917276418"><ele>330.20000000000005</ele><time>2026-04-18T14:11:21Z</time></trkpt><trkpt lat="45.061842900901546" lon="8.180456736032012"><ele>333.6</ele><time>2026-04-18T14:11:22Z</time></trkpt><trkpt lat="45.06185984807634" lon="8.180582978831458"><ele>337.0</ele><time>2026-04-18T14:11:23Z</time></trkpt><trkpt lat="45.061863240051835" lon="8.180682066300651"><ele>335.8</ele><time>2026-04-18T14:11:24Z</time></trkpt><trkpt lat="45.06181112288841" lon="8.180862733096722"><ele>334.6</ele><time>2026-04-18T14:11:26Z</time></trkpt><trkpt lat="45.06176444717075" lon="8.180995889464514"><ele>333.40000000000003</ele><time>2026-04-18T14:11:27Z</time></trkpt><trkpt lat="45.06172487106135" lon="8.181109755077681"><ele>332.20000000000005</ele><time>2026-04-18T14:11:28Z</time></trkpt><trkpt lat="45.061671979644586" lon="8.181228740285519"><ele>331.0</ele><time>2026-04-18T14:11:30Z</time></trkpt><trkpt lat="45.06160663980225" lon="8.18128554466184"><ele>335.66666666666663</ele><time>2026-04-18T14:11:33Z</time></trkpt><trkpt lat="45.06174244298623" lon="8.18171164138746"><ele>340.3333333333333</ele><time>2026-04-18T14:11:54Z</time></trkpt><trkpt lat="45.0618288630026" lon="8.1818198465623"><ele>345.0</ele><time>2026-04-18T14:11:56Z</time></trkpt><trkpt lat="45.06191494451205" lon="8.181882550566565"><ele>345.0</ele><time>2026-04-18T14:11:58Z</time></trkpt><trkpt lat="45.06201245119991" lon="8.181899038862596"><ele>345.0</ele><time>2026-04-18T14:12:01Z</time></trkpt><trkpt lat="45.06208670213604" lon="8.181903584189735"><ele>345.0</ele><time>2026-04-18T14:12:03Z</time></trkpt><trkpt lat="45.06216497956636" lon="8.181921174249576"><ele>345.0</ele><time>2026-04-18T14:12:05Z</time></trkpt><trkpt lat="45.06226287652908" lon="8.181937088796898"><ele>345.0</ele><time>2026-04-18T14:12:07Z</time></trkpt><trkpt lat="45.06232658031809" lon="8.18194246472744"><ele>345.0</ele><time>2026-04-18T14:12:08Z</time></trkpt><trkpt lat="45.06242218073772" lon="8.181929079537358"><ele>348.75</ele><time>2026-04-18T14:12:10Z</time></trkpt><trkpt lat="45.06254751154944" lon="8.181909118442013"><ele>352.5</ele><time>2026-04-18T14:12:12Z</time></trkpt><trkpt lat="45.062664432582096" lon="8.181904248996418"><ele>356.25</ele><time>2026-04-18T14:12:14Z</time></trkpt><trkpt lat="45.06278081962086" lon="8.181913015946659"><ele>360.0</ele><time>2026-04-18T14:12:16Z</time></trkpt><trkpt lat="45.06288693493084" lon="8.18194576966247"><ele>360.0</ele><time>2026-04-18T14:12:18Z</time></trkpt><trkpt lat="45.06298940649998" lon="8.181996201021864"><ele>360.0</ele><time>2026-04-18T14:12:20Z</time></trkpt><trkpt lat="45.06308271705643" lon="8.182061169601573"><ele>360.0</ele><time>2026-04-18T14:12:22Z</time></trkpt><trkpt lat="45.0631402945048" lon="8.182194007943984"><ele>360.0</ele><time>2026-04-18T14:12:24Z</time></trkpt><trkpt lat="45.06316843697999" lon="8.182290871139788"><ele>360.0</ele><time>2026-04-18T14:12:27Z</time></trkpt><trkpt lat="45.06318287990562" lon="8.182402700683646"><ele>357.8</ele><time>2026-04-18T14:12:29Z</time></trkpt><trkpt lat="45.06321737448541" lon="8.182554555045513"><ele>355.6</ele><time>2026-04-18T14:12:31Z</time></trkpt><trkpt lat="45.06323428297539" lon="8.182699297957418"><ele>353.4</ele><time>2026-04-18T14:12:33Z</time></trkpt><trkpt lat="45.0632255371745" lon="8.182843791485718"><ele>351.2</ele><time>2026-04-18T14:12:35Z</time></trkpt><trkpt lat="45.063174420852604" lon="8.182989006535035"><ele>349.0</ele><time>2026-04-18T14:12:37Z</time></trkpt><trkpt lat="45.0631232780482" lon="8.183041571817935"><ele>348.99999999999994</ele><time>2026-04-18T14:12:38Z</time></trkpt><trkpt lat="45.06307059945529" lon="8.183092962680789"><ele>349.0</ele><time>2026-04-18T14:12:39Z</time></trkpt><trkpt lat="45.06301483256843" lon="8.183178885260187"><ele>349.0</ele><time>2026-04-18T14:12:40Z</time></trkpt><trkpt lat="45.062957420528086" lon="8.18325783036855"><ele>349.0</ele><time>2026-04-18T14:12:41Z</time></trkpt><trkpt lat="45.06290371939105" lon="8.183306384213225"><ele>349.0</ele><time>2026-04-18T14:12:42Z</time></trkpt><trkpt lat="45.06285290450173" lon="8.183396689594044"><ele>348.99999999999994</ele><time>2026-04-18T14:12:43Z</time></trkpt><trkpt lat="45.062806169408724" lon="8.18347643819313"><ele>349.0</ele><time>2026-04-18T14:12:45Z</time></trkpt><trkpt lat="45.06276266875699" lon="8.18357967420757"><ele>349.2</ele><time>2026-04-18T14:12:47Z</time></trkpt><trkpt lat="45.06274945634467" lon="8.183766865204134"><ele>349.4</ele><time>2026-04-18T14:12:49Z</time></trkpt><trkpt lat="45.06275101666046" lon="8.183867689063776"><ele>349.6</ele><time>2026-04-18T14:12:50Z</time></trkpt><trkpt lat="45.062801279993934" lon="8.184012190874808"><ele>349.8</ele><time>2026-04-18T14:12:52Z</time></trkpt><trkpt lat="45.06285025579568" lon="8.184122841980297"><ele>350.0</ele><time>2026-04-18T14:12:54Z</time></trkpt><trkpt lat="45.06289577712045" lon="8.184273945837264"><ele>351.2</ele><time>2026-04-18T14:12:56Z</time></trkpt><trkpt lat="45.06291956850052" lon="8.184372022895419"><ele>352.4</ele><time>2026-04-18T14:12:57Z</time></trkpt><trkpt lat="45.062971280032784" lon="8.18454371341537"><ele>353.6</ele><time>2026-04-18T14:12:59Z</time></trkpt><trkpt lat="45.0630089627501" lon="8.184618560318652"><ele>354.8</ele><time>2026-04-18T14:13:00Z</time></trkpt><trkpt lat="45.0630643609666" lon="8.184761925005184"><ele>356.0</ele><time>2026-04-18T14:13:02Z</time></trkpt><trkpt lat="45.063091236291584" lon="8.184876789018826"><ele>357.0</ele><time>2026-04-18T14:13:04Z</time></trkpt><trkpt lat="45.06314245709112" lon="8.185046038269869"><ele>358.0</ele><time>2026-04-18T14:13:06Z</time></trkpt><trkpt lat="45.06311809780807" lon="8.185195543326373"><ele>359.0</ele><time>2026-04-18T14:13:08Z</time></trkpt><trkpt lat="45.06303137667584" lon="8.18537303873419"><ele>360.0</ele><time>2026-04-18T14:13:10Z</time></trkpt><trkpt lat="45.06297154661621" lon="8.185453353982608"><ele>360.0</ele><time>2026-04-18T14:13:11Z</time></trkpt><trkpt lat="45.06292792014087" lon="8.185525529712562"><ele>360.0</ele><time>2026-04-18T14:13:12Z</time></trkpt><trkpt lat="45.06286580615588" lon="8.185632544099711"><ele>360.0</ele><time>2026-04-18T14:13:14Z</time></trkpt><trkpt lat="45.06280866620429" lon="8.18569227134465"><ele>360.0</ele><time>2026-04-18T14:13:15Z</time></trkpt><trkpt lat="45.06277675188699" lon="8.185780384520195"><ele>360.0</ele><time>2026-04-18T14:13:17Z</time></trkpt><trkpt lat="45.06283750926043" lon="8.185828236378843"><ele>360.0</ele><time>2026-04-18T14:13:29Z</time></trkpt><trkpt lat="45.06292902026656" lon="8.185759906491207"><ele>360.0</ele><time>2026-04-18T14:13:31Z</time></trkpt><trkpt lat="45.06300970541373" lon="8.18569451079082"><ele>360.0</ele><time>2026-04-18T14:13:33Z</time></trkpt><trkpt lat="45.063117339580586" lon="8.185653994311751"><ele>360.0</ele><time>2026-04-18T14:13:35Z</time></trkpt><trkpt lat="45.06318578826465" lon="8.185652483064521"><ele>360.0</ele><time>2026-04-18T14:13:37Z</time></trkpt><trkpt lat="45.06330824172017" lon="8.185652630552903"><ele>360.0</ele><time>2026-04-18T14:13:39Z</time></trkpt><trkpt lat="45.06343056395774" lon="8.185650958144207"><ele>364.8</ele><time>2026-04-18T14:13:41Z</time></trkpt><trkpt lat="45.06351183912631" lon="8.185577554050324"><ele>369.6</ele><time>2026-04-18T14:13:43Z</time></trkpt><trkpt lat="45.06356908583907" lon="8.185501551135655"><ele>374.4</ele><time>2026-04-18T14:13:44Z</time></trkpt><trkpt lat="45.06363992460505" lon="8.185336301279849"><ele>379.2</ele><time>2026-04-18T14:13:46Z</time></trkpt><trkpt lat="45.063694374497096" lon="8.185255021258607"><ele>384.0</ele><time>2026-04-18T14:13:47Z</time></trkpt><trkpt lat="45.063752620149444" lon="8.185156122056737"><ele>384.0</ele><time>2026-04-18T14:13:48Z</time></trkpt><trkpt lat="45.06381206881241" lon="8.185063587199984"><ele>384.0</ele><time>2026-04-18T14:13:49Z</time></trkpt><trkpt lat="45.06386339173014" lon="8.184997875994691"><ele>384.0</ele><time>2026-04-18T14:13:50Z</time></trkpt><trkpt lat="45.06391457531829" lon="8.184938217881966"><ele>384.0</ele><time>2026-04-18T14:13:51Z</time></trkpt><trkpt lat="45.063982162808536" lon="8.184878787946872"><ele>384.0</ele><time>2026-04-18T14:13:53Z</time></trkpt><trkpt lat="45.064028300094144" lon="8.184966622006954"><ele>384.0</ele><time>2026-04-18T14:13:55Z</time></trkpt><trkpt lat="45.0640449873989" lon="8.185141102038962"><ele>384.0</ele><time>2026-04-18T14:14:17Z</time></trkpt><trkpt lat="45.06408275475146" lon="8.185222693155648"><ele>384.0</ele><time>2026-04-18T14:14:18Z</time></trkpt><trkpt lat="45.06413512049451" lon="8.185356147992959"><ele>384.0</ele><time>2026-04-18T14:14:20Z</time></trkpt><trkpt lat="45.06414740206816" lon="8.185448429278093"><ele>384.0</ele><time>2026-04-18T14:14:21Z</time></trkpt><trkpt lat="45.06415267393082" lon="8.185552596240102"><ele>384.0</ele><time>2026-04-18T14:14:22Z</time></trkpt><trkpt lat="45.064138968827244" lon="8.185661826598974"><ele>384.0</ele><time>2026-04-18T14:14:23Z</time></trkpt><trkpt lat="45.06411205539701" lon="8.185756315912474"><ele>385.99999999999994</ele><time>2026-04-18T14:14:24Z</time></trkpt><trkpt lat="45.06409694918284" lon="8.185856121036103"><ele>388.0</ele><time>2026-04-18T14:14:25Z</time></trkpt><trkpt lat="45.064036339792544" lon="8.185957129780864"><ele>390.0</ele><time>2026-04-18T14:14:27Z</time></trkpt><trkpt lat="45.063986780147985" lon="8.18603047871555"><ele>392.0</ele><time>2026-04-18T14:14:28Z</time></trkpt><trkpt lat="45.063945776067214" lon="8.186105190398841"><ele>394.0</ele><time>2026-04-18T14:14:29Z</time></trkpt><trkpt lat="45.06392347693454" lon="8.186195255913018"><ele>395.99999999999994</ele><time>2026-04-18T14:14:31Z</time></trkpt><trkpt lat="45.06387870609241" lon="8.186278937822493"><ele>398.0</ele><time>2026-04-18T14:14:33Z</time></trkpt><trkpt lat="45.063827080193555" lon="8.186333377984647"><ele>397.99999999999994</ele><time>2026-04-18T14:14:34Z</time></trkpt><trkpt lat="45.06376993244797" lon="8.186371461945816"><ele>398.0</ele><time>2026-04-18T14:14:35Z</time></trkpt><trkpt lat="45.06370772497791" lon="8.186423648338994"><ele>398.0</ele><time>2026-04-18T14:14:36Z</time></trkpt><trkpt lat="45.06365151486097" lon="8.186481657487072"><ele>398.0</ele><time>2026-04-18T14:14:37Z</time></trkpt><trkpt lat="45.063607181899805" lon="8.18655447399923"><ele>398.0</ele><time>2026-04-18T14:14:38Z</time></trkpt><trkpt lat="45.06355901832456" lon="8.186619348375013"><ele>397.99999999999994</ele><time>2026-04-18T14:14:39Z</time></trkpt><trkpt lat="45.0635156588661" lon="8.186693177821748"><ele>398.0</ele><time>2026-04-18T14:14:40Z</time></trkpt><trkpt lat="45.06346827266429" lon="8.18677063054077"><ele>398.8333333333333</ele><time>2026-04-18T14:14:41Z</time></trkpt><trkpt lat="45.06342735987429" lon="8.186840645638068"><ele>399.66666666666663</ele><time>2026-04-18T14:14:42Z</time></trkpt><trkpt lat="45.063353802175286" lon="8.186936221231063"><ele>400.5</ele><time>2026-04-18T14:14:44Z</time></trkpt><trkpt lat="45.06329566230435" lon="8.187015029117248"><ele>401.33333333333337</ele><time>2026-04-18T14:14:47Z</time></trkpt><trkpt lat="45.06324221328644" lon="8.187088071362874"><ele>402.1666666666667</ele><time>2026-04-18T14:14:49Z</time></trkpt><trkpt lat="45.063187112627546" lon="8.187167852947706"><ele>403.0</ele><time>2026-04-18T14:14:51Z</time></trkpt><trkpt lat="45.063093966507395" lon="8.187276523288332"><ele>403.00000000000006</ele><time>2026-04-18T14:14:53Z</time></trkpt><trkpt lat="45.06303063925011" lon="8.187338542000434"><ele>403.0</ele><time>2026-04-18T14:14:54Z</time></trkpt><trkpt lat="45.062966354139114" lon="8.187414795749177"><ele>403.0</ele><time>2026-04-18T14:14:55Z</time></trkpt><trkpt lat="45.062895128591954" lon="8.18748491835549"><ele>403.0</ele><time>2026-04-18T14:14:56Z</time></trkpt><trkpt lat="45.06282198360455" lon="8.187559090229321"><ele>403.00000000000006</ele><time>2026-04-18T14:14:57Z</time></trkpt><trkpt lat="45.062753449216835" lon="8.18762837257469"><ele>403.0</ele><time>2026-04-18T14:14:58Z</time></trkpt><trkpt lat="45.06270285872319" lon="8.187694750601674"><ele>406.33333333333337</ele><time>2026-04-18T14:14:59Z</time></trkpt><trkpt lat="45.062655759151255" lon="8.187785144863973"><ele>409.6666666666667</ele><time>2026-04-18T14:15:00Z</time></trkpt><trkpt lat="45.062608488810035" lon="8.187884614486252"><ele>413.0</ele><time>2026-04-18T14:15:01Z</time></trkpt><trkpt lat="45.062531548941806" lon="8.187985665157722"><ele>416.33333333333337</ele><time>2026-04-18T14:15:03Z</time></trkpt><trkpt lat="45.06247730575902" lon="8.188062736074821"><ele>419.6666666666667</ele><time>2026-04-18T14:15:06Z</time></trkpt><trkpt lat="45.06248756901988" lon="8.188179158247612"><ele>423.0</ele><time>2026-04-18T14:15:08Z</time></trkpt><trkpt lat="45.06252305490138" lon="8.18835122357893"><ele>424.2</ele><time>2026-04-18T14:15:10Z</time></trkpt><trkpt lat="45.06251004372701" lon="8.188517504784143"><ele>425.4</ele><time>2026-04-18T14:15:12Z</time></trkpt><trkpt lat="45.06248062061674" lon="8.188660287089803"><ele>426.59999999999997</ele><time>2026-04-18T14:15:14Z</time></trkpt><trkpt lat="45.062449765046935" lon="8.188774597252491"><ele>427.79999999999995</ele><time>2026-04-18T14:15:16Z</time></trkpt><trkpt lat="45.06245878506815" lon="8.188905681982726"><ele>429.0</ele><time>2026-04-18T14:15:18Z</time></trkpt><trkpt lat="45.062481857619574" lon="8.189038669120064"><ele>426.2</ele><time>2026-04-18T14:15:20Z</time></trkpt><trkpt lat="45.06253900688042" lon="8.189154578704668"><ele>423.4</ele><time>2026-04-18T14:15:22Z</time></trkpt><trkpt lat="45.06259491426485" lon="8.189235148363304"><ele>420.6</ele><time>2026-04-18T14:15:23Z</time></trkpt><trkpt lat="45.062638908552906" lon="8.189304223797768"><ele>417.8</ele><time>2026-04-18T14:15:24Z</time></trkpt><trkpt lat="45.06271982406533" lon="8.189405920024063"><ele>415.0</ele><time>2026-04-18T14:15:26Z</time></trkpt><trkpt lat="45.06280070254103" lon="8.189504055440887"><ele>415.0</ele><time>2026-04-18T14:15:28Z</time></trkpt><trkpt lat="45.06287470733068" lon="8.189615818797598"><ele>415.0</ele><time>2026-04-18T14:15:30Z</time></trkpt><trkpt lat="45.06292849668811" lon="8.189685781811443"><ele>415.0</ele><time>2026-04-18T14:15:31Z</time></trkpt><trkpt lat="45.06302028695928" lon="8.189820674367603"><ele>415.0</ele><time>2026-04-18T14:15:33Z</time></trkpt><trkpt lat="45.06307378968767" lon="8.189925197088158"><ele>415.0</ele><time>2026-04-18T14:15:35Z</time></trkpt><trkpt lat="45.06308730219501" lon="8.19005623716587"><ele>412.4</ele><time>2026-04-18T14:15:37Z</time></trkpt><trkpt lat="45.06305850955542" lon="8.190220204040711"><ele>409.8</ele><time>2026-04-18T14:15:39Z</time></trkpt><trkpt lat="45.06305329235601" lon="8.190321505662034"><ele>407.20000000000005</ele><time>2026-04-18T14:15:40Z</time></trkpt><trkpt lat="45.06304296654028" lon="8.190443687454295"><ele>404.6</ele><time>2026-04-18T14:15:41Z</time></trkpt><trkpt lat="45.06302706991354" lon="8.190554774515027"><ele>402.0</ele><time>2026-04-18T14:15:43Z</time></trkpt><trkpt lat="45.0629664176125" lon="8.190674972162231"><ele>402.0</ele><time>2026-04-18T14:15:45Z</time></trkpt><trkpt lat="45.062892740645" lon="8.190763945135677"><ele>402.0</ele><time>2026-04-18T14:15:46Z</time></trkpt><trkpt lat="45.062805086056805" lon="8.190858841887648"><ele>402.0</ele><time>2026-04-18T14:15:47Z</time></trkpt><trkpt lat="45.062740722917326" lon="8.19092787256185"><ele>402.0</ele><time>2026-04-18T14:15:48Z</time></trkpt><trkpt lat="45.062680924912875" lon="8.191005175208506"><ele>402.0</ele><time>2026-04-18T14:15:49Z</time></trkpt><trkpt lat="45.06260711090457" lon="8.191072195342196"><ele>402.0</ele><time>2026-04-18T14:15:50Z</time></trkpt><trkpt lat="45.06253560706093" lon="8.191135373094967"><ele>402.0</ele><time>2026-04-18T14:15:51Z</time></trkpt><trkpt lat="45.06242916549592" lon="8.19126832461127"><ele>402.0</ele><time>2026-04-18T14:15:53Z</time></trkpt><trkpt lat="45.06236043764086" lon="8.191345607677631"><ele>402.0</ele><time>2026-04-18T14:15:54Z</time></trkpt><trkpt lat="45.06230698449799" lon="8.191409986355064"><ele>402.0</ele><time>2026-04-18T14:15:55Z</time></trkpt><trkpt lat="45.062238163153864" lon="8.191483983553876"><ele>400.5</ele><time>2026-04-18T14:15:56Z</time></trkpt><trkpt lat="45.0621621318053" lon="8.191567070856538"><ele>399.0</ele><time>2026-04-18T14:15:57Z</time></trkpt><trkpt lat="45.06210299575064" lon="8.191656468993331"><ele>397.5</ele><time>2026-04-18T14:15:58Z</time></trkpt><trkpt lat="45.062030500103766" lon="8.191751600485157"><ele>396.0</ele><time>2026-04-18T14:15:59Z</time></trkpt><trkpt lat="45.06196043290201" lon="8.191820363945892"><ele>394.5</ele><time>2026-04-18T14:16:00Z</time></trkpt><trkpt lat="45.06189873880093" lon="8.191889353647973"><ele>393.0</ele><time>2026-04-18T14:16:01Z</time></trkpt><trkpt lat="45.06180976008418" lon="8.191973415303297"><ele>393.0</ele><time>2026-04-18T14:16:03Z</time></trkpt><trkpt lat="45.06174231417827" lon="8.1920533683304"><ele>393.0</ele><time>2026-04-18T14:16:05Z</time></trkpt><trkpt lat="45.06168268611752" lon="8.19219399821172"><ele>393.0</ele><time>2026-04-18T14:16:07Z</time></trkpt><trkpt lat="45.06166722526221" lon="8.192288577383637"><ele>393.0</ele><time>2026-04-18T14:16:08Z</time></trkpt><trkpt lat="45.061642163883796" lon="8.192409476593241"><ele>393.0</ele><time>2026-04-18T14:16:10Z</time></trkpt><trkpt lat="45.061660290252895" lon="8.192528774076488"><ele>393.0</ele><time>2026-04-18T14:16:12Z</time></trkpt><trkpt lat="45.061732038361335" lon="8.192632694536314"><ele>393.1666666666667</ele><time>2026-04-18T14:16:14Z</time></trkpt><trkpt lat="45.061802639224204" lon="8.19275327362077"><ele>393.33333333333337</ele><time>2026-04-18T14:16:16Z</time></trkpt><trkpt lat="45.06180278414915" lon="8.19284614700341"><ele>393.5</ele><time>2026-04-18T14:16:17Z</time></trkpt><trkpt lat="45.06180419711771" lon="8.192936163433028"><ele>393.6666666666667</ele><time>2026-04-18T14:16:18Z</time></trkpt><trkpt lat="45.061830403946374" lon="8.193089755176592"><ele>393.83333333333337</ele><time>2026-04-18T14:16:20Z</time></trkpt><trkpt lat="45.06185087004723" lon="8.193207446456954"><ele>394.0</ele><time>2026-04-18T14:16:22Z</time></trkpt><trkpt lat="45.06188879534214" lon="8.193285448378731"><ele>392.00000000000006</ele><time>2026-04-18T14:16:23Z</time></trkpt><trkpt lat="45.061924360353544" lon="8.193377227908302"><ele>390.0</ele><time>2026-04-18T14:16:24Z</time></trkpt><trkpt lat="45.06195831095555" lon="8.193461184578359"><ele>388.0</ele><time>2026-04-18T14:16:25Z</time></trkpt><trkpt lat="45.06199183178182" lon="8.193536682583018"><ele>386.0</ele><time>2026-04-18T14:16:26Z</time></trkpt><trkpt lat="45.062037371104005" lon="8.193654259506319"><ele>384.0</ele><time>2026-04-18T14:16:28Z</time></trkpt><trkpt lat="45.06202744132019" lon="8.193777809291017"><ele>382.0</ele><time>2026-04-18T14:16:30Z</time></trkpt><trkpt lat="45.06203962203275" lon="8.193894431983571"><ele>382.0</ele><time>2026-04-18T14:16:31Z</time></trkpt><trkpt lat="45.062030093916015" lon="8.193993765904517"><ele>382.0</ele><time>2026-04-18T14:16:32Z</time></trkpt><trkpt lat="45.06202466603983" lon="8.1940849060046"><ele>382.0</ele><time>2026-04-18T14:16:33Z</time></trkpt><trkpt lat="45.061997201239365" lon="8.194211160589559"><ele>382.0</ele><time>2026-04-18T14:16:35Z</time></trkpt><trkpt lat="45.06194630011739" lon="8.19440693338643"><ele>382.0</ele><time>2026-04-18T14:18:15Z</time></trkpt><trkpt lat="45.06189747234115" lon="8.19451927563548"><ele>381.8</ele><time>2026-04-18T14:18:17Z</time></trkpt><trkpt lat="45.06182332338364" lon="8.194631396017787"><ele>381.6</ele><time>2026-04-18T14:18:19Z</time></trkpt><trkpt lat="45.0617328900858" lon="8.194700703253567"><ele>381.40000000000003</ele><time>2026-04-18T14:18:21Z</time></trkpt><trkpt lat="45.061629207577006" lon="8.194762238454269"><ele>381.20000000000005</ele><time>2026-04-18T14:18:23Z</time></trkpt><trkpt lat="45.06155778103069" lon="8.194773999805747"><ele>381.0</ele><time>2026-04-18T14:18:24Z</time></trkpt><trkpt lat="45.06145528981841" lon="8.194741730174481"><ele>379.20000000000005</ele><time>2026-04-18T14:18:26Z</time></trkpt><trkpt lat="45.061354991284155" lon="8.19471237569902"><ele>377.40000000000003</ele><time>2026-04-18T14:18:28Z</time></trkpt><trkpt lat="45.06124862659063" lon="8.194762065372151"><ele>375.6</ele><time>2026-04-18T14:18:30Z</time></trkpt><trkpt lat="45.0611772660694" lon="8.194742824977736"><ele>373.8</ele><time>2026-04-18T14:18:32Z</time></trkpt><trkpt lat="45.061118931917036" lon="8.194701452025711"><ele>372.0</ele><time>2026-04-18T14:18:33Z</time></trkpt><trkpt lat="45.06100475564831" lon="8.194657011759135"><ele>372.0</ele><time>2026-04-18T14:18:35Z</time></trkpt><trkpt lat="45.06090786282995" lon="8.194637912976377"><ele>372.0</ele><time>2026-04-18T14:18:37Z</time></trkpt><trkpt lat="45.0608160354732" lon="8.194548218520994"><ele>372.0</ele><time>2026-04-18T14:18:39Z</time></trkpt><trkpt lat="45.06069438108061" lon="8.194504343111777"><ele>372.0</ele><time>2026-04-18T14:18:41Z</time></trkpt><trkpt lat="45.06059296692487" lon="8.194475355043322"><ele>372.0</ele><time>2026-04-18T14:18:43Z</time></trkpt><trkpt lat="45.060525679352686" lon="8.194467939259395"><ele>373.1666666666667</ele><time>2026-04-18T14:18:44Z</time></trkpt><trkpt lat="45.06042589402976" lon="8.194450079725227"><ele>374.3333333333333</ele><time>2026-04-18T14:18:46Z</time></trkpt><trkpt lat="45.06033126563748" lon="8.194438326696536"><ele>375.5</ele><time>2026-04-18T14:18:48Z</time></trkpt><trkpt lat="45.06028274766241" lon="8.194371588234654"><ele>376.66666666666663</ele><time>2026-04-18T14:18:49Z</time></trkpt><trkpt lat="45.06023027924483" lon="8.194307401298518"><ele>377.8333333333333</ele><time>2026-04-18T14:18:50Z</time></trkpt><trkpt lat="45.06013877379934" lon="8.194224275298797"><ele>379.0</ele><time>2026-04-18T14:18:52Z</time></trkpt><trkpt lat="45.060023319310126" lon="8.19421023576219"><ele>379.0</ele><time>2026-04-18T14:18:54Z</time></trkpt><trkpt lat="45.05997290220601" lon="8.194272415447543"><ele>379.0</ele><time>2026-04-18T14:18:55Z</time></trkpt><trkpt lat="45.059908361590225" lon="8.194288529766908"><ele>379.0</ele><time>2026-04-18T14:18:56Z</time></trkpt><trkpt lat="45.05983867440521" lon="8.194308404085408"><ele>379.0</ele><time>2026-04-18T14:18:57Z</time></trkpt><trkpt lat="45.059734463675895" lon="8.194294368761174"><ele>379.0</ele><time>2026-04-18T14:18:59Z</time></trkpt><trkpt lat="45.059645654390636" lon="8.194225339592156"><ele>379.0</ele><time>2026-04-18T14:19:01Z</time></trkpt><trkpt lat="45.05958997238228" lon="8.194149741118089"><ele>377.4</ele><time>2026-04-18T14:19:02Z</time></trkpt><trkpt lat="45.059537793828326" lon="8.1940152130334"><ele>375.79999999999995</ele><time>2026-04-18T14:19:04Z</time></trkpt><trkpt lat="45.059474660612466" lon="8.193945029517984"><ele>374.20000000000005</ele><time>2026-04-18T14:19:06Z</time></trkpt><trkpt lat="45.05941424212445" lon="8.193879348892661"><ele>372.6</ele><time>2026-04-18T14:19:08Z</time></trkpt><trkpt lat="45.059310797732884" lon="8.193824769088176"><ele>371.0</ele><time>2026-04-18T14:19:10Z</time></trkpt><trkpt lat="45.05918882947471" lon="8.193769110564844"><ele>371.0</ele><time>2026-04-18T14:19:12Z</time></trkpt><trkpt lat="45.059127964921295" lon="8.193725094846283"><ele>371.0</ele><time>2026-04-18T14:19:13Z</time></trkpt><trkpt lat="45.05905861499888" lon="8.193609967070033"><ele>371.0</ele><time>2026-04-18T14:19:15Z</time></trkpt><trkpt lat="45.05901358066785" lon="8.193506680140679"><ele>371.0</ele><time>2026-04-18T14:19:16Z</time></trkpt><trkpt lat="45.05896840632657" lon="8.193408844130056"><ele>371.0</ele><time>2026-04-18T14:19:17Z</time></trkpt><trkpt lat="45.058908145752305" lon="8.193325229331306"><ele>371.0</ele><time>2026-04-18T14:19:18Z</time></trkpt><trkpt lat="45.05883276918824" lon="8.19328813612187"><ele>369.33333333333337</ele><time>2026-04-18T14:19:19Z</time></trkpt><trkpt lat="45.058759760741914" lon="8.193253682450004"><ele>367.6666666666667</ele><time>2026-04-18T14:19:20Z</time></trkpt><trkpt lat="45.058683463726624" lon="8.193207829211431"><ele>366.0</ele><time>2026-04-18T14:19:21Z</time></trkpt><trkpt lat="45.05859635750008" lon="8.193168744282948"><ele>364.3333333333333</ele><time>2026-04-18T14:19:22Z</time></trkpt><trkpt lat="45.05852842511457" lon="8.193112594296595"><ele>362.66666666666663</ele><time>2026-04-18T14:19:23Z</time></trkpt><trkpt lat="45.058468977728076" lon="8.19305381361684"><ele>361.0</ele><time>2026-04-18T14:19:24Z</time></trkpt><trkpt lat="45.05841848461228" lon="8.192989572531731"><ele>361.0</ele><time>2026-04-18T14:19:25Z</time></trkpt><trkpt lat="45.05836867660114" lon="8.192932908363668"><ele>361.0</ele><time>2026-04-18T14:19:26Z</time></trkpt><trkpt lat="45.058282374757056" lon="8.192871118463819"><ele>361.0</ele><time>2026-04-18T14:19:28Z</time></trkpt><trkpt lat="45.05816371683221" lon="8.192859513762402"><ele>361.0</ele><time>2026-04-18T14:19:30Z</time></trkpt><trkpt lat="45.05805668505045" lon="8.192896918632064"><ele>361.0</ele><time>2026-04-18T14:19:32Z</time></trkpt><trkpt lat="45.0579368055383" lon="8.192926439851071"><ele>359.8333333333333</ele><time>2026-04-18T14:19:34Z</time></trkpt><trkpt lat="45.05786622082228" lon="8.192936656617603"><ele>358.66666666666663</ele><time>2026-04-18T14:19:35Z</time></trkpt><trkpt lat="45.057801747325634" lon="8.192926115920008"><ele>357.5</ele><time>2026-04-18T14:19:36Z</time></trkpt><trkpt lat="45.0577007577185" lon="8.19290563993352"><ele>356.3333333333333</ele><time>2026-04-18T14:19:38Z</time></trkpt><trkpt lat="45.057630387571756" lon="8.192917990192893"><ele>355.1666666666667</ele><time>2026-04-18T14:19:40Z</time></trkpt><trkpt lat="45.05757899480595" lon="8.19283706763777"><ele>354.0</ele><time>2026-04-18T14:19:43Z</time></trkpt><trkpt lat="45.05762247345019" lon="8.19273444337135"><ele>354.0</ele><time>2026-04-18T14:19:46Z</time></trkpt><trkpt lat="45.05755409345859" lon="8.192647676610628"><ele>354.0</ele><time>2026-04-18T14:19:48Z</time></trkpt><trkpt lat="45.05747758463928" lon="8.19266144682808"><ele>354.0</ele><time>2026-04-18T14:19:49Z</time></trkpt><trkpt lat="45.0573990736983" lon="8.192731342203658"><ele>354.0</ele><time>2026-04-18T14:19:50Z</time></trkpt><trkpt lat="45.05734201109234" lon="8.192831026659217"><ele>354.0</ele><time>2026-04-18T14:19:51Z</time></trkpt><trkpt lat="45.05730206614392" lon="8.192905137264585"><ele>354.0</ele><time>2026-04-18T14:19:52Z</time></trkpt><trkpt lat="45.057264790495836" lon="8.192996531007202"><ele>354.3333333333333</ele><time>2026-04-18T14:19:53Z</time></trkpt><trkpt lat="45.05721582584664" lon="8.193102659320138"><ele>354.6666666666667</ele><time>2026-04-18T14:19:54Z</time></trkpt><trkpt lat="45.057155319520746" lon="8.1931910411582"><ele>355.0</ele><time>2026-04-18T14:19:55Z</time></trkpt><trkpt lat="45.05710424405559" lon="8.193255271215877"><ele>355.33333333333337</ele><time>2026-04-18T14:19:56Z</time></trkpt><trkpt lat="45.05699321637087" lon="8.193315093233153"><ele>355.6666666666667</ele><time>2026-04-18T14:19:58Z</time></trkpt><trkpt lat="45.05692224715333" lon="8.193307553736563"><ele>356.0</ele><time>2026-04-18T14:19:59Z</time></trkpt><trkpt lat="45.05683626209455" lon="8.193270280159748"><ele>356.0</ele><time>2026-04-18T14:20:00Z</time></trkpt><trkpt lat="45.05674806983827" lon="8.193227052242866"><ele>356.0</ele><time>2026-04-18T14:20:01Z</time></trkpt><trkpt lat="45.056653228354854" lon="8.19317412335506"><ele>356.0</ele><time>2026-04-18T14:20:02Z</time></trkpt><trkpt lat="45.05656948620701" lon="8.19313143890138"><ele>356.0</ele><time>2026-04-18T14:20:03Z</time></trkpt><trkpt lat="45.05650795993472" lon="8.19309441670927"><ele>356.0</ele><time>2026-04-18T14:20:04Z</time></trkpt><trkpt lat="45.05644044544128" lon="8.193054802289288"><ele>356.0</ele><time>2026-04-18T14:20:05Z</time></trkpt><trkpt lat="45.056366799066694" lon="8.193033299031079"><ele>351.5</ele><time>2026-04-18T14:20:06Z</time></trkpt><trkpt lat="45.056295106903754" lon="8.193034746010808"><ele>347.0</ele><time>2026-04-18T14:20:07Z</time></trkpt><trkpt lat="45.05621418010196" lon="8.192975712409185"><ele>342.5</ele><time>2026-04-18T14:20:08Z</time></trkpt><trkpt lat="45.0561252311826" lon="8.192955131830223"><ele>338.0</ele><time>2026-04-18T14:20:09Z</time></trkpt><trkpt lat="45.0560521374921" lon="8.192950154693165"><ele>333.5</ele><time>2026-04-18T14:20:10Z</time></trkpt><trkpt lat="45.05595534433691" lon="8.192991838615953"><ele>329.0</ele><time>2026-04-18T14:20:12Z</time></trkpt><trkpt lat="45.055891480907135" lon="8.19305962087065"><ele>329.0</ele><time>2026-04-18T14:20:13Z</time></trkpt><trkpt lat="45.05581610195692" lon="8.193144016493347"><ele>329.0</ele><time>2026-04-18T14:20:14Z</time></trkpt><trkpt lat="45.05572033302391" lon="8.1932385991912"><ele>329.0</ele><time>2026-04-18T14:20:16Z</time></trkpt><trkpt lat="45.05567515535924" lon="8.193325449304485"><ele>329.0</ele><time>2026-04-18T14:20:17Z</time></trkpt><trkpt lat="45.05561508503392" lon="8.193368125851956"><ele>329.0</ele><time>2026-04-18T14:20:18Z</time></trkpt><trkpt lat="45.055557963731225" lon="8.193447008759739"><ele>329.0</ele><time>2026-04-18T14:20:19Z</time></trkpt><trkpt lat="45.05549856169427" lon="8.193531097250387"><ele>327.6666666666667</ele><time>2026-04-18T14:20:20Z</time></trkpt><trkpt lat="45.05544321791743" lon="8.193607505571464"><ele>326.33333333333337</ele><time>2026-04-18T14:20:21Z</time></trkpt><trkpt lat="45.05538281924131" lon="8.193679114162599"><ele>325.0</ele><time>2026-04-18T14:20:22Z</time></trkpt><trkpt lat="45.0552952842653" lon="8.193753881804122"><ele>323.6666666666667</ele><time>2026-04-18T14:20:24Z</time></trkpt><trkpt lat="45.055266233211945" lon="8.193628609841282"><ele>322.3333333333333</ele><time>2026-04-18T14:20:29Z</time></trkpt><trkpt lat="45.05527852488958" lon="8.193499161141832"><ele>321.0</ele><time>2026-04-18T14:20:30Z</time></trkpt><trkpt lat="45.05527631939592" lon="8.193351844971785"><ele>321.0</ele><time>2026-04-18T14:20:31Z</time></trkpt><trkpt lat="45.055283870988525" lon="8.193215807484906"><ele>321.0</ele><time>2026-04-18T14:20:32Z</time></trkpt><trkpt lat="45.055293521571826" lon="8.193118630999368"><ele>321.0</ele><time>2026-04-18T14:20:33Z</time></trkpt><trkpt lat="45.05526490427744" lon="8.192990124255298"><ele>321.0</ele><time>2026-04-18T14:20:34Z</time></trkpt><trkpt lat="45.05519980314101" lon="8.192820580510764"><ele>321.0</ele><time>2026-04-18T14:20:35Z</time></trkpt><trkpt lat="45.05512566939369" lon="8.192606536468977"><ele>320.2</ele><time>2026-04-18T14:20:36Z</time></trkpt><trkpt lat="45.05506701194979" lon="8.192433282719232"><ele>319.40000000000003</ele><time>2026-04-18T14:20:37Z</time></trkpt><trkpt lat="45.05502634536936" lon="8.192313138719603"><ele>318.6</ele><time>2026-04-18T14:20:38Z</time></trkpt><trkpt lat="45.05498956510559" lon="8.192182958007834"><ele>317.8</ele><time>2026-04-18T14:20:39Z</time></trkpt><trkpt lat="45.054961308431814" lon="8.19204690432972"><ele>317.0</ele><time>2026-04-18T14:20:40Z</time></trkpt><trkpt lat="45.05490931648549" lon="8.191943675175802"><ele>314.5</ele><time>2026-04-18T14:20:41Z</time></trkpt><trkpt lat="45.05485675502254" lon="8.191869469582006"><ele>312.0</ele><time>2026-04-18T14:20:42Z</time></trkpt><trkpt lat="45.05479814295651" lon="8.1918353463589"><ele>309.5</ele><time>2026-04-18T14:20:43Z</time></trkpt><trkpt lat="45.05469827477877" lon="8.191850214577972"><ele>307.0</ele><time>2026-04-18T14:20:44Z</time></trkpt><trkpt lat="45.054619968798285" lon="8.191803388039034"><ele>304.5</ele><time>2026-04-18T14:20:45Z</time></trkpt><trkpt lat="45.054529282851334" lon="8.191759533924884"><ele>302.0</ele><time>2026-04-18T14:20:46Z</time></trkpt><trkpt lat="45.05444796905126" lon="8.191701614871954"><ele>302.0</ele><time>2026-04-18T14:20:47Z</time></trkpt><trkpt lat="45.05437441267273" lon="8.191646924485292"><ele>302.0</ele><time>2026-04-18T14:20:48Z</time></trkpt><trkpt lat="45.054308168033124" lon="8.191600588876273"><ele>302.0</ele><time>2026-04-18T14:20:49Z</time></trkpt><trkpt lat="45.054237627623436" lon="8.191557512818202"><ele>302.0</ele><time>2026-04-18T14:20:50Z</time></trkpt><trkpt lat="45.05415579772194" lon="8.1915282370918"><ele>302.0</ele><time>2026-04-18T14:20:51Z</time></trkpt><trkpt lat="45.05407283115505" lon="8.19150290780134"><ele>302.0</ele><time>2026-04-18T14:20:52Z</time></trkpt><trkpt lat="45.05399185173598" lon="8.191485704215083"><ele>299.83333333333337</ele><time>2026-04-18T14:20:53Z</time></trkpt><trkpt lat="45.05390619360655" lon="8.191474185035277"><ele>297.6666666666667</ele><time>2026-04-18T14:20:54Z</time></trkpt><trkpt lat="45.053815889008675" lon="8.191485103202487"><ele>295.5</ele><time>2026-04-18T14:20:55Z</time></trkpt><trkpt lat="45.05373596863126" lon="8.191451235639361"><ele>293.3333333333333</ele><time>2026-04-18T14:20:56Z</time></trkpt><trkpt lat="45.053659042918135" lon="8.191439331037484"><ele>291.16666666666663</ele><time>2026-04-18T14:20:57Z</time></trkpt><trkpt lat="45.05358208549382" lon="8.1914274215414"><ele>289.0</ele><time>2026-04-18T14:20:58Z</time></trkpt><trkpt lat="45.053501897194465" lon="8.191432635659632"><ele>289.0</ele><time>2026-04-18T14:20:59Z</time></trkpt><trkpt lat="45.05340264893075" lon="8.19142303975653"><ele>289.0</ele><time>2026-04-18T14:21:00Z</time></trkpt><trkpt lat="45.05330054702965" lon="8.191386618422024"><ele>289.0</ele><time>2026-04-18T14:21:01Z</time></trkpt><trkpt lat="45.05321348125302" lon="8.191375343978292"><ele>289.0</ele><time>2026-04-18T14:21:02Z</time></trkpt><trkpt lat="45.053143770850326" lon="8.191367983459482"><ele>289.0</ele><time>2026-04-18T14:21:03Z</time></trkpt><trkpt lat="45.053075619686986" lon="8.191360787591094"><ele>289.0</ele><time>2026-04-18T14:21:04Z</time></trkpt><trkpt lat="45.05300639997732" lon="8.191373479351608"><ele>287.66666666666663</ele><time>2026-04-18T14:21:05Z</time></trkpt><trkpt lat="45.05294121117204" lon="8.191354396099088"><ele>286.3333333333333</ele><time>2026-04-18T14:21:06Z</time></trkpt><trkpt lat="45.05287655652271" lon="8.191345594106592"><ele>285.0</ele><time>2026-04-18T14:21:07Z</time></trkpt><trkpt lat="45.05281216665136" lon="8.191348342669983"><ele>283.6666666666667</ele><time>2026-04-18T14:21:08Z</time></trkpt><trkpt lat="45.05270871381862" lon="8.191327909376989"><ele>282.33333333333337</ele><time>2026-04-18T14:21:10Z</time></trkpt><trkpt lat="45.05264256548605" lon="8.191305539650239"><ele>281.0</ele><time>2026-04-18T14:21:12Z</time></trkpt><trkpt lat="45.052641213590476" lon="8.191155144589931"><ele>281.0</ele><time>2026-04-18T14:21:15Z</time></trkpt><trkpt lat="45.05265380152335" lon="8.19101740073621"><ele>281.0</ele><time>2026-04-18T14:21:16Z</time></trkpt><trkpt lat="45.05269355915885" lon="8.190872164259087"><ele>281.0</ele><time>2026-04-18T14:21:17Z</time></trkpt><trkpt lat="45.05271170078136" lon="8.190702505950497"><ele>281.0</ele><time>2026-04-18T14:21:18Z</time></trkpt><trkpt lat="45.05274981196313" lon="8.190505072148335"><ele>279.5</ele><time>2026-04-18T14:21:19Z</time></trkpt><trkpt lat="45.0527925053202" lon="8.19028621779019"><ele>278.0</ele><time>2026-04-18T14:21:20Z</time></trkpt><trkpt lat="45.05284602138732" lon="8.190090989582412"><ele>276.5</ele><time>2026-04-18T14:21:21Z</time></trkpt><trkpt lat="45.052855464920604" lon="8.189893882250374"><ele>275.0</ele><time>2026-04-18T14:21:22Z</time></trkpt><trkpt lat="45.05287097864682" lon="8.189729695297334"><ele>274.0</ele><time>2026-04-18T14:21:23Z</time></trkpt><trkpt lat="45.05287463749031" lon="8.189572484383012"><ele>273.0</ele><time>2026-04-18T14:21:24Z</time></trkpt><trkpt lat="45.05286690215505" lon="8.189424571830225"><ele>272.0</ele><time>2026-04-18T14:21:25Z</time></trkpt><trkpt lat="45.05287753241141" lon="8.189284855323503"><ele>271.0</ele><time>2026-04-18T14:21:26Z</time></trkpt><trkpt lat="45.05290954640776" lon="8.18913828673035"><ele>270.0</ele><time>2026-04-18T14:21:27Z</time></trkpt><trkpt lat="45.05296654995151" lon="8.188994984488978"><ele>270.0</ele><time>2026-04-18T14:21:28Z</time></trkpt><trkpt lat="45.05304004105038" lon="8.188845345549705"><ele>270.0</ele><time>2026-04-18T14:21:29Z</time></trkpt><trkpt lat="45.053137823223" lon="8.188701082290637"><ele>270.0</ele><time>2026-04-18T14:21:30Z</time></trkpt><trkpt lat="45.053220924421815" lon="8.188525045717316"><ele>270.0</ele><time>2026-04-18T14:21:31Z</time></trkpt><trkpt lat="45.05331205516861" lon="8.188374214306872"><ele>270.0</ele><time>2026-04-18T14:21:32Z</time></trkpt><trkpt lat="45.05338917790482" lon="8.188234535392672"><ele>270.0</ele><time>2026-04-18T14:21:33Z</time></trkpt><trkpt lat="45.05346154772515" lon="8.188105807136251"><ele>270.0</ele><time>2026-04-18T14:21:34Z</time></trkpt><trkpt lat="45.05352678190118" lon="8.187986045266896"><ele>270.0</ele><time>2026-04-18T14:21:35Z</time></trkpt><trkpt lat="45.05357103969383" lon="8.187859833793413"><ele>270.0</ele><time>2026-04-18T14:21:36Z</time></trkpt><trkpt lat="45.05358630592471" lon="8.187733542776767"><ele>268.2</ele><time>2026-04-18T14:21:37Z</time></trkpt><trkpt lat="45.053567112428574" lon="8.187603052353957"><ele>266.4</ele><time>2026-04-18T14:21:38Z</time></trkpt><trkpt lat="45.05352372044338" lon="8.187461587912486"><ele>264.6</ele><time>2026-04-18T14:21:39Z</time></trkpt><trkpt lat="45.053478053782314" lon="8.187314280932139"><ele>262.8</ele><time>2026-04-18T14:21:40Z</time></trkpt><trkpt lat="45.053413729291876" lon="8.187200816670074"><ele>261.0</ele><time>2026-04-18T14:21:41Z</time></trkpt><trkpt lat="45.05331588854304" lon="8.18711165451422"><ele>257.0</ele><time>2026-04-18T14:21:42Z</time></trkpt><trkpt lat="45.05318318963279" lon="8.187081665415077"><ele>253.0</ele><time>2026-04-18T14:21:43Z</time></trkpt><trkpt lat="45.05305106906488" lon="8.187128722998878"><ele>249.0</ele><time>2026-04-18T14:21:44Z</time></trkpt><trkpt lat="45.052896720810146" lon="8.18714275758975"><ele>245.0</ele><time>2026-04-18T14:21:45Z</time></trkpt><trkpt lat="45.05271445784453" lon="8.187191899690346"><ele>245.0</ele><time>2026-04-18T14:21:46Z</time></trkpt><trkpt lat="45.05252251321904" lon="8.18724365221832"><ele>245.0</ele><time>2026-04-18T14:21:47Z</time></trkpt><trkpt lat="45.05231400088014" lon="8.187293825525241"><ele>245.0</ele><time>2026-04-18T14:21:48Z</time></trkpt><trkpt lat="45.05210099742897" lon="8.187335168509051"><ele>246.0</ele><time>2026-04-18T14:21:49Z</time></trkpt><trkpt lat="45.05190659962441" lon="8.187373306123623"><ele>247.0</ele><time>2026-04-18T14:21:50Z</time></trkpt><trkpt lat="45.05173631531546" lon="8.187406197453132"><ele>248.0</ele><time>2026-04-18T14:21:51Z</time></trkpt><trkpt lat="45.05159358129265" lon="8.187432673400755"><ele>246.25</ele><time>2026-04-18T14:21:52Z</time></trkpt><trkpt lat="45.05146415092647" lon="8.187456679835023"><ele>244.5</ele><time>2026-04-18T14:21:53Z</time></trkpt><trkpt lat="45.051343618086214" lon="8.187477661634654"><ele>242.75</ele><time>2026-04-18T14:21:54Z</time></trkpt><trkpt lat="45.05124350958974" lon="8.187496746498123"><ele>241.0</ele><time>2026-04-18T14:21:55Z</time></trkpt><trkpt lat="45.0511545019818" lon="8.187421121804293"><ele>239.4</ele><time>2026-04-18T14:21:56Z</time></trkpt><trkpt lat="45.051067971154225" lon="8.18733630738715"><ele>237.8</ele><time>2026-04-18T14:21:57Z</time></trkpt><trkpt lat="45.051025166129946" lon="8.187183111155704"><ele>236.20000000000002</ele><time>2026-04-18T14:21:58Z</time></trkpt><trkpt lat="45.05100702891037" lon="8.187026097816196"><ele>234.60000000000002</ele><time>2026-04-18T14:21:59Z</time></trkpt><trkpt lat="45.05103554536588" lon="8.186870044959399"><ele>233.0</ele><time>2026-04-18T14:22:00Z</time></trkpt><trkpt lat="45.05111238939638" lon="8.186695424473664"><ele>233.0</ele><time>2026-04-18T14:22:01Z</time></trkpt><trkpt lat="45.051232683731165" lon="8.186517130378217"><ele>233.0</ele><time>2026-04-18T14:22:02Z</time></trkpt><trkpt lat="45.05137477826132" lon="8.186307411975125"><ele>233.0</ele><time>2026-04-18T14:22:03Z</time></trkpt><trkpt lat="45.05151093142231" lon="8.186108926378152"><ele>232.0</ele><time>2026-04-18T14:22:04Z</time></trkpt><trkpt lat="45.05163689562813" lon="8.185934145722921"><ele>231.0</ele><time>2026-04-18T14:22:05Z</time></trkpt><trkpt lat="45.05175412798631" lon="8.185776040245505"><ele>230.0</ele><time>2026-04-18T14:22:06Z</time></trkpt><trkpt lat="45.05185228459782" lon="8.185635127930267"><ele>228.75</ele><time>2026-04-18T14:22:07Z</time></trkpt><trkpt lat="45.05193351917819" lon="8.18551601960573"><ele>227.5</ele><time>2026-04-18T14:22:08Z</time></trkpt><trkpt lat="45.05197467791977" lon="8.18540285808348"><ele>226.25</ele><time>2026-04-18T14:22:09Z</time></trkpt><trkpt lat="45.051986769660054" lon="8.185260028523667"><ele>225.0</ele><time>2026-04-18T14:22:10Z</time></trkpt><trkpt lat="45.05190591216247" lon="8.185091999144744"><ele>225.0</ele><time>2026-04-18T14:22:11Z</time></trkpt><trkpt lat="45.051773401349514" lon="8.185008072613298"><ele>225.0</ele><time>2026-04-18T14:22:12Z</time></trkpt><trkpt lat="45.051670479857854" lon="8.18495610476167"><ele>225.0</ele><time>2026-04-18T14:22:13Z</time></trkpt><trkpt lat="45.051590095905524" lon="8.184886793822116"><ele>225.0</ele><time>2026-04-18T14:22:14Z</time></trkpt><trkpt lat="45.05154785468988" lon="8.184755379715984"><ele>224.2</ele><time>2026-04-18T14:22:15Z</time></trkpt><trkpt lat="45.051542617723946" lon="8.1845984860364"><ele>223.4</ele><time>2026-04-18T14:22:16Z</time></trkpt><trkpt lat="45.051578358520246" lon="8.184468984115"><ele>222.60000000000002</ele><time>2026-04-18T14:22:17Z</time></trkpt><trkpt lat="45.05165460529074" lon="8.184372503478137"><ele>221.8</ele><time>2026-04-18T14:22:18Z</time></trkpt><trkpt lat="45.05177914074521" lon="8.184325616623932"><ele>221.0</ele><time>2026-04-18T14:22:19Z</time></trkpt><trkpt lat="45.05194176732431" lon="8.184292407163234"><ele>221.0</ele><time>2026-04-18T14:22:20Z</time></trkpt><trkpt lat="45.05213645789653" lon="8.18424970340458"><ele>221.0</ele><time>2026-04-18T14:22:21Z</time></trkpt><trkpt lat="45.05236528854191" lon="8.184198751938027"><ele>221.0</ele><time>2026-04-18T14:22:22Z</time></trkpt><trkpt lat="45.05259588362627" lon="8.184152410380369"><ele>220.66666666666669</ele><time>2026-04-18T14:22:23Z</time></trkpt><trkpt lat="45.052812929686674" lon="8.184092884056211"><ele>220.33333333333331</ele><time>2026-04-18T14:22:24Z</time></trkpt><trkpt lat="45.05302508654542" lon="8.184020354986524"><ele>220.0</ele><time>2026-04-18T14:22:25Z</time></trkpt><trkpt lat="45.05323741743924" lon="8.18389438878402"><ele>221.66666666666666</ele><time>2026-04-18T14:22:26Z</time></trkpt><trkpt lat="45.053414202701475" lon="8.183764587661535"><ele>223.33333333333331</ele><time>2026-04-18T14:22:27Z</time></trkpt><trkpt lat="45.053562373166606" lon="8.183649996841588"><ele>225.0</ele><time>2026-04-18T14:22:28Z</time></trkpt><trkpt lat="45.05369193716999" lon="8.183521077658991"><ele>225.0</ele><time>2026-04-18T14:22:29Z</time></trkpt><trkpt lat="45.053809657738526" lon="8.183377699797937"><ele>225.0</ele><time>2026-04-18T14:22:30Z</time></trkpt><trkpt lat="45.05388889864855" lon="8.183196360175616"><ele>225.0</ele><time>2026-04-18T14:22:31Z</time></trkpt><trkpt lat="45.053933202256104" lon="8.183014897758808"><ele>225.0</ele><time>2026-04-18T14:22:32Z</time></trkpt><trkpt lat="45.0539264904126" lon="8.182835488287614"><ele>226.0</ele><time>2026-04-18T14:22:33Z</time></trkpt><trkpt lat="45.0538534990174" lon="8.182651919689475"><ele>227.0</ele><time>2026-04-18T14:22:34Z</time></trkpt><trkpt lat="45.053701406741155" lon="8.182526917452318"><ele>228.0</ele><time>2026-04-18T14:22:35Z</time></trkpt><trkpt lat="45.053509519836915" lon="8.182417206280961"><ele>231.33333333333331</ele><time>2026-04-18T14:22:36Z</time></trkpt><trkpt lat="45.05329956580902" lon="8.182300264061375"><ele>234.66666666666666</ele><time>2026-04-18T14:22:37Z</time></trkpt><trkpt lat="45.05312160137624" lon="8.182204494335547"><ele>238.0</ele><time>2026-04-18T14:22:38Z</time></trkpt><trkpt lat="45.05290478914116" lon="8.182100906681647"><ele>238.0</ele><time>2026-04-18T14:22:39Z</time></trkpt><trkpt lat="45.052690277597556" lon="8.181990712131496"><ele>238.0</ele><time>2026-04-18T14:22:40Z</time></trkpt><trkpt lat="45.052481985574765" lon="8.181862076638724"><ele>238.0</ele><time>2026-04-18T14:22:41Z</time></trkpt><trkpt lat="45.0522598791934" lon="8.181715935183757"><ele>238.0</ele><time>2026-04-18T14:22:42Z</time></trkpt><trkpt lat="45.05206032315739" lon="8.181587659388411"><ele>240.0</ele><time>2026-04-18T14:22:43Z</time></trkpt><trkpt lat="45.05190061096151" lon="8.18149100931046"><ele>242.0</ele><time>2026-04-18T14:22:44Z</time></trkpt><trkpt lat="45.05177260861491" lon="8.181413548490553"><ele>244.0</ele><time>2026-04-18T14:22:45Z</time></trkpt><trkpt lat="45.05167113683805" lon="8.181344038300464"><ele>246.0</ele><time>2026-04-18T14:22:46Z</time></trkpt><trkpt lat="45.05159541084645" lon="8.181276097406766"><ele>246.0</ele><time>2026-04-18T14:22:47Z</time></trkpt><trkpt lat="45.051526922343115" lon="8.181188178261916"><ele>246.0</ele><time>2026-04-18T14:22:48Z</time></trkpt><trkpt lat="45.05148200744198" lon="8.18110271990603"><ele>246.0</ele><time>2026-04-18T14:22:49Z</time></trkpt><trkpt lat="45.05145116722331" lon="8.181005690734699"><ele>246.0</ele><time>2026-04-18T14:22:50Z</time></trkpt><trkpt lat="45.05141984123628" lon="8.180901349759317"><ele>246.0</ele><time>2026-04-18T14:22:51Z</time></trkpt><trkpt lat="45.051390160649056" lon="8.180795677945348"><ele>246.0</ele><time>2026-04-18T14:22:52Z</time></trkpt><trkpt lat="45.051362091031095" lon="8.180684783052541"><ele>245.20000000000002</ele><time>2026-04-18T14:22:53Z</time></trkpt><trkpt lat="45.05132313153589" lon="8.180548528808558"><ele>244.40000000000003</ele><time>2026-04-18T14:22:55Z</time></trkpt><trkpt lat="45.05131582013203" lon="8.18042697713833"><ele>243.6</ele><time>2026-04-18T14:22:59Z</time></trkpt><trkpt lat="45.05121490238671" lon="8.180443888508679"><ele>242.8</ele><time>2026-04-18T14:23:00Z</time></trkpt><trkpt lat="45.05114524774576" lon="8.180435668964249"><ele>242.0</ele><time>2026-04-18T14:23:02Z</time></trkpt><trkpt lat="45.05105457489485" lon="8.180443347568287"><ele>242.0</ele><time>2026-04-18T14:23:04Z</time></trkpt><trkpt lat="45.05095367200508" lon="8.180462872220918"><ele>242.0</ele><time>2026-04-18T14:23:06Z</time></trkpt><trkpt lat="45.05088910227749" lon="8.180479578929802"><ele>242.0</ele><time>2026-04-18T14:23:07Z</time></trkpt><trkpt lat="45.05076625158382" lon="8.180545512229244"><ele>242.0</ele><time>2026-04-18T14:23:09Z</time></trkpt><trkpt lat="45.05068705552877" lon="8.18054915516316"><ele>242.0</ele><time>2026-04-18T14:23:10Z</time></trkpt><trkpt lat="45.050606789671725" lon="8.18057597092504"><ele>242.39999999999998</ele><time>2026-04-18T14:23:11Z</time></trkpt><trkpt lat="45.05051575631082" lon="8.180602849223286"><ele>242.79999999999998</ele><time>2026-04-18T14:23:12Z</time></trkpt><trkpt lat="45.0504216002868" lon="8.18062848093466"><ele>243.2</ele><time>2026-04-18T14:23:13Z</time></trkpt><trkpt lat="45.05033241123708" lon="8.18063722218436"><ele>243.6</ele><time>2026-04-18T14:23:14Z</time></trkpt><trkpt lat="45.05024219203522" lon="8.18064361846851"><ele>244.0</ele><time>2026-04-18T14:23:15Z</time></trkpt><trkpt lat="45.05015016445977" lon="8.18064804294626"><ele>244.0</ele><time>2026-04-18T14:23:16Z</time></trkpt><trkpt lat="45.050057296764976" lon="8.180648133510067"><ele>243.99999999999997</ele><time>2026-04-18T14:23:17Z</time></trkpt><trkpt lat="45.04995272786432" lon="8.18063999221257"><ele>243.99999999999997</ele><time>2026-04-18T14:23:18Z</time></trkpt><trkpt lat="45.049846097599186" lon="8.18062831347318"><ele>244.0</ele><time>2026-04-18T14:23:19Z</time></trkpt><trkpt lat="45.04973521953775" lon="8.180614775693666"><ele>244.0</ele><time>2026-04-18T14:23:20Z</time></trkpt><trkpt lat="45.049616582243885" lon="8.18059687520139"><ele>244.0</ele><time>2026-04-18T14:23:21Z</time></trkpt><trkpt lat="45.04950493037684" lon="8.180578028864865"><ele>243.99999999999997</ele><time>2026-04-18T14:23:22Z</time></trkpt><trkpt lat="45.049416805763556" lon="8.180560996954487"><ele>243.99999999999997</ele><time>2026-04-18T14:23:23Z</time></trkpt><trkpt lat="45.04931579740964" lon="8.180533809374772"><ele>244.0</ele><time>2026-04-18T14:23:24Z</time></trkpt><trkpt lat="45.04921613103276" lon="8.180490166886916"><ele>244.0</ele><time>2026-04-18T14:23:25Z</time></trkpt><trkpt lat="45.04907720311645" lon="8.180430150703"><ele>243.33333333333331</ele><time>2026-04-18T14:23:26Z</time></trkpt><trkpt lat="45.04895238380505" lon="8.180371510261427"><ele>242.66666666666669</ele><time>2026-04-18T14:23:27Z</time></trkpt><trkpt lat="45.04878799585641" lon="8.180285026856126"><ele>242.0</ele><time>2026-04-18T14:23:28Z</time></trkpt><trkpt lat="45.04864101853055" lon="8.180207635642924"><ele>242.0</ele><time>2026-04-18T14:23:29Z</time></trkpt><trkpt lat="45.04849320657477" lon="8.180129349808642"><ele>242.0</ele><time>2026-04-18T14:23:30Z</time></trkpt><trkpt lat="45.04833675892158" lon="8.180043620826124"><ele>242.0</ele><time>2026-04-18T14:23:31Z</time></trkpt><trkpt lat="45.048189804516966" lon="8.179958195627506"><ele>241.0</ele><time>2026-04-18T14:23:32Z</time></trkpt><trkpt lat="45.04805547000152" lon="8.179874763872693"><ele>240.0</ele><time>2026-04-18T14:23:33Z</time></trkpt><trkpt lat="45.04791618717724" lon="8.179783529766105"><ele>239.0</ele><time>2026-04-18T14:23:34Z</time></trkpt><trkpt lat="45.04779283648705" lon="8.17969857223403"><ele>238.0</ele><time>2026-04-18T14:23:35Z</time></trkpt><trkpt lat="45.04767543139289" lon="8.179616050577451"><ele>237.75</ele><time>2026-04-18T14:23:36Z</time></trkpt><trkpt lat="45.04755629834298" lon="8.179532314253223"><ele>237.5</ele><time>2026-04-18T14:23:37Z</time></trkpt><trkpt lat="45.047430890837845" lon="8.179444301623095"><ele>237.25</ele><time>2026-04-18T14:23:38Z</time></trkpt><trkpt lat="45.04732610965107" lon="8.179371674691659"><ele>237.0</ele><time>2026-04-18T14:23:39Z</time></trkpt><trkpt lat="45.0472214598644" lon="8.179299138507183"><ele>236.39999999999998</ele><time>2026-04-18T14:23:40Z</time></trkpt><trkpt lat="45.047116417893854" lon="8.179232584264446"><ele>235.79999999999998</ele><time>2026-04-18T14:23:41Z</time></trkpt><trkpt lat="45.047012056715396" lon="8.17917931874917"><ele>235.2</ele><time>2026-04-18T14:23:42Z</time></trkpt><trkpt lat="45.046917917142196" lon="8.179152319030939"><ele>234.6</ele><time>2026-04-18T14:23:43Z</time></trkpt><trkpt lat="45.04681969089523" lon="8.179151040336544"><ele>234.0</ele><time>2026-04-18T14:23:44Z</time></trkpt><trkpt lat="45.04672934095844" lon="8.179165591900405"><ele>234.0</ele><time>2026-04-18T14:23:45Z</time></trkpt><trkpt lat="45.0466520808128" lon="8.179165692876792"><ele>234.0</ele><time>2026-04-18T14:23:46Z</time></trkpt><trkpt lat="45.04657537128419" lon="8.17915328623714"><ele>234.0</ele><time>2026-04-18T14:23:47Z</time></trkpt><trkpt lat="45.046497653001516" lon="8.179143311483866"><ele>234.0</ele><time>2026-04-18T14:23:48Z</time></trkpt><trkpt lat="45.046431240502244" lon="8.179087131468833"><ele>234.0</ele><time>2026-04-18T14:23:49Z</time></trkpt><trkpt lat="45.04637602290453" lon="8.179035708286362"><ele>234.0</ele><time>2026-04-18T14:23:50Z</time></trkpt><trkpt lat="45.04629613722304" lon="8.178938205682574"><ele>232.6</ele><time>2026-04-18T14:23:52Z</time></trkpt><trkpt lat="45.04624562171538" lon="8.178869738126286"><ele>231.2</ele><time>2026-04-18T14:23:55Z</time></trkpt><trkpt lat="45.04619145751106" lon="8.178971842287188"><ele>229.79999999999998</ele><time>2026-04-18T14:23:57Z</time></trkpt><trkpt lat="45.04612080601142" lon="8.179084292258498"><ele>228.39999999999998</ele><time>2026-04-18T14:23:59Z</time></trkpt><trkpt lat="45.046038650812534" lon="8.179206486818664"><ele>227.0</ele><time>2026-04-18T14:24:01Z</time></trkpt><trkpt lat="45.04596603764004" lon="8.179310715926107"><ele>226.39999999999998</ele><time>2026-04-18T14:24:03Z</time></trkpt><trkpt lat="45.045898120977334" lon="8.179417373025032"><ele>225.79999999999998</ele><time>2026-04-18T14:24:05Z</time></trkpt><trkpt lat="45.045823371209515" lon="8.179536608741742"><ele>225.2</ele><time>2026-04-18T14:24:07Z</time></trkpt><trkpt lat="45.04576025389451" lon="8.179628449709824"><ele>224.6</ele><time>2026-04-18T14:24:09Z</time></trkpt><trkpt lat="45.04568669977169" lon="8.179746336543749"><ele>224.0</ele><time>2026-04-18T14:24:11Z</time></trkpt><trkpt lat="45.04561951657113" lon="8.17987591322301"><ele>221.16666666666669</ele><time>2026-04-18T14:24:13Z</time></trkpt><trkpt lat="45.04555650501557" lon="8.17998397514041"><ele>218.33333333333334</ele><time>2026-04-18T14:24:15Z</time></trkpt><trkpt lat="45.0455046975" lon="8.180050769972478"><ele>215.5</ele><time>2026-04-18T14:24:16Z</time></trkpt><trkpt lat="45.045446496116206" lon="8.180110266008553"><ele>212.66666666666669</ele><time>2026-04-18T14:24:17Z</time></trkpt><trkpt lat="45.04538420174194" lon="8.180163893785197"><ele>209.83333333333334</ele><time>2026-04-18T14:24:18Z</time></trkpt><trkpt lat="45.045316589932746" lon="8.180206956274501"><ele>207.0</ele><time>2026-04-18T14:24:19Z</time></trkpt><trkpt lat="45.04525509285433" lon="8.180244611205755"><ele>207.0</ele><time>2026-04-18T14:24:20Z</time></trkpt><trkpt lat="45.045139838180575" lon="8.180291938685746"><ele>207.0</ele><time>2026-04-18T14:24:22Z</time></trkpt><trkpt lat="45.045068741856305" lon="8.180312968786234"><ele>207.0</ele><time>2026-04-18T14:24:23Z</time></trkpt><trkpt lat="45.044996264134824" lon="8.180333665540072"><ele>207.0</ele><time>2026-04-18T14:24:24Z</time></trkpt><trkpt lat="45.044925116939154" lon="8.180349767402474"><ele>207.0</ele><time>2026-04-18T14:24:25Z</time></trkpt><trkpt lat="45.04485876473039" lon="8.180363982614319"><ele>207.0</ele><time>2026-04-18T14:24:26Z</time></trkpt><trkpt lat="45.04477669274018" lon="8.180383644736956"><ele>205.66666666666666</ele><time>2026-04-18T14:24:27Z</time></trkpt><trkpt lat="45.044695410982754" lon="8.180402307650178"><ele>204.33333333333331</ele><time>2026-04-18T14:24:28Z</time></trkpt><trkpt lat="45.044616135363256" lon="8.180428820200158"><ele>203.0</ele><time>2026-04-18T14:24:29Z</time></trkpt><trkpt lat="45.044530310230485" lon="8.18047682809142"><ele>201.66666666666666</ele><time>2026-04-18T14:24:30Z</time></trkpt><trkpt lat="45.0444563517053" lon="8.180536642851933"><ele>200.33333333333331</ele><time>2026-04-18T14:24:31Z</time></trkpt><trkpt lat="45.0444008783979" lon="8.180618392169256"><ele>199.0</ele><time>2026-04-18T14:24:32Z</time></trkpt><trkpt lat="45.044354875844085" lon="8.180704302762612"><ele>198.2</ele><time>2026-04-18T14:24:33Z</time></trkpt><trkpt lat="45.04428229406255" lon="8.180827081924091"><ele>197.39999999999998</ele><time>2026-04-18T14:24:35Z</time></trkpt><trkpt lat="45.0442330422687" lon="8.18091106610587"><ele>196.6</ele><time>2026-04-18T14:24:37Z</time></trkpt><trkpt lat="45.04417459181369" lon="8.181052239523964"><ele>195.8</ele><time>2026-04-18T14:24:40Z</time></trkpt><trkpt lat="45.0441403078895" lon="8.181154567158888"><ele>195.0</ele><time>2026-04-18T14:24:41Z</time></trkpt><trkpt lat="45.04409287612796" lon="8.181276282850806"><ele>194.83333333333334</ele><time>2026-04-18T14:24:43Z</time></trkpt><trkpt lat="45.04404672598649" lon="8.181346920196784"><ele>194.66666666666669</ele><time>2026-04-18T14:25:27Z</time></trkpt><trkpt lat="45.04397749395817" lon="8.181305326740583"><ele>194.5</ele><time>2026-04-18T14:25:30Z</time></trkpt><trkpt lat="45.04392341813151" lon="8.181187500004325"><ele>194.33333333333334</ele><time>2026-04-18T14:25:32Z</time></trkpt><trkpt lat="45.04386919708232" lon="8.181080404959479"><ele>194.16666666666669</ele><time>2026-04-18T14:25:34Z</time></trkpt><trkpt lat="45.043830472637374" lon="8.181008117294132"><ele>194.0</ele><time>2026-04-18T14:25:35Z</time></trkpt><trkpt lat="45.04377919595347" lon="8.180913222293562"><ele>194.00000000000003</ele><time>2026-04-18T14:25:36Z</time></trkpt><trkpt lat="45.043721568499315" lon="8.180810496857186"><ele>194.0</ele><time>2026-04-18T14:25:37Z</time></trkpt><trkpt lat="45.04367136014384" lon="8.180724657770519"><ele>194.0</ele><time>2026-04-18T14:25:38Z</time></trkpt><trkpt lat="45.04361620470104" lon="8.18063796375781"><ele>194.0</ele><time>2026-04-18T14:25:39Z</time></trkpt><trkpt lat="45.04356340070141" lon="8.180556564494882"><ele>194.00000000000003</ele><time>2026-04-18T14:25:40Z</time></trkpt><trkpt lat="45.04351973644093" lon="8.180487857206492"><ele>194.0</ele><time>2026-04-18T14:25:41Z</time></trkpt><trkpt lat="45.04345866406318" lon="8.18041240791368"><ele>194.2</ele><time>2026-04-18T14:25:43Z</time></trkpt><trkpt lat="45.04341742294907" lon="8.180337365521268"><ele>194.39999999999998</ele><time>2026-04-18T14:25:46Z</time></trkpt><trkpt lat="45.043304760747084" lon="8.18024988619037"><ele>194.6</ele><time>2026-04-18T14:25:56Z</time></trkpt><trkpt lat="45.043231186589935" lon="8.180192526163077"><ele>194.8</ele><time>2026-04-18T14:25:57Z</time></trkpt><trkpt lat="45.04314981670042" lon="8.18013917016499"><ele>195.0</ele><time>2026-04-18T14:25:58Z</time></trkpt><trkpt lat="45.04305868357348" lon="8.180106694254375"><ele>195.0</ele><time>2026-04-18T14:25:59Z</time></trkpt><trkpt lat="45.04299122654737" lon="8.180085953367099"><ele>195.0</ele><time>2026-04-18T14:26:00Z</time></trkpt><trkpt lat="45.042914875771345" lon="8.18006679080641"><ele>195.0</ele><time>2026-04-18T14:26:01Z</time></trkpt><trkpt lat="45.04283150915873" lon="8.180040401182499"><ele>195.0</ele><time>2026-04-18T14:26:02Z</time></trkpt><trkpt lat="45.04275312867376" lon="8.179985635066785"><ele>195.0</ele><time>2026-04-18T14:26:03Z</time></trkpt><trkpt lat="45.04266791678622" lon="8.17990349217159"><ele>195.0</ele><time>2026-04-18T14:26:04Z</time></trkpt><trkpt lat="45.042582170042046" lon="8.179800268525513"><ele>194.4</ele><time>2026-04-18T14:26:05Z</time></trkpt><trkpt lat="45.042479657268736" lon="8.179685558826634"><ele>193.8</ele><time>2026-04-18T14:26:06Z</time></trkpt><trkpt lat="45.042389098354434" lon="8.179590875483605"><ele>193.2</ele><time>2026-04-18T14:26:07Z</time></trkpt><trkpt lat="45.04231318919908" lon="8.179513609179093"><ele>192.6</ele><time>2026-04-18T14:26:08Z</time></trkpt><trkpt lat="45.04222582787755" lon="8.179427269231363"><ele>192.0</ele><time>2026-04-18T14:26:09Z</time></trkpt><trkpt lat="45.04212129319705" lon="8.179326105821831"><ele>192.0</ele><time>2026-04-18T14:26:10Z</time></trkpt><trkpt lat="45.042013275513995" lon="8.179210793283904"><ele>192.0</ele><time>2026-04-18T14:26:11Z</time></trkpt><trkpt lat="45.04190638724403" lon="8.179105675712158"><ele>192.0</ele><time>2026-04-18T14:26:12Z</time></trkpt><trkpt lat="45.041808747425286" lon="8.179013824365017"><ele>192.0</ele><time>2026-04-18T14:26:13Z</time></trkpt><trkpt lat="45.04171499830031" lon="8.178930796573983"><ele>191.0</ele><time>2026-04-18T14:26:14Z</time></trkpt><trkpt lat="45.04162499994218" lon="8.17885671655631"><ele>190.0</ele><time>2026-04-18T14:26:15Z</time></trkpt><trkpt lat="45.04154450306696" lon="8.178791225875983"><ele>189.0</ele><time>2026-04-18T14:26:16Z</time></trkpt><trkpt lat="45.04145881052403" lon="8.178716466923168"><ele>188.0</ele><time>2026-04-18T14:26:17Z</time></trkpt><trkpt lat="45.04134677353002" lon="8.178647523493076"><ele>187.0</ele><time>2026-04-18T14:26:18Z</time></trkpt><trkpt lat="45.041239916197355" lon="8.178588141340636"><ele>187.0</ele><time>2026-04-18T14:26:19Z</time></trkpt><trkpt lat="45.0411308036305" lon="8.17853079989249"><ele>187.0</ele><time>2026-04-18T14:26:20Z</time></trkpt><trkpt lat="45.04100419883865" lon="8.178459214016438"><ele>187.0</ele><time>2026-04-18T14:26:21Z</time></trkpt><trkpt lat="45.040899478794536" lon="8.178394888213608"><ele>187.0</ele><time>2026-04-18T14:26:22Z</time></trkpt><trkpt lat="45.040784727758385" lon="8.17833712620188"><ele>187.5</ele><time>2026-04-18T14:26:23Z</time></trkpt><trkpt lat="45.04068673257719" lon="8.178281968473309"><ele>188.0</ele><time>2026-04-18T14:26:24Z</time></trkpt><trkpt lat="45.04058015335988" lon="8.178231199794508"><ele>188.5</ele><time>2026-04-18T14:26:25Z</time></trkpt><trkpt lat="45.040463323520235" lon="8.178178739877461"><ele>189.0</ele><time>2026-04-18T14:26:26Z</time></trkpt><trkpt lat="45.040344336859775" lon="8.178123626848745"><ele>188.6</ele><time>2026-04-18T14:26:27Z</time></trkpt><trkpt lat="45.040242272307324" lon="8.178077426316257"><ele>188.2</ele><time>2026-04-18T14:26:28Z</time></trkpt><trkpt lat="45.04012988893103" lon="8.17802634370017"><ele>187.79999999999998</ele><time>2026-04-18T14:26:29Z</time></trkpt><trkpt lat="45.04003013839742" lon="8.177986674438595"><ele>187.39999999999998</ele><time>2026-04-18T14:26:30Z</time></trkpt><trkpt lat="45.039927133028144" lon="8.177954875774574"><ele>187.0</ele><time>2026-04-18T14:26:31Z</time></trkpt><trkpt lat="45.0398123005144" lon="8.177922793637274"><ele>187.0</ele><time>2026-04-18T14:26:32Z</time></trkpt><trkpt lat="45.03969135783269" lon="8.177885992921773"><ele>187.0</ele><time>2026-04-18T14:26:33Z</time></trkpt><trkpt lat="45.03956900117129" lon="8.177845990395657"><ele>187.0</ele><time>2026-04-18T14:26:34Z</time></trkpt><trkpt lat="45.03944744800928" lon="8.177803184265318"><ele>187.0</ele><time>2026-04-18T14:26:35Z</time></trkpt><trkpt lat="45.039345143582416" lon="8.177760346987336"><ele>187.0</ele><time>2026-04-18T14:26:36Z</time></trkpt><trkpt lat="45.03925820251475" lon="8.177718853708102"><ele>187.0</ele><time>2026-04-18T14:26:37Z</time></trkpt><trkpt lat="45.039183497777785" lon="8.17766420201176"><ele>187.0</ele><time>2026-04-18T14:26:38Z</time></trkpt><trkpt lat="45.039112120534114" lon="8.177600242861965"><ele>187.0</ele><time>2026-04-18T14:26:39Z</time></trkpt><trkpt lat="45.03904011274373" lon="8.177527709537225"><ele>187.0</ele><time>2026-04-18T14:26:40Z</time></trkpt><trkpt lat="45.038975350054685" lon="8.177452626685882"><ele>187.0</ele><time>2026-04-18T14:26:41Z</time></trkpt><trkpt lat="45.03891778801407" lon="8.177383630264243"><ele>187.0</ele><time>2026-04-18T14:26:42Z</time></trkpt><trkpt lat="45.03883787021257" lon="8.17730825731909"><ele>187.0</ele><time>2026-04-18T14:26:43Z</time></trkpt><trkpt lat="45.0387494636653" lon="8.177229330996804"><ele>187.0</ele><time>2026-04-18T14:26:44Z</time></trkpt><trkpt lat="45.03865256315292" lon="8.177154358622278"><ele>187.0</ele><time>2026-04-18T14:26:45Z</time></trkpt><trkpt lat="45.03856314897913" lon="8.177074139080855"><ele>187.0</ele><time>2026-04-18T14:26:46Z</time></trkpt><trkpt lat="45.03848525500765" lon="8.1769881067433"><ele>187.0</ele><time>2026-04-18T14:26:47Z</time></trkpt><trkpt lat="45.038404144668675" lon="8.176893514805247"><ele>187.0</ele><time>2026-04-18T14:26:48Z</time></trkpt><trkpt lat="45.0383308923422" lon="8.176789350768958"><ele>187.0</ele><time>2026-04-18T14:26:49Z</time></trkpt><trkpt lat="45.03826463073202" lon="8.176695995185305"><ele>187.0</ele><time>2026-04-18T14:26:50Z</time></trkpt><trkpt lat="45.03820730114191" lon="8.176592120969495"><ele>187.0</ele><time>2026-04-18T14:26:51Z</time></trkpt><trkpt lat="45.03814878729366" lon="8.176453724188855"><ele>187.39999999999998</ele><time>2026-04-18T14:26:52Z</time></trkpt><trkpt lat="45.03809400170002" lon="8.176304475335964"><ele>187.79999999999998</ele><time>2026-04-18T14:26:53Z</time></trkpt><trkpt lat="45.03804673627759" lon="8.176153148666668"><ele>188.2</ele><time>2026-04-18T14:26:54Z</time></trkpt><trkpt lat="45.03800536490779" lon="8.176015312121331"><ele>188.6</ele><time>2026-04-18T14:26:55Z</time></trkpt><trkpt lat="45.03796702939665" lon="8.175908975109234"><ele>189.0</ele><time>2026-04-18T14:26:56Z</time></trkpt><trkpt lat="45.03792985803824" lon="8.175828559782728"><ele>189.0</ele><time>2026-04-18T14:26:57Z</time></trkpt><trkpt lat="45.037845458547004" lon="8.175714125061049"><ele>189.0</ele><time>2026-04-18T14:26:59Z</time></trkpt><trkpt lat="45.03776558521238" lon="8.175654772950068"><ele>189.0</ele><time>2026-04-18T14:27:00Z</time></trkpt><trkpt lat="45.03766007299008" lon="8.175572418653482"><ele>189.0</ele><time>2026-04-18T14:27:01Z</time></trkpt><trkpt lat="45.037527234687694" lon="8.175463236978011"><ele>187.75</ele><time>2026-04-18T14:27:02Z</time></trkpt><trkpt lat="45.037404391864534" lon="8.17535827620136"><ele>186.5</ele><time>2026-04-18T14:27:03Z</time></trkpt><trkpt lat="45.03727982309678" lon="8.175257022017279"><ele>185.25</ele><time>2026-04-18T14:27:04Z</time></trkpt><trkpt lat="45.03716452782487" lon="8.17516025575554"><ele>184.0</ele><time>2026-04-18T14:27:05Z</time></trkpt><trkpt lat="45.037055804544636" lon="8.175069495581162"><ele>184.0</ele><time>2026-04-18T14:27:06Z</time></trkpt><trkpt lat="45.03695060679275" lon="8.174980715921198"><ele>184.0</ele><time>2026-04-18T14:27:07Z</time></trkpt><trkpt lat="45.03684800029537" lon="8.174902789858763"><ele>184.0</ele><time>2026-04-18T14:27:08Z</time></trkpt><trkpt lat="45.03674101580813" lon="8.174836140275827"><ele>184.0</ele><time>2026-04-18T14:27:09Z</time></trkpt><trkpt lat="45.03662994739996" lon="8.174772037635513"><ele>183.0</ele><time>2026-04-18T14:27:10Z</time></trkpt><trkpt lat="45.03653636432523" lon="8.174717709875058"><ele>182.0</ele><time>2026-04-18T14:27:11Z</time></trkpt><trkpt lat="45.0364351340928" lon="8.174657165204652"><ele>181.0</ele><time>2026-04-18T14:27:12Z</time></trkpt><trkpt lat="45.03632158748147" lon="8.174597342509788"><ele>180.0</ele><time>2026-04-18T14:27:13Z</time></trkpt><trkpt lat="45.036219897517526" lon="8.174546901599014"><ele>179.0</ele><time>2026-04-18T14:27:14Z</time></trkpt><trkpt lat="45.036131764489795" lon="8.174506218923883"><ele>179.0</ele><time>2026-04-18T14:27:15Z</time></trkpt><trkpt lat="45.03604810158606" lon="8.174467952736322"><ele>179.0</ele><time>2026-04-18T14:27:16Z</time></trkpt><trkpt lat="45.035943992998234" lon="8.174416142007859"><ele>179.0</ele><time>2026-04-18T14:27:18Z</time></trkpt><trkpt lat="45.035893240214" lon="8.17435750370016"><ele>179.0</ele><time>2026-04-18T14:27:19Z</time></trkpt><trkpt lat="45.03583923686985" lon="8.174286751164658"><ele>179.0</ele><time>2026-04-18T14:27:20Z</time></trkpt><trkpt lat="45.035771416692995" lon="8.174193777649942"><ele>179.0</ele><time>2026-04-18T14:27:21Z</time></trkpt><trkpt lat="45.03571400699586" lon="8.174115476276276"><ele>178.0</ele><time>2026-04-18T14:27:22Z</time></trkpt><trkpt lat="45.03565692479493" lon="8.174017051392745"><ele>177.0</ele><time>2026-04-18T14:27:23Z</time></trkpt><trkpt lat="45.03559410828001" lon="8.173906264119381"><ele>176.0</ele><time>2026-04-18T14:27:24Z</time></trkpt><trkpt lat="45.03552290994265" lon="8.173775883918154"><ele>175.0</ele><time>2026-04-18T14:27:25Z</time></trkpt><trkpt lat="45.03544906588686" lon="8.17364498444597"><ele>174.0</ele><time>2026-04-18T14:27:26Z</time></trkpt><trkpt lat="45.03537273590605" lon="8.17351152247619"><ele>174.0</ele><time>2026-04-18T14:27:27Z</time></trkpt><trkpt lat="45.03529389786021" lon="8.173393563042557"><ele>174.0</ele><time>2026-04-18T14:27:28Z</time></trkpt><trkpt lat="45.03521843421239" lon="8.173290553138758"><ele>174.0</ele><time>2026-04-18T14:27:29Z</time></trkpt><trkpt lat="45.03515686373264" lon="8.17320207045385"><ele>174.0</ele><time>2026-04-18T14:27:30Z</time></trkpt><trkpt lat="45.0350941093857" lon="8.173118066385458"><ele>174.0</ele><time>2026-04-18T14:27:31Z</time></trkpt><trkpt lat="45.035019547229396" lon="8.173036588964866"><ele>173.6</ele><time>2026-04-18T14:27:32Z</time></trkpt><trkpt lat="45.03493443039566" lon="8.17294241994673"><ele>173.2</ele><time>2026-04-18T14:27:33Z</time></trkpt><trkpt lat="45.03484814084247" lon="8.17285879577813"><ele>172.79999999999998</ele><time>2026-04-18T14:27:34Z</time></trkpt><trkpt lat="45.03477941801123" lon="8.172748338102755"><ele>172.39999999999998</ele><time>2026-04-18T14:27:35Z</time></trkpt><trkpt lat="45.03470635126932" lon="8.172670237374668"><ele>172.0</ele><time>2026-04-18T14:27:36Z</time></trkpt><trkpt lat="45.03464313798215" lon="8.172598475235493"><ele>172.0</ele><time>2026-04-18T14:27:37Z</time></trkpt><trkpt lat="45.03457261086507" lon="8.172539273375193"><ele>172.0</ele><time>2026-04-18T14:27:38Z</time></trkpt><trkpt lat="45.03451070483" lon="8.172495002439314"><ele>172.0</ele><time>2026-04-18T14:27:39Z</time></trkpt><trkpt lat="45.03440267017308" lon="8.172383069302159"><ele>172.0</ele><time>2026-04-18T14:27:41Z</time></trkpt><trkpt lat="45.034323508206256" lon="8.172321310086344"><ele>172.0</ele><time>2026-04-18T14:27:42Z</time></trkpt><trkpt lat="45.03425061246927" lon="8.172265500046976"><ele>172.6</ele><time>2026-04-18T14:27:43Z</time></trkpt><trkpt lat="45.034194664816646" lon="8.172212437104374"><ele>173.2</ele><time>2026-04-18T14:27:44Z</time></trkpt><trkpt lat="45.03412751082601" lon="8.172149139990452"><ele>173.8</ele><time>2026-04-18T14:27:45Z</time></trkpt><trkpt lat="45.03404945439704" lon="8.172082041098724"><ele>174.4</ele><time>2026-04-18T14:27:46Z</time></trkpt><trkpt lat="45.03395448678708" lon="8.172002491197176"><ele>175.0</ele><time>2026-04-18T14:27:47Z</time></trkpt><trkpt lat="45.03385884446995" lon="8.171921256654851"><ele>175.0</ele><time>2026-04-18T14:27:48Z</time></trkpt><trkpt lat="45.03375664307698" lon="8.171827088450982"><ele>175.0</ele><time>2026-04-18T14:27:49Z</time></trkpt><trkpt lat="45.03365507146573" lon="8.17173103101106"><ele>175.0</ele><time>2026-04-18T14:27:50Z</time></trkpt><trkpt lat="45.033561964190355" lon="8.171644296934309"><ele>175.0</ele><time>2026-04-18T14:27:51Z</time></trkpt><trkpt lat="45.03346774263652" lon="8.171559441489116"><ele>175.6</ele><time>2026-04-18T14:27:52Z</time></trkpt><trkpt lat="45.03336349216898" lon="8.171477513063138"><ele>176.2</ele><time>2026-04-18T14:27:53Z</time></trkpt><trkpt lat="45.03326628107431" lon="8.17140883043503"><ele>176.8</ele><time>2026-04-18T14:27:54Z</time></trkpt><trkpt lat="45.033167468127026" lon="8.171346214253521"><ele>177.4</ele><time>2026-04-18T14:27:55Z</time></trkpt><trkpt lat="45.033070662065995" lon="8.171284105631768"><ele>178.0</ele><time>2026-04-18T14:27:56Z</time></trkpt><trkpt lat="45.03296120772496" lon="8.171213086671191"><ele>178.0</ele><time>2026-04-18T14:27:57Z</time></trkpt><trkpt lat="45.032846636103145" lon="8.171126218843822"><ele>178.0</ele><time>2026-04-18T14:27:58Z</time></trkpt><trkpt lat="45.0327495862427" lon="8.17105696405743"><ele>178.0</ele><time>2026-04-18T14:27:59Z</time></trkpt><trkpt lat="45.03265244789839" lon="8.170982559742423"><ele>178.0</ele><time>2026-04-18T14:28:00Z</time></trkpt><trkpt lat="45.03255763230616" lon="8.170900016356274"><ele>176.60000000000002</ele><time>2026-04-18T14:28:01Z</time></trkpt><trkpt lat="45.03246818579211" lon="8.170813888440751"><ele>175.20000000000002</ele><time>2026-04-18T14:28:02Z</time></trkpt><trkpt lat="45.032375080585794" lon="8.170724901433532"><ele>173.8</ele><time>2026-04-18T14:28:03Z</time></trkpt><trkpt lat="45.03228861125005" lon="8.170633216843902"><ele>172.4</ele><time>2026-04-18T14:28:04Z</time></trkpt><trkpt lat="45.032190961300444" lon="8.170536123656191"><ele>171.0</ele><time>2026-04-18T14:28:05Z</time></trkpt><trkpt lat="45.032094212254236" lon="8.170443303964795"><ele>170.60000000000002</ele><time>2026-04-18T14:28:06Z</time></trkpt><trkpt lat="45.03201852032354" lon="8.170367456665385"><ele>170.2</ele><time>2026-04-18T14:28:07Z</time></trkpt><trkpt lat="45.03195592026639" lon="8.170301780294368"><ele>169.8</ele><time>2026-04-18T14:28:08Z</time></trkpt><trkpt lat="45.03188138943705" lon="8.17018913703122"><ele>169.39999999999998</ele><time>2026-04-18T14:28:10Z</time></trkpt><trkpt lat="45.031886692000505" lon="8.170002905943578"><ele>169.0</ele><time>2026-04-18T14:28:12Z</time></trkpt><trkpt lat="45.031918242845855" lon="8.169883022831257"><ele>169.39999999999998</ele><time>2026-04-18T14:28:13Z</time></trkpt><trkpt lat="45.031965267095394" lon="8.16974667108611"><ele>169.8</ele><time>2026-04-18T14:28:14Z</time></trkpt><trkpt lat="45.032011068984744" lon="8.169594813657602"><ele>170.2</ele><time>2026-04-18T14:28:15Z</time></trkpt><trkpt lat="45.03204246777298" lon="8.169464449885936"><ele>170.60000000000002</ele><time>2026-04-18T14:28:16Z</time></trkpt><trkpt lat="45.0320579495418" lon="8.169335133927849"><ele>171.0</ele><time>2026-04-18T14:28:17Z</time></trkpt><trkpt lat="45.03206666715318" lon="8.169201508319135"><ele>171.0</ele><time>2026-04-18T14:28:18Z</time></trkpt><trkpt lat="45.032073176675944" lon="8.16909869780156"><ele>171.0</ele><time>2026-04-18T14:28:19Z</time></trkpt><trkpt lat="45.032096264649425" lon="8.168948536758752"><ele>171.0</ele><time>2026-04-18T14:28:21Z</time></trkpt><trkpt lat="45.032117422300075" lon="8.16885799488923"><ele>171.0</ele><time>2026-04-18T14:28:22Z</time></trkpt><trkpt lat="45.03213922131592" lon="8.168739776321585"><ele>171.0</ele><time>2026-04-18T14:28:23Z</time></trkpt><trkpt lat="45.032159239183024" lon="8.168586596823696"><ele>171.0</ele><time>2026-04-18T14:28:24Z</time></trkpt><trkpt lat="45.032164650085306" lon="8.16842930947543"><ele>170.75</ele><time>2026-04-18T14:28:25Z</time></trkpt><trkpt lat="45.032153726915766" lon="8.168254188979986"><ele>170.5</ele><time>2026-04-18T14:28:26Z</time></trkpt><trkpt lat="45.032128745799355" lon="8.168089013689784"><ele>170.25</ele><time>2026-04-18T14:28:27Z</time></trkpt><trkpt lat="45.03211034094943" lon="8.167956875739213"><ele>170.0</ele><time>2026-04-18T14:28:28Z</time></trkpt><trkpt lat="45.0320808267892" lon="8.167790035820094"><ele>170.0</ele><time>2026-04-18T14:28:30Z</time></trkpt><trkpt lat="45.0320449755943" lon="8.167705288745415"><ele>170.0</ele><time>2026-04-18T14:28:31Z</time></trkpt><trkpt lat="45.031980256364136" lon="8.167629686414136"><ele>170.0</ele><time>2026-04-18T14:28:32Z</time></trkpt><trkpt lat="45.0319013853373" lon="8.167553753393735"><ele>170.0</ele><time>2026-04-18T14:28:33Z</time></trkpt><trkpt lat="45.031833015253184" lon="8.16748112718934"><ele>170.0</ele><time>2026-04-18T14:28:34Z</time></trkpt><trkpt lat="45.031765689743246" lon="8.167404058313615"><ele>170.0</ele><time>2026-04-18T14:28:35Z</time></trkpt><trkpt lat="45.03169463572769" lon="8.167318334497699"><ele>169.0</ele><time>2026-04-18T14:28:36Z</time></trkpt><trkpt lat="45.03161178006696" lon="8.167222110270881"><ele>168.0</ele><time>2026-04-18T14:28:37Z</time></trkpt><trkpt lat="45.03145571488208" lon="8.167038379437846"><ele>167.0</ele><time>2026-04-18T14:28:39Z</time></trkpt><trkpt lat="45.03139376668185" lon="8.166964765967174"><ele>166.0</ele><time>2026-04-18T14:28:40Z</time></trkpt><trkpt lat="45.03134802484073" lon="8.166888038185682"><ele>166.0</ele><time>2026-04-18T14:28:41Z</time></trkpt><trkpt lat="45.0312696767346" lon="8.166742435352074"><ele>166.0</ele><time>2026-04-18T14:28:43Z</time></trkpt><trkpt lat="45.0312344163395" lon="8.166634891415342"><ele>166.0</ele><time>2026-04-18T14:28:44Z</time></trkpt><trkpt lat="45.03119712780673" lon="8.166494690405813"><ele>166.0</ele><time>2026-04-18T14:28:45Z</time></trkpt><trkpt lat="45.03115689989649" lon="8.16635855232496"><ele>166.0</ele><time>2026-04-18T14:28:46Z</time></trkpt><trkpt lat="45.03111657786328" lon="8.166234067782243"><ele>166.4</ele><time>2026-04-18T14:28:47Z</time></trkpt><trkpt lat="45.031076576854474" lon="8.166133980135747"><ele>166.8</ele><time>2026-04-18T14:28:48Z</time></trkpt><trkpt lat="45.03104297643604" lon="8.166050545267934"><ele>167.20000000000002</ele><time>2026-04-18T14:28:49Z</time></trkpt><trkpt lat="45.03099610137432" lon="8.165942383506367"><ele>167.60000000000002</ele><time>2026-04-18T14:28:51Z</time></trkpt><trkpt lat="45.03091354404913" lon="8.165790095783887"><ele>168.0</ele><time>2026-04-18T14:28:53Z</time></trkpt><trkpt lat="45.03085078141907" lon="8.165673482585383"><ele>167.2</ele><time>2026-04-18T14:28:54Z</time></trkpt><trkpt lat="45.03077896806323" lon="8.165541670012779"><ele>166.4</ele><time>2026-04-18T14:28:55Z</time></trkpt><trkpt lat="45.03071697208197" lon="8.16542632933642"><ele>165.6</ele><time>2026-04-18T14:28:56Z</time></trkpt><trkpt lat="45.03064580209322" lon="8.165308081412556"><ele>164.79999999999998</ele><time>2026-04-18T14:28:57Z</time></trkpt><trkpt lat="45.03057564576249" lon="8.165191736406216"><ele>164.0</ele><time>2026-04-18T14:28:58Z</time></trkpt><trkpt lat="45.03051434815341" lon="8.16508811356592"><ele>164.0</ele><time>2026-04-18T14:28:59Z</time></trkpt><trkpt lat="45.0304631508611" lon="8.16500138878333"><ele>164.0</ele><time>2026-04-18T14:29:00Z</time></trkpt><trkpt lat="45.03042091828926" lon="8.164927566100552"><ele>164.0</ele><time>2026-04-18T14:29:01Z</time></trkpt><trkpt lat="45.030361009027054" lon="8.16486615561884"><ele>164.0</ele><time>2026-04-18T14:29:02Z</time></trkpt><trkpt lat="45.03026608938239" lon="8.164822290386535"><ele>164.0</ele><time>2026-04-18T14:29:03Z</time></trkpt><trkpt lat="45.03016067793219" lon="8.164808611337799"><ele>164.0</ele><time>2026-04-18T14:29:04Z</time></trkpt><trkpt lat="45.03005345963296" lon="8.16482387632332"><ele>163.6</ele><time>2026-04-18T14:29:05Z</time></trkpt><trkpt lat="45.02997885616116" lon="8.164847550599516"><ele>163.2</ele><time>2026-04-18T14:29:06Z</time></trkpt><trkpt lat="45.02987086107762" lon="8.164855227654101"><ele>162.79999999999998</ele><time>2026-04-18T14:29:08Z</time></trkpt><trkpt lat="45.029787547287135" lon="8.164796924012142"><ele>162.39999999999998</ele><time>2026-04-18T14:29:10Z</time></trkpt><trkpt lat="45.02974124071157" lon="8.164634697205429"><ele>162.0</ele><time>2026-04-18T14:29:12Z</time></trkpt><trkpt lat="45.02971528520467" lon="8.164503874468465"><ele>162.0</ele><time>2026-04-18T14:29:13Z</time></trkpt><trkpt lat="45.029685559477244" lon="8.164350794096592"><ele>162.0</ele><time>2026-04-18T14:29:14Z</time></trkpt><trkpt lat="45.029653667992186" lon="8.164219969437568"><ele>162.0</ele><time>2026-04-18T14:29:15Z</time></trkpt><trkpt lat="45.02961909215252" lon="8.164123125954625"><ele>162.0</ele><time>2026-04-18T14:29:16Z</time></trkpt><trkpt lat="45.029558659771205" lon="8.164002352240955"><ele>162.0</ele><time>2026-04-18T14:29:17Z</time></trkpt><trkpt lat="45.02947482515179" lon="8.163866636010349"><ele>161.5</ele><time>2026-04-18T14:29:18Z</time></trkpt><trkpt lat="45.02939785113709" lon="8.163719219590696"><ele>161.0</ele><time>2026-04-18T14:29:19Z</time></trkpt><trkpt lat="45.0293079749311" lon="8.163541304099088"><ele>160.5</ele><time>2026-04-18T14:29:20Z</time></trkpt><trkpt lat="45.02923167077722" lon="8.163366292895908"><ele>160.0</ele><time>2026-04-18T14:29:21Z</time></trkpt><trkpt lat="45.029180573821556" lon="8.16322503093215"><ele>160.4</ele><time>2026-04-18T14:29:22Z</time></trkpt><trkpt lat="45.0291283895149" lon="8.163091135048322"><ele>160.8</ele><time>2026-04-18T14:29:23Z</time></trkpt><trkpt lat="45.029084678285244" lon="8.162953555687134"><ele>161.2</ele><time>2026-04-18T14:29:24Z</time></trkpt><trkpt lat="45.02904385339003" lon="8.162828366174876"><ele>161.6</ele><time>2026-04-18T14:29:25Z</time></trkpt><trkpt lat="45.02901287560053" lon="8.16274363081747"><ele>162.0</ele><time>2026-04-18T14:29:26Z</time></trkpt><trkpt lat="45.02895846727963" lon="8.162645992188402"><ele>162.0</ele><time>2026-04-18T14:29:28Z</time></trkpt><trkpt lat="45.02884485928937" lon="8.162653430846666"><ele>162.0</ele><time>2026-04-18T14:29:30Z</time></trkpt><trkpt lat="45.02875774277611" lon="8.162562204763546"><ele>162.0</ele><time>2026-04-18T14:29:32Z</time></trkpt><trkpt lat="45.02871923436051" lon="8.16245611112804"><ele>162.0</ele><time>2026-04-18T14:29:33Z</time></trkpt><trkpt lat="45.02868220576312" lon="8.162323256745744"><ele>162.0</ele><time>2026-04-18T14:29:34Z</time></trkpt><trkpt lat="45.02863234572697" lon="8.162172492048049"><ele>161.83333333333334</ele><time>2026-04-18T14:29:35Z</time></trkpt><trkpt lat="45.028582070076844" lon="8.162041886519956"><ele>161.66666666666666</ele><time>2026-04-18T14:29:36Z</time></trkpt><trkpt lat="45.02853665007591" lon="8.161938432567593"><ele>161.5</ele><time>2026-04-18T14:29:37Z</time></trkpt><trkpt lat="45.028481828476735" lon="8.161830041034555"><ele>161.33333333333331</ele><time>2026-04-18T14:29:38Z</time></trkpt><trkpt lat="45.02842656503053" lon="8.161735152528196"><ele>161.16666666666666</ele><time>2026-04-18T14:29:39Z</time></trkpt><trkpt lat="45.02837406792478" lon="8.16166125877127"><ele>161.0</ele><time>2026-04-18T14:29:40Z</time></trkpt><trkpt lat="45.028269191358135" lon="8.161603776762481"><ele>160.60000000000002</ele><time>2026-04-18T14:29:42Z</time></trkpt><trkpt lat="45.02814647189626" lon="8.16165157587897"><ele>160.20000000000002</ele><time>2026-04-18T14:29:44Z</time></trkpt><trkpt lat="45.02805839328121" lon="8.16169876549965"><ele>159.8</ele><time>2026-04-18T14:29:45Z</time></trkpt><trkpt lat="45.02798826421398" lon="8.16172871494388"><ele>159.4</ele><time>2026-04-18T14:29:46Z</time></trkpt><trkpt lat="45.02787994561285" lon="8.16176597187158"><ele>159.0</ele><time>2026-04-18T14:29:48Z</time></trkpt><trkpt lat="45.02781037147496" lon="8.161790874376226"><ele>159.0</ele><time>2026-04-18T14:29:50Z</time></trkpt><trkpt lat="45.027746018495826" lon="8.161811807232692"><ele>159.0</ele><time>2026-04-18T14:29:53Z</time></trkpt><trkpt lat="45.027632776979935" lon="8.161841414031054"><ele>159.0</ele><time>2026-04-18T14:34:08Z</time></trkpt><trkpt lat="45.02757030719563" lon="8.161856573117538"><ele>159.0</ele><time>2026-04-18T14:34:09Z</time></trkpt><trkpt lat="45.02750048812702" lon="8.161876614606763"><ele>159.0</ele><time>2026-04-18T14:34:10Z</time></trkpt><trkpt lat="45.027423006098694" lon="8.16189545202792"><ele>159.0</ele><time>2026-04-18T14:34:11Z</time></trkpt><trkpt lat="45.027340197511975" lon="8.161911979460255"><ele>158.83333333333334</ele><time>2026-04-18T14:34:12Z</time></trkpt><trkpt lat="45.027243316240465" lon="8.161938202891628"><ele>158.66666666666666</ele><time>2026-04-18T14:34:13Z</time></trkpt><trkpt lat="45.02716115736117" lon="8.161957878105598"><ele>158.5</ele><time>2026-04-18T14:34:14Z</time></trkpt><trkpt lat="45.027052554398836" lon="8.16195522206746"><ele>158.33333333333331</ele><time>2026-04-18T14:34:16Z</time></trkpt><trkpt lat="45.026988694511715" lon="8.161961804532215"><ele>158.16666666666666</ele><time>2026-04-18T14:34:19Z</time></trkpt><trkpt lat="45.02696935512786" lon="8.162055981723528"><ele>158.0</ele><time>2026-04-18T14:34:22Z</time></trkpt><trkpt lat="45.02696157634278" lon="8.162215301486002"><ele>157.83333333333331</ele><time>2026-04-18T14:34:24Z</time></trkpt><trkpt lat="45.02693936967539" lon="8.16239403356239"><ele>157.66666666666666</ele><time>2026-04-18T14:34:26Z</time></trkpt><trkpt lat="45.026931397540544" lon="8.162486873697157"><ele>157.5</ele><time>2026-04-18T14:34:27Z</time></trkpt><trkpt lat="45.02692585289363" lon="8.162589654660957"><ele>157.33333333333334</ele><time>2026-04-18T14:34:28Z</time></trkpt><trkpt lat="45.02691886236112" lon="8.162705098570687"><ele>157.16666666666669</ele><time>2026-04-18T14:34:29Z</time></trkpt><trkpt lat="45.026909658644485" lon="8.162815910130423"><ele>157.0</ele><time>2026-04-18T14:34:30Z</time></trkpt><trkpt lat="45.026900384703595" lon="8.162937468077276"><ele>157.0</ele><time>2026-04-18T14:34:31Z</time></trkpt><trkpt lat="45.026895111631625" lon="8.163071799832872"><ele>157.0</ele><time>2026-04-18T14:34:32Z</time></trkpt><trkpt lat="45.0268936451756" lon="8.163220437007224"><ele>157.0</ele><time>2026-04-18T14:34:33Z</time></trkpt><trkpt lat="45.02689192228114" lon="8.163372005862339"><ele>157.0</ele><time>2026-04-18T14:34:34Z</time></trkpt><trkpt lat="45.02689454677963" lon="8.163523830872894"><ele>157.0</ele><time>2026-04-18T14:34:35Z</time></trkpt><trkpt lat="45.026904272014924" lon="8.163713754849283"><ele>157.4</ele><time>2026-04-18T14:34:36Z</time></trkpt><trkpt lat="45.02691853430739" lon="8.163906913300757"><ele>157.79999999999998</ele><time>2026-04-18T14:34:37Z</time></trkpt><trkpt lat="45.02693328901995" lon="8.1640710994337"><ele>158.2</ele><time>2026-04-18T14:34:38Z</time></trkpt><trkpt lat="45.026954055293245" lon="8.164203996967833"><ele>158.6</ele><time>2026-04-18T14:34:39Z</time></trkpt><trkpt lat="45.026969180057144" lon="8.164319259710316"><ele>159.0</ele><time>2026-04-18T14:34:40Z</time></trkpt><trkpt lat="45.02694552857978" lon="8.164425262629665"><ele>159.66666666666666</ele><time>2026-04-18T14:34:41Z</time></trkpt><trkpt lat="45.02694862326854" lon="8.16458172244779"><ele>160.33333333333334</ele><time>2026-04-18T14:34:43Z</time></trkpt><trkpt lat="45.02694386862976" lon="8.164726902801373"><ele>161.0</ele><time>2026-04-18T14:34:45Z</time></trkpt><trkpt lat="45.026935377909915" lon="8.16485845448887"><ele>161.66666666666669</ele><time>2026-04-18T14:34:47Z</time></trkpt><trkpt lat="45.02693671555751" lon="8.164950939171883"><ele>162.33333333333334</ele><time>2026-04-18T14:35:13Z</time></trkpt><trkpt lat="45.02693503368943" lon="8.165059774045433"><ele>163.0</ele><time>2026-04-18T14:35:14Z</time></trkpt><trkpt lat="45.02691379246222" lon="8.165185227897112"><ele>164.5</ele><time>2026-04-18T14:35:15Z</time></trkpt><trkpt lat="45.02690357757648" lon="8.165370925996138"><ele>166.0</ele><time>2026-04-18T14:35:16Z</time></trkpt><trkpt lat="45.02689113477061" lon="8.165589733143031"><ele>167.5</ele><time>2026-04-18T14:35:17Z</time></trkpt><trkpt lat="45.02688282136186" lon="8.16579773485276"><ele>169.0</ele><time>2026-04-18T14:35:18Z</time></trkpt><trkpt lat="45.02689526344844" lon="8.16597617031989"><ele>171.66666666666669</ele><time>2026-04-18T14:35:19Z</time></trkpt><trkpt lat="45.02688874737161" lon="8.166202289055613"><ele>174.33333333333334</ele><time>2026-04-18T14:35:20Z</time></trkpt><trkpt lat="45.02690792123938" lon="8.166473513983355"><ele>177.0</ele><time>2026-04-18T14:35:21Z</time></trkpt><trkpt lat="45.02694717381152" lon="8.166756705629084"><ele>179.33333333333334</ele><time>2026-04-18T14:35:22Z</time></trkpt><trkpt lat="45.026937943704944" lon="8.167011867933699"><ele>181.66666666666669</ele><time>2026-04-18T14:35:23Z</time></trkpt><trkpt lat="45.026945414557716" lon="8.167295798493507"><ele>184.0</ele><time>2026-04-18T14:35:24Z</time></trkpt><trkpt lat="45.026926500384356" lon="8.167598074755059"><ele>186.33333333333334</ele><time>2026-04-18T14:35:25Z</time></trkpt><trkpt lat="45.02689249975722" lon="8.167854659868373"><ele>188.66666666666666</ele><time>2026-04-18T14:35:26Z</time></trkpt><trkpt lat="45.02688517872893" lon="8.16808404536451"><ele>191.0</ele><time>2026-04-18T14:35:27Z</time></trkpt><trkpt lat="45.026892203037754" lon="8.168289964670038"><ele>193.0</ele><time>2026-04-18T14:35:28Z</time></trkpt><trkpt lat="45.02689754895414" lon="8.168456161319517"><ele>195.0</ele><time>2026-04-18T14:35:29Z</time></trkpt><trkpt lat="45.02689411152311" lon="8.168616368694384"><ele>197.0</ele><time>2026-04-18T14:35:30Z</time></trkpt><trkpt lat="45.02687979354847" lon="8.168819505199613"><ele>199.0</ele><time>2026-04-18T14:35:31Z</time></trkpt><trkpt lat="45.026867412809644" lon="8.169057742840197"><ele>200.25</ele><time>2026-04-18T14:35:32Z</time></trkpt><trkpt lat="45.026833900443954" lon="8.169265434476253"><ele>201.5</ele><time>2026-04-18T14:35:33Z</time></trkpt><trkpt lat="45.026806153232684" lon="8.169442666210541"><ele>202.75</ele><time>2026-04-18T14:35:34Z</time></trkpt><trkpt lat="45.02678109450367" lon="8.169608079697893"><ele>204.0</ele><time>2026-04-18T14:35:35Z</time></trkpt><trkpt lat="45.026778640777614" lon="8.169772608635181"><ele>204.66666666666669</ele><time>2026-04-18T14:35:36Z</time></trkpt><trkpt lat="45.0267971345743" lon="8.169962825351819"><ele>205.33333333333334</ele><time>2026-04-18T14:35:37Z</time></trkpt><trkpt lat="45.02683422279647" lon="8.170182290446622"><ele>206.0</ele><time>2026-04-18T14:35:38Z</time></trkpt><trkpt lat="45.02689687967728" lon="8.17044907741315"><ele>208.0</ele><time>2026-04-18T14:35:39Z</time></trkpt><trkpt lat="45.026984668753435" lon="8.170719718183754"><ele>210.0</ele><time>2026-04-18T14:35:40Z</time></trkpt><trkpt lat="45.027098421357444" lon="8.171013645016629"><ele>212.0</ele><time>2026-04-18T14:35:41Z</time></trkpt><trkpt lat="45.02719701507609" lon="8.171269855226344"><ele>212.0</ele><time>2026-04-18T14:35:42Z</time></trkpt><trkpt lat="45.027279540219006" lon="8.171502962298776"><ele>212.0</ele><time>2026-04-18T14:35:43Z</time></trkpt><trkpt lat="45.02735506975978" lon="8.171713135877607"><ele>212.0</ele><time>2026-04-18T14:35:44Z</time></trkpt><trkpt lat="45.02742162718844" lon="8.171913707979115"><ele>212.5</ele><time>2026-04-18T14:35:45Z</time></trkpt><trkpt lat="45.02748805172789" lon="8.172120493103819"><ele>213.0</ele><time>2026-04-18T14:35:46Z</time></trkpt><trkpt lat="45.02754384121143" lon="8.172321375504918"><ele>213.5</ele><time>2026-04-18T14:35:47Z</time></trkpt><trkpt lat="45.027586847242134" lon="8.172493177089862"><ele>214.0</ele><time>2026-04-18T14:35:48Z</time></trkpt><trkpt lat="45.027622924290476" lon="8.172633899257734"><ele>214.0</ele><time>2026-04-18T14:35:49Z</time></trkpt><trkpt lat="45.02764304550357" lon="8.172780898730798"><ele>214.0</ele><time>2026-04-18T14:35:50Z</time></trkpt><trkpt lat="45.02765809900454" lon="8.172977804999002"><ele>214.0</ele><time>2026-04-18T14:35:51Z</time></trkpt><trkpt lat="45.02767429526244" lon="8.173202146328206"><ele>214.0</ele><time>2026-04-18T14:35:52Z</time></trkpt><trkpt lat="45.02770393857716" lon="8.173460061444494"><ele>213.66666666666666</ele><time>2026-04-18T14:35:53Z</time></trkpt><trkpt lat="45.02771872083569" lon="8.173744153881666"><ele>213.33333333333331</ele><time>2026-04-18T14:35:54Z</time></trkpt><trkpt lat="45.027747548168286" lon="8.17404723022064"><ele>213.0</ele><time>2026-04-18T14:35:55Z</time></trkpt><trkpt lat="45.02777266673826" lon="8.174384278553251"><ele>213.0</ele><time>2026-04-18T14:35:56Z</time></trkpt><trkpt lat="45.02779316414114" lon="8.174691845139243"><ele>213.0</ele><time>2026-04-18T14:35:57Z</time></trkpt><trkpt lat="45.02780182147402" lon="8.174975756879947"><ele>213.0</ele><time>2026-04-18T14:35:58Z</time></trkpt><trkpt lat="45.02779535977283" lon="8.175254129548113"><ele>212.66666666666669</ele><time>2026-04-18T14:35:59Z</time></trkpt><trkpt lat="45.02777819231783" lon="8.17556625644972"><ele>212.33333333333334</ele><time>2026-04-18T14:36:00Z</time></trkpt><trkpt lat="45.02775434468111" lon="8.175874431061933"><ele>212.0</ele><time>2026-04-18T14:36:01Z</time></trkpt><trkpt lat="45.02775342659207" lon="8.176158291671365"><ele>214.0</ele><time>2026-04-18T14:36:02Z</time></trkpt><trkpt lat="45.027739926134466" lon="8.176411493864544"><ele>216.0</ele><time>2026-04-18T14:36:03Z</time></trkpt><trkpt lat="45.02772901682219" lon="8.176671634331628"><ele>218.0</ele><time>2026-04-18T14:36:04Z</time></trkpt><trkpt lat="45.02772694755194" lon="8.176918114142344"><ele>219.75</ele><time>2026-04-18T14:36:05Z</time></trkpt><trkpt lat="45.027736658791774" lon="8.177117400855787"><ele>221.5</ele><time>2026-04-18T14:36:06Z</time></trkpt><trkpt lat="45.02774649961995" lon="8.177307859338494"><ele>223.25</ele><time>2026-04-18T14:36:07Z</time></trkpt><trkpt lat="45.02775996855863" lon="8.177473132896681"><ele>225.0</ele><time>2026-04-18T14:36:08Z</time></trkpt><trkpt lat="45.02779491422207" lon="8.177616380289509"><ele>225.25</ele><time>2026-04-18T14:36:09Z</time></trkpt><trkpt lat="45.02784940669758" lon="8.177762438279528"><ele>225.5</ele><time>2026-04-18T14:36:10Z</time></trkpt><trkpt lat="45.02792175430123" lon="8.177953365829737"><ele>225.75</ele><time>2026-04-18T14:36:11Z</time></trkpt><trkpt lat="45.02802657339155" lon="8.178154683389035"><ele>226.0</ele><time>2026-04-18T14:36:12Z</time></trkpt><trkpt lat="45.028150981348496" lon="8.178380605751595"><ele>226.66666666666666</ele><time>2026-04-18T14:36:13Z</time></trkpt><trkpt lat="45.02830132470098" lon="8.178606482338031"><ele>227.33333333333331</ele><time>2026-04-18T14:36:14Z</time></trkpt><trkpt lat="45.02841846137093" lon="8.178817360991852"><ele>228.0</ele><time>2026-04-18T14:36:15Z</time></trkpt><trkpt lat="45.02850971850826" lon="8.179028957649436"><ele>225.75</ele><time>2026-04-18T14:36:16Z</time></trkpt><trkpt lat="45.02862494207314" lon="8.179216017589841"><ele>223.5</ele><time>2026-04-18T14:36:17Z</time></trkpt><trkpt lat="45.02870803844448" lon="8.179379351595077"><ele>221.25</ele><time>2026-04-18T14:36:18Z</time></trkpt><trkpt lat="45.028791019115026" lon="8.179523927355406"><ele>219.0</ele><time>2026-04-18T14:36:19Z</time></trkpt><trkpt lat="45.0288758696373" lon="8.179658093354531"><ele>219.0</ele><time>2026-04-18T14:36:20Z</time></trkpt><trkpt lat="45.028958943069426" lon="8.1797789500833"><ele>219.0</ele><time>2026-04-18T14:36:21Z</time></trkpt><trkpt lat="45.02904603395597" lon="8.179913300735812"><ele>219.0</ele><time>2026-04-18T14:36:22Z</time></trkpt><trkpt lat="45.02913246493152" lon="8.180044363897132"><ele>219.0</ele><time>2026-04-18T14:36:23Z</time></trkpt><trkpt lat="45.02921715983742" lon="8.18017834717974"><ele>219.0</ele><time>2026-04-18T14:36:24Z</time></trkpt><trkpt lat="45.02928544799505" lon="8.180321694403228"><ele>218.99999999999997</ele><time>2026-04-18T14:36:25Z</time></trkpt><trkpt lat="45.02933004270877" lon="8.18046339141573"><ele>218.99999999999997</ele><time>2026-04-18T14:36:26Z</time></trkpt><trkpt lat="45.02935852712675" lon="8.180604139874577"><ele>219.0</ele><time>2026-04-18T14:36:27Z</time></trkpt><trkpt lat="45.02936757696186" lon="8.180747495069651"><ele>219.0</ele><time>2026-04-18T14:36:28Z</time></trkpt><trkpt lat="45.02933673173946" lon="8.180925351830238"><ele>216.0</ele><time>2026-04-18T14:36:29Z</time></trkpt><trkpt lat="45.02929952169453" lon="8.181118425119688"><ele>213.0</ele><time>2026-04-18T14:36:30Z</time></trkpt><trkpt lat="45.029252825316405" lon="8.181333891531516"><ele>210.0</ele><time>2026-04-18T14:36:31Z</time></trkpt><trkpt lat="45.0292020496923" lon="8.18154955037271"><ele>207.75</ele><time>2026-04-18T14:36:32Z</time></trkpt><trkpt lat="45.02913217276253" lon="8.181711390850841"><ele>205.5</ele><time>2026-04-18T14:36:33Z</time></trkpt><trkpt lat="45.0290486198662" lon="8.18185690149324"><ele>203.25</ele><time>2026-04-18T14:36:34Z</time></trkpt><trkpt lat="45.02896550568045" lon="8.18202932365493"><ele>201.0</ele><time>2026-04-18T14:36:35Z</time></trkpt><trkpt lat="45.028872089469026" lon="8.182229664009391"><ele>205.0</ele><time>2026-04-18T14:36:36Z</time></trkpt><trkpt lat="45.02877177363231" lon="8.182445841071553"><ele>209.0</ele><time>2026-04-18T14:36:37Z</time></trkpt><trkpt lat="45.02860833690841" lon="8.182788565500775"><ele>209.0</ele><time>2026-04-18T14:36:38Z</time></trkpt><trkpt lat="45.02848963520474" lon="8.182998732420362"><ele>209.0</ele><time>2026-04-18T14:36:39Z</time></trkpt><trkpt lat="45.02837748827012" lon="8.183164009968054"><ele>209.0</ele><time>2026-04-18T14:36:40Z</time></trkpt><trkpt lat="45.02826671102286" lon="8.18329392202813"><ele>210.6</ele><time>2026-04-18T14:36:41Z</time></trkpt><trkpt lat="45.02816345287142" lon="8.183411211449814"><ele>212.2</ele><time>2026-04-18T14:36:42Z</time></trkpt><trkpt lat="45.0280987488261" lon="8.18349077765568"><ele>213.79999999999998</ele><time>2026-04-18T14:36:43Z</time></trkpt><trkpt lat="45.02805032186718" lon="8.183556949529656"><ele>215.39999999999998</ele><time>2026-04-18T14:36:44Z</time></trkpt><trkpt lat="45.027979233130516" lon="8.183675648474823"><ele>217.0</ele><time>2026-04-18T14:36:46Z</time></trkpt><trkpt lat="45.02793217444102" lon="8.183744354145512"><ele>217.0</ele><time>2026-04-18T14:36:47Z</time></trkpt><trkpt lat="45.027880810071906" lon="8.183833204274094"><ele>217.0</ele><time>2026-04-18T14:36:48Z</time></trkpt><trkpt lat="45.02780178552016" lon="8.18391692590964"><ele>217.0</ele><time>2026-04-18T14:36:49Z</time></trkpt><trkpt lat="45.02771196897408" lon="8.18405023169393"><ele>217.0</ele><time>2026-04-18T14:36:50Z</time></trkpt><trkpt lat="45.027587789830676" lon="8.184236166949516"><ele>217.66666666666666</ele><time>2026-04-18T14:36:51Z</time></trkpt><trkpt lat="45.027479367037095" lon="8.184400420748792"><ele>218.33333333333331</ele><time>2026-04-18T14:36:52Z</time></trkpt><trkpt lat="45.02735868297324" lon="8.184583249607627"><ele>219.0</ele><time>2026-04-18T14:36:53Z</time></trkpt><trkpt lat="45.02725539771417" lon="8.184745482550204"><ele>221.33333333333331</ele><time>2026-04-18T14:36:54Z</time></trkpt><trkpt lat="45.027179152354805" lon="8.184901512156426"><ele>223.66666666666666</ele><time>2026-04-18T14:36:55Z</time></trkpt><trkpt lat="45.027103174930076" lon="8.185088906303628"><ele>226.0</ele><time>2026-04-18T14:36:56Z</time></trkpt><trkpt lat="45.02703901159512" lon="8.185305592537144"><ele>226.0</ele><time>2026-04-18T14:36:57Z</time></trkpt><trkpt lat="45.02698389458693" lon="8.185538251226781"><ele>226.0</ele><time>2026-04-18T14:36:58Z</time></trkpt><trkpt lat="45.026942306639704" lon="8.185760285160244"><ele>226.0</ele><time>2026-04-18T14:36:59Z</time></trkpt><trkpt lat="45.02690072436356" lon="8.185934891168122"><ele>227.49999999999997</ele><time>2026-04-18T14:37:00Z</time></trkpt><trkpt lat="45.0268544096192" lon="8.186049621631371"><ele>229.0</ele><time>2026-04-18T14:37:01Z</time></trkpt><trkpt lat="45.026831419445834" lon="8.18613816362521"><ele>230.5</ele><time>2026-04-18T14:37:02Z</time></trkpt><trkpt lat="45.02679931417073" lon="8.186221980471451"><ele>232.0</ele><time>2026-04-18T14:37:06Z</time></trkpt><trkpt lat="45.02669333710213" lon="8.186212273932593"><ele>233.49999999999997</ele><time>2026-04-18T14:37:08Z</time></trkpt><trkpt lat="45.02661443217114" lon="8.186178913190135"><ele>235.0</ele><time>2026-04-18T14:37:09Z</time></trkpt><trkpt lat="45.02649976190753" lon="8.186163297782974"><ele>235.5</ele><time>2026-04-18T14:37:10Z</time></trkpt><trkpt lat="45.0263728761112" lon="8.186171552078877"><ele>236.0</ele><time>2026-04-18T14:37:11Z</time></trkpt><trkpt lat="45.0262185961906" lon="8.186149234247866"><ele>236.5</ele><time>2026-04-18T14:37:12Z</time></trkpt><trkpt lat="45.026082443076774" lon="8.186131707805274"><ele>237.0</ele><time>2026-04-18T14:37:13Z</time></trkpt><trkpt lat="45.025981858419996" lon="8.186121226657388"><ele>237.0</ele><time>2026-04-18T14:37:14Z</time></trkpt><trkpt lat="45.02588157793933" lon="8.186111067802704"><ele>237.0</ele><time>2026-04-18T14:37:15Z</time></trkpt><trkpt lat="45.025780346231564" lon="8.186103731488867"><ele>237.0</ele><time>2026-04-18T14:37:16Z</time></trkpt><trkpt lat="45.02566580277092" lon="8.18609172992299"><ele>237.0</ele><time>2026-04-18T14:37:17Z</time></trkpt><trkpt lat="45.02554400803331" lon="8.186083517060109"><ele>237.0</ele><time>2026-04-18T14:37:18Z</time></trkpt><trkpt lat="45.02541250171211" lon="8.186082155931041"><ele>237.0</ele><time>2026-04-18T14:37:19Z</time></trkpt><trkpt lat="45.025280639422036" lon="8.186062980059505"><ele>237.0</ele><time>2026-04-18T14:37:20Z</time></trkpt><trkpt lat="45.02513736169052" lon="8.18606857367137"><ele>237.0</ele><time>2026-04-18T14:37:21Z</time></trkpt><trkpt lat="45.024995528681075" lon="8.18606892632246"><ele>237.0</ele><time>2026-04-18T14:37:22Z</time></trkpt><trkpt lat="45.02487252363591" lon="8.18606444218352"><ele>236.0</ele><time>2026-04-18T14:37:23Z</time></trkpt><trkpt lat="45.02476996871936" lon="8.186082744106246"><ele>235.0</ele><time>2026-04-18T14:37:24Z</time></trkpt><trkpt lat="45.02468045229838" lon="8.186112970260202"><ele>234.0</ele><time>2026-04-18T14:37:25Z</time></trkpt><trkpt lat="45.024592668940045" lon="8.186136430442986"><ele>233.0</ele><time>2026-04-18T14:37:26Z</time></trkpt><trkpt lat="45.024505960369815" lon="8.186128493905901"><ele>232.0</ele><time>2026-04-18T14:37:27Z</time></trkpt><trkpt lat="45.02441945482618" lon="8.186083227111286"><ele>232.0</ele><time>2026-04-18T14:37:28Z</time></trkpt><trkpt lat="45.02435034690318" lon="8.186003967610242"><ele>232.0</ele><time>2026-04-18T14:37:29Z</time></trkpt><trkpt lat="45.02429788384418" lon="8.185884190510626"><ele>232.0</ele><time>2026-04-18T14:37:30Z</time></trkpt><trkpt lat="45.02424504987676" lon="8.185781719569505"><ele>232.0</ele><time>2026-04-18T14:37:31Z</time></trkpt><trkpt lat="45.02418300210245" lon="8.185680247589051"><ele>232.0</ele><time>2026-04-18T14:37:32Z</time></trkpt><trkpt lat="45.024150642448134" lon="8.185546745086985"><ele>229.5</ele><time>2026-04-18T14:37:33Z</time></trkpt><trkpt lat="45.02410376664675" lon="8.185388200896949"><ele>227.0</ele><time>2026-04-18T14:37:34Z</time></trkpt><trkpt lat="45.024053582186184" lon="8.185201345430277"><ele>224.5</ele><time>2026-04-18T14:37:35Z</time></trkpt><trkpt lat="45.0239799967113" lon="8.185017124384043"><ele>222.0</ele><time>2026-04-18T14:37:36Z</time></trkpt><trkpt lat="45.023931019145074" lon="8.184833480807084"><ele>221.25</ele><time>2026-04-18T14:37:37Z</time></trkpt><trkpt lat="45.02387399733274" lon="8.184663136517264"><ele>220.5</ele><time>2026-04-18T14:37:38Z</time></trkpt><trkpt lat="45.02380418404725" lon="8.18450630034208"><ele>219.75</ele><time>2026-04-18T14:37:39Z</time></trkpt><trkpt lat="45.02373750597699" lon="8.184346854033226"><ele>219.0</ele><time>2026-04-18T14:37:40Z</time></trkpt><trkpt lat="45.02364887439039" lon="8.184178943862351"><ele>218.66666666666669</ele><time>2026-04-18T14:37:41Z</time></trkpt><trkpt lat="45.02352999334047" lon="8.183976343452786"><ele>218.33333333333334</ele><time>2026-04-18T14:37:42Z</time></trkpt><trkpt lat="45.02340171990668" lon="8.183797666875444"><ele>218.0</ele><time>2026-04-18T14:37:43Z</time></trkpt><trkpt lat="45.023281779320854" lon="8.18363313784686"><ele>216.5</ele><time>2026-04-18T14:37:44Z</time></trkpt><trkpt lat="45.023169184445635" lon="8.183479768712555"><ele>215.0</ele><time>2026-04-18T14:37:45Z</time></trkpt><trkpt lat="45.02306129539555" lon="8.183368402122746"><ele>213.5</ele><time>2026-04-18T14:37:46Z</time></trkpt><trkpt lat="45.02297229239991" lon="8.183226126275876"><ele>212.0</ele><time>2026-04-18T14:37:47Z</time></trkpt><trkpt lat="45.02286160648905" lon="8.183127584568926"><ele>211.5</ele><time>2026-04-18T14:37:48Z</time></trkpt><trkpt lat="45.02275042062707" lon="8.183028205466792"><ele>211.0</ele><time>2026-04-18T14:37:49Z</time></trkpt><trkpt lat="45.02262398962342" lon="8.182947339426798"><ele>210.5</ele><time>2026-04-18T14:37:50Z</time></trkpt><trkpt lat="45.02248065536431" lon="8.182877627674397"><ele>210.0</ele><time>2026-04-18T14:37:51Z</time></trkpt><trkpt lat="45.022330524868785" lon="8.182817916826545"><ele>208.75</ele><time>2026-04-18T14:37:52Z</time></trkpt><trkpt lat="45.02218666600697" lon="8.18277153670251"><ele>207.5</ele><time>2026-04-18T14:37:53Z</time></trkpt><trkpt lat="45.02204750898812" lon="8.182725483333744"><ele>206.25</ele><time>2026-04-18T14:37:54Z</time></trkpt><trkpt lat="45.02191260632174" lon="8.182669823963593"><ele>205.0</ele><time>2026-04-18T14:37:55Z</time></trkpt><trkpt lat="45.02178709624499" lon="8.18260406844983"><ele>205.0</ele><time>2026-04-18T14:37:56Z</time></trkpt><trkpt lat="45.021658479090796" lon="8.182559994925098"><ele>205.0</ele><time>2026-04-18T14:37:57Z</time></trkpt><trkpt lat="45.02153071125474" lon="8.182513703001938"><ele>205.0</ele><time>2026-04-18T14:37:58Z</time></trkpt><trkpt lat="45.0214112729551" lon="8.182469651214909"><ele>205.0</ele><time>2026-04-18T14:37:59Z</time></trkpt><trkpt lat="45.0212874513818" lon="8.182447329026969"><ele>203.5</ele><time>2026-04-18T14:38:00Z</time></trkpt><trkpt lat="45.021182664623424" lon="8.18241512022"><ele>202.0</ele><time>2026-04-18T14:38:01Z</time></trkpt><trkpt lat="45.02108018124921" lon="8.182381262931923"><ele>200.5</ele><time>2026-04-18T14:38:02Z</time></trkpt><trkpt lat="45.020970440183284" lon="8.1823546942851"><ele>199.0</ele><time>2026-04-18T14:38:03Z</time></trkpt><trkpt lat="45.0208486860433" lon="8.182299210422055"><ele>198.0</ele><time>2026-04-18T14:38:04Z</time></trkpt><trkpt lat="45.020709794825876" lon="8.18226576470573"><ele>197.0</ele><time>2026-04-18T14:38:05Z</time></trkpt><trkpt lat="45.02056208255473" lon="8.182234039917928"><ele>196.0</ele><time>2026-04-18T14:38:06Z</time></trkpt><trkpt lat="45.02041360062003" lon="8.18220438118075"><ele>195.0</ele><time>2026-04-18T14:38:07Z</time></trkpt><trkpt lat="45.020258760238846" lon="8.182173730474432"><ele>195.0</ele><time>2026-04-18T14:38:08Z</time></trkpt><trkpt lat="45.02009946765136" lon="8.182142198450613"><ele>195.0</ele><time>2026-04-18T14:38:09Z</time></trkpt><trkpt lat="45.01994082328624" lon="8.182110794743751"><ele>195.0</ele><time>2026-04-18T14:38:10Z</time></trkpt><trkpt lat="45.01978409876197" lon="8.182079771070619"><ele>194.66666666666669</ele><time>2026-04-18T14:38:11Z</time></trkpt><trkpt lat="45.01962983012543" lon="8.18204976601524"><ele>194.33333333333334</ele><time>2026-04-18T14:38:12Z</time></trkpt><trkpt lat="45.01947081900516" lon="8.1820188760223"><ele>194.0</ele><time>2026-04-18T14:38:13Z</time></trkpt><trkpt lat="45.01930031886892" lon="8.181985754136793"><ele>191.0</ele><time>2026-04-18T14:38:14Z</time></trkpt><trkpt lat="45.01913347829806" lon="8.181952611472404"><ele>188.0</ele><time>2026-04-18T14:38:15Z</time></trkpt><trkpt lat="45.01896067703697" lon="8.18191669875844"><ele>185.0</ele><time>2026-04-18T14:38:16Z</time></trkpt><trkpt lat="45.01878306709196" lon="8.1818803736765"><ele>185.0</ele><time>2026-04-18T14:38:17Z</time></trkpt><trkpt lat="45.01859778802782" lon="8.181844849282486"><ele>185.0</ele><time>2026-04-18T14:38:18Z</time></trkpt><trkpt lat="45.01841259161226" lon="8.181812399550198"><ele>185.0</ele><time>2026-04-18T14:38:19Z</time></trkpt><trkpt lat="45.01822748484348" lon="8.18177937815628"><ele>182.33333333333331</ele><time>2026-04-18T14:38:20Z</time></trkpt><trkpt lat="45.01804578747395" lon="8.181742553089768"><ele>179.66666666666666</ele><time>2026-04-18T14:38:21Z</time></trkpt><trkpt lat="45.01785790648231" lon="8.18170537123015"><ele>177.0</ele><time>2026-04-18T14:38:22Z</time></trkpt><trkpt lat="45.01767074144745" lon="8.181669056520859"><ele>176.0</ele><time>2026-04-18T14:38:23Z</time></trkpt><trkpt lat="45.01748486537412" lon="8.181632203092319"><ele>175.0</ele><time>2026-04-18T14:38:24Z</time></trkpt><trkpt lat="45.01729403583396" lon="8.181595397049541"><ele>174.0</ele><time>2026-04-18T14:38:25Z</time></trkpt><trkpt lat="45.01710437615297" lon="8.181559694480717"><ele>174.0</ele><time>2026-04-18T14:38:26Z</time></trkpt><trkpt lat="45.01690804297534" lon="8.181519765866888"><ele>174.0</ele><time>2026-04-18T14:38:27Z</time></trkpt><trkpt lat="45.01669552935498" lon="8.18147654660971"><ele>174.0</ele><time>2026-04-18T14:38:28Z</time></trkpt><trkpt lat="45.016459457816076" lon="8.181431471893225"><ele>176.5</ele><time>2026-04-18T14:38:29Z</time></trkpt><trkpt lat="45.016210761863896" lon="8.181380108273647"><ele>179.0</ele><time>2026-04-18T14:38:30Z</time></trkpt><trkpt lat="45.0159682406345" lon="8.181329096833574"><ele>174.5</ele><time>2026-04-18T14:38:31Z</time></trkpt><trkpt lat="45.01573977733347" lon="8.181283821954809"><ele>170.0</ele><time>2026-04-18T14:38:32Z</time></trkpt><trkpt lat="45.01552289318738" lon="8.18124084175861"><ele>170.0</ele><time>2026-04-18T14:38:33Z</time></trkpt><trkpt lat="45.01530524279421" lon="8.181200877005342"><ele>170.0</ele><time>2026-04-18T14:38:34Z</time></trkpt><trkpt lat="45.01509058833435" lon="8.181159944289918"><ele>170.0</ele><time>2026-04-18T14:38:35Z</time></trkpt><trkpt lat="45.01488958813995" lon="8.18111881814693"><ele>166.66666666666666</ele><time>2026-04-18T14:38:36Z</time></trkpt><trkpt lat="45.014697174018096" lon="8.18108150272929"><ele>163.33333333333334</ele><time>2026-04-18T14:38:37Z</time></trkpt><trkpt lat="45.01451170309729" lon="8.18104138718489"><ele>160.0</ele><time>2026-04-18T14:38:38Z</time></trkpt><trkpt lat="45.014330595645205" lon="8.18100233567017"><ele>160.0</ele><time>2026-04-18T14:38:39Z</time></trkpt><trkpt lat="45.014159130579344" lon="8.18096819936436"><ele>160.0</ele><time>2026-04-18T14:38:40Z</time></trkpt><trkpt lat="45.01398772077899" lon="8.180934074049253"><ele>160.0</ele><time>2026-04-18T14:38:41Z</time></trkpt><trkpt lat="45.0138209946984" lon="8.1809059845529"><ele>158.33333333333334</ele><time>2026-04-18T14:38:42Z</time></trkpt><trkpt lat="45.013663526468946" lon="8.180884819676399"><ele>156.66666666666666</ele><time>2026-04-18T14:38:43Z</time></trkpt><trkpt lat="45.01349382296649" lon="8.180904895856925"><ele>155.0</ele><time>2026-04-18T14:38:44Z</time></trkpt><trkpt lat="45.01330465966342" lon="8.180940206689163"><ele>154.33333333333331</ele><time>2026-04-18T14:38:45Z</time></trkpt><trkpt lat="45.013136024789695" lon="8.18097743454238"><ele>153.66666666666666</ele><time>2026-04-18T14:38:46Z</time></trkpt><trkpt lat="45.012970147817576" lon="8.181064071338136"><ele>153.0</ele><time>2026-04-18T14:38:47Z</time></trkpt><trkpt lat="45.012806232234475" lon="8.181184123363757"><ele>153.0</ele><time>2026-04-18T14:38:48Z</time></trkpt><trkpt lat="45.01264141310172" lon="8.18137132821649"><ele>153.0</ele><time>2026-04-18T14:38:49Z</time></trkpt><trkpt lat="45.012468814731626" lon="8.181592121994017"><ele>153.0</ele><time>2026-04-18T14:38:50Z</time></trkpt><trkpt lat="45.012287445140146" lon="8.18183358327767"><ele>153.5</ele><time>2026-04-18T14:38:51Z</time></trkpt><trkpt lat="45.0120926171499" lon="8.182095019088038"><ele>154.0</ele><time>2026-04-18T14:38:52Z</time></trkpt><trkpt lat="45.01188774733329" lon="8.182372599391032"><ele>154.0</ele><time>2026-04-18T14:38:53Z</time></trkpt><trkpt lat="45.01168249716382" lon="8.182648751626834"><ele>154.0</ele><time>2026-04-18T14:38:54Z</time></trkpt><trkpt lat="45.011499408492085" lon="8.182898778015074"><ele>152.0</ele><time>2026-04-18T14:38:55Z</time></trkpt><trkpt lat="45.01133728812761" lon="8.183111155301493"><ele>150.0</ele><time>2026-04-18T14:38:56Z</time></trkpt><trkpt lat="45.01106833903483" lon="8.18347295693069"><ele>150.0</ele><time>2026-04-18T14:38:58Z</time></trkpt><trkpt lat="45.01096892711086" lon="8.183601269349705"><ele>150.0</ele><time>2026-04-18T14:38:59Z</time></trkpt><trkpt lat="45.01088640536353" lon="8.18372618030392"><ele>150.0</ele><time>2026-04-18T14:39:00Z</time></trkpt><trkpt lat="45.01078812711692" lon="8.18380686826971"><ele>150.0</ele><time>2026-04-18T14:39:01Z</time></trkpt><trkpt lat="45.01068725626863" lon="8.183862939454343"><ele>150.0</ele><time>2026-04-18T14:39:02Z</time></trkpt><trkpt lat="45.01058499138253" lon="8.183899657187082"><ele>150.0</ele><time>2026-04-18T14:39:03Z</time></trkpt><trkpt lat="45.01047168988298" lon="8.18392657368038"><ele>150.0</ele><time>2026-04-18T14:39:04Z</time></trkpt><trkpt lat="45.010352738117305" lon="8.183925946614862"><ele>150.0</ele><time>2026-04-18T14:39:05Z</time></trkpt><trkpt lat="45.010225909631096" lon="8.183907308195264"><ele>150.0</ele><time>2026-04-18T14:39:06Z</time></trkpt><trkpt lat="45.01009739947638" lon="8.183855467858645"><ele>150.0</ele><time>2026-04-18T14:39:07Z</time></trkpt><trkpt lat="45.009972185542054" lon="8.183771625004368"><ele>150.0</ele><time>2026-04-18T14:39:08Z</time></trkpt><trkpt lat="45.00985124064148" lon="8.183660918462689"><ele>150.0</ele><time>2026-04-18T14:39:09Z</time></trkpt><trkpt lat="45.009725055038" lon="8.18353377470818"><ele>150.0</ele><time>2026-04-18T14:39:10Z</time></trkpt><trkpt lat="45.009585066206476" lon="8.183371994860815"><ele>150.0</ele><time>2026-04-18T14:39:11Z</time></trkpt><trkpt lat="45.009445661823136" lon="8.183238783936801"><ele>150.0</ele><time>2026-04-18T14:39:12Z</time></trkpt><trkpt lat="45.00933509102972" lon="8.183122589491004"><ele>150.0</ele><time>2026-04-18T14:39:13Z</time></trkpt><trkpt lat="45.00924640455496" lon="8.183031130835674"><ele>150.0</ele><time>2026-04-18T14:39:14Z</time></trkpt><trkpt lat="45.00916699396057" lon="8.18295199042611"><ele>150.0</ele><time>2026-04-18T14:39:15Z</time></trkpt><trkpt lat="45.00910343021627" lon="8.182878414329226"><ele>150.0</ele><time>2026-04-18T14:39:16Z</time></trkpt><trkpt lat="45.00902442721432" lon="8.182793024649012"><ele>150.0</ele><time>2026-04-18T14:39:18Z</time></trkpt><trkpt lat="45.008964198621584" lon="8.182730351757236"><ele>150.0</ele><time>2026-04-18T14:39:57Z</time></trkpt><trkpt lat="45.00892619731158" lon="8.182601335151872"><ele>150.0</ele><time>2026-04-18T14:39:59Z</time></trkpt><trkpt lat="45.00896777963056" lon="8.182523293970002"><ele>150.0</ele><time>2026-04-18T14:40:00Z</time></trkpt><trkpt lat="45.008986498701375" lon="8.182403319790218"><ele>150.0</ele><time>2026-04-18T14:40:01Z</time></trkpt><trkpt lat="45.00902275761341" lon="8.182265580762744"><ele>150.0</ele><time>2026-04-18T14:40:02Z</time></trkpt><trkpt lat="45.009066871136696" lon="8.182107162007455"><ele>150.25</ele><time>2026-04-18T14:40:03Z</time></trkpt><trkpt lat="45.00911251609936" lon="8.181943197850881"><ele>150.5</ele><time>2026-04-18T14:40:04Z</time></trkpt><trkpt lat="45.00915837797667" lon="8.181771892735542"><ele>150.75</ele><time>2026-04-18T14:40:05Z</time></trkpt><trkpt lat="45.0092004573735" lon="8.181614497661977"><ele>151.0</ele><time>2026-04-18T14:40:06Z</time></trkpt><trkpt lat="45.00924467722781" lon="8.181467681396187"><ele>151.0</ele><time>2026-04-18T14:40:07Z</time></trkpt><trkpt lat="45.00928928940678" lon="8.181311612963922"><ele>151.0</ele><time>2026-04-18T14:40:08Z</time></trkpt><trkpt lat="45.00933580136729" lon="8.181135885133045"><ele>151.0</ele><time>2026-04-18T14:40:09Z</time></trkpt><trkpt lat="45.00938690880958" lon="8.18095596689013"><ele>151.0</ele><time>2026-04-18T14:40:10Z</time></trkpt><trkpt lat="45.00943698365048" lon="8.180761974309489"><ele>150.66666666666669</ele><time>2026-04-18T14:40:11Z</time></trkpt><trkpt lat="45.00949002986708" lon="8.18055413276503"><ele>150.33333333333334</ele><time>2026-04-18T14:40:12Z</time></trkpt><trkpt lat="45.00955215302307" lon="8.180322069514089"><ele>150.0</ele><time>2026-04-18T14:40:13Z</time></trkpt><trkpt lat="45.00962040696127" lon="8.180066970302253"><ele>150.0</ele><time>2026-04-18T14:40:14Z</time></trkpt><trkpt lat="45.00968875036138" lon="8.17980487054203"><ele>150.0</ele><time>2026-04-18T14:40:15Z</time></trkpt><trkpt lat="45.00976304784135" lon="8.17953023756513"><ele>150.0</ele><time>2026-04-18T14:40:16Z</time></trkpt><trkpt lat="45.00984468470107" lon="8.179240076425415"><ele>150.5</ele><time>2026-04-18T14:40:17Z</time></trkpt><trkpt lat="45.00992966795429" lon="8.178934487631563"><ele>151.0</ele><time>2026-04-18T14:40:18Z</time></trkpt><trkpt lat="45.01001822154423" lon="8.178607703679488"><ele>151.0</ele><time>2026-04-18T14:40:19Z</time></trkpt><trkpt lat="45.01010919220702" lon="8.178263455424048"><ele>151.0</ele><time>2026-04-18T14:40:20Z</time></trkpt><trkpt lat="45.01020414376605" lon="8.17790706886454"><ele>152.0</ele><time>2026-04-18T14:40:21Z</time></trkpt><trkpt lat="45.01030234972503" lon="8.177543467119264"><ele>153.0</ele><time>2026-04-18T14:40:22Z</time></trkpt><trkpt lat="45.01040175501592" lon="8.177174304749196"><ele>153.5</ele><time>2026-04-18T14:40:23Z</time></trkpt><trkpt lat="45.01050230587022" lon="8.176803243964036"><ele>154.0</ele><time>2026-04-18T14:40:24Z</time></trkpt><trkpt lat="45.010602344310186" lon="8.176430544858325"><ele>153.0</ele><time>2026-04-18T14:40:25Z</time></trkpt><trkpt lat="45.01070281452775" lon="8.176059103627832"><ele>152.0</ele><time>2026-04-18T14:40:26Z</time></trkpt><trkpt lat="45.010801935935895" lon="8.175691571837685"><ele>153.0</ele><time>2026-04-18T14:40:27Z</time></trkpt><trkpt lat="45.01090087564869" lon="8.1753250534218"><ele>154.0</ele><time>2026-04-18T14:40:28Z</time></trkpt><trkpt lat="45.01100045754333" lon="8.174959927111978"><ele>152.5</ele><time>2026-04-18T14:40:29Z</time></trkpt><trkpt lat="45.01109749242572" lon="8.174598871705122"><ele>151.0</ele><time>2026-04-18T14:40:30Z</time></trkpt><trkpt lat="45.011194405470526" lon="8.174238735179275"><ele>151.5</ele><time>2026-04-18T14:40:31Z</time></trkpt><trkpt lat="45.01129370617576" lon="8.17387402169913"><ele>152.0</ele><time>2026-04-18T14:40:32Z</time></trkpt><trkpt lat="45.01139725320903" lon="8.173497824732785"><ele>151.5</ele><time>2026-04-18T14:40:33Z</time></trkpt><trkpt lat="45.01150603322266" lon="8.173106692545515"><ele>151.0</ele><time>2026-04-18T14:40:34Z</time></trkpt><trkpt lat="45.01161466188875" lon="8.172707048733738"><ele>151.0</ele><time>2026-04-18T14:40:35Z</time></trkpt><trkpt lat="45.01172530607912" lon="8.172300445783614"><ele>151.0</ele><time>2026-04-18T14:40:36Z</time></trkpt><trkpt lat="45.01183862574309" lon="8.171889808778275"><ele>151.0</ele><time>2026-04-18T14:40:37Z</time></trkpt><trkpt lat="45.011952480708935" lon="8.171476403543407"><ele>151.0</ele><time>2026-04-18T14:40:38Z</time></trkpt><trkpt lat="45.01206673372373" lon="8.171057159279806"><ele>151.0</ele><time>2026-04-18T14:40:39Z</time></trkpt><trkpt lat="45.01218043156731" lon="8.170643699073725"><ele>151.0</ele><time>2026-04-18T14:40:40Z</time></trkpt><trkpt lat="45.01229433821172" lon="8.170217802438065"><ele>152.0</ele><time>2026-04-18T14:40:41Z</time></trkpt><trkpt lat="45.012398671960256" lon="8.16981155786982"><ele>153.0</ele><time>2026-04-18T14:40:42Z</time></trkpt><trkpt lat="45.012499669811234" lon="8.169434650901678"><ele>153.0</ele><time>2026-04-18T14:40:43Z</time></trkpt><trkpt lat="45.01261378625541" lon="8.169046201862606"><ele>153.0</ele><time>2026-04-18T14:40:44Z</time></trkpt><trkpt lat="45.01270435962625" lon="8.168709321172996"><ele>152.5</ele><time>2026-04-18T14:40:45Z</time></trkpt><trkpt lat="45.01279829506622" lon="8.168381970827445"><ele>152.0</ele><time>2026-04-18T14:40:46Z</time></trkpt><trkpt lat="45.01289188456109" lon="8.168099698666614"><ele>152.0</ele><time>2026-04-18T14:40:47Z</time></trkpt><trkpt lat="45.01299243757434" lon="8.167839709998374"><ele>152.0</ele><time>2026-04-18T14:40:48Z</time></trkpt><trkpt lat="45.01310057994288" lon="8.167584400516244"><ele>152.0</ele><time>2026-04-18T14:40:49Z</time></trkpt><trkpt lat="45.01323593119789" lon="8.167345418219877"><ele>152.0</ele><time>2026-04-18T14:40:50Z</time></trkpt><trkpt lat="45.0133641334245" lon="8.167106913603266"><ele>152.0</ele><time>2026-04-18T14:40:51Z</time></trkpt><trkpt lat="45.01349370977483" lon="8.16688218488919"><ele>152.0</ele><time>2026-04-18T14:40:52Z</time></trkpt><trkpt lat="45.01363052960693" lon="8.166668870545317"><ele>153.5</ele><time>2026-04-18T14:40:53Z</time></trkpt><trkpt lat="45.01377960934706" lon="8.166461856694154"><ele>155.0</ele><time>2026-04-18T14:40:54Z</time></trkpt><trkpt lat="45.01394578655584" lon="8.166211427512133"><ele>155.0</ele><time>2026-04-18T14:40:55Z</time></trkpt><trkpt lat="45.01413312937638" lon="8.165972512641337"><ele>155.0</ele><time>2026-04-18T14:40:56Z</time></trkpt><trkpt lat="45.014298895819536" lon="8.165763166611011"><ele>153.66666666666666</ele><time>2026-04-18T14:40:57Z</time></trkpt><trkpt lat="45.0144505815753" lon="8.165570696360625"><ele>152.33333333333334</ele><time>2026-04-18T14:40:58Z</time></trkpt><trkpt lat="45.01458416696857" lon="8.165392750006381"><ele>151.0</ele><time>2026-04-18T14:40:59Z</time></trkpt><trkpt lat="45.01467568192028" lon="8.165273137787269"><ele>151.0</ele><time>2026-04-18T14:41:00Z</time></trkpt><trkpt lat="45.01472252926167" lon="8.165211875793364"><ele>151.0</ele><time>2026-04-18T14:41:01Z</time></trkpt><trkpt lat="45.014728393797476" lon="8.165302746615671"><ele>151.0</ele><time>2026-04-18T14:41:10Z</time></trkpt><trkpt lat="45.0148560302778" lon="8.165581798665963"><ele>151.0</ele><time>2026-04-18T14:41:12Z</time></trkpt><trkpt lat="45.01489367776939" lon="8.165745098454915"><ele>151.16666666666669</ele><time>2026-04-18T14:41:14Z</time></trkpt><trkpt lat="45.01491258712472" lon="8.165897635206099"><ele>151.33333333333334</ele><time>2026-04-18T14:41:16Z</time></trkpt><trkpt lat="45.01491340285926" lon="8.16599512025774"><ele>151.5</ele><time>2026-04-18T14:41:17Z</time></trkpt><trkpt lat="45.01493141793914" lon="8.166141417467795"><ele>151.66666666666666</ele><time>2026-04-18T14:41:19Z</time></trkpt><trkpt lat="45.014968472478245" lon="8.166217533472548"><ele>151.83333333333331</ele><time>2026-04-18T14:41:21Z</time></trkpt><trkpt lat="45.01495283963549" lon="8.16633404133405"><ele>152.0</ele><time>2026-04-18T14:41:24Z</time></trkpt><trkpt lat="45.01489333097579" lon="8.166436094995007"><ele>152.2</ele><time>2026-04-18T14:41:26Z</time></trkpt><trkpt lat="45.0148489773328" lon="8.166610077177015"><ele>152.39999999999998</ele><time>2026-04-18T14:41:28Z</time></trkpt><trkpt lat="45.0148582514873" lon="8.166745597507749"><ele>152.60000000000002</ele><time>2026-04-18T14:41:29Z</time></trkpt><trkpt lat="45.014876603731594" lon="8.166908900706968"><ele>152.8</ele><time>2026-04-18T14:41:30Z</time></trkpt><trkpt lat="45.01489392694549" lon="8.167045847071522"><ele>153.0</ele><time>2026-04-18T14:41:31Z</time></trkpt><trkpt lat="45.01490479384284" lon="8.16716824436934"><ele>153.0</ele><time>2026-04-18T14:41:32Z</time></trkpt><trkpt lat="45.014914768507886" lon="8.167274540383316"><ele>153.0</ele><time>2026-04-18T14:41:33Z</time></trkpt><trkpt lat="45.014927621966216" lon="8.16738703378554"><ele>153.0</ele><time>2026-04-18T14:41:34Z</time></trkpt><trkpt lat="45.014943573585384" lon="8.167484111665292"><ele>153.0</ele><time>2026-04-18T14:41:35Z</time></trkpt><trkpt lat="45.014984806551716" lon="8.16764209695101"><ele>153.0</ele><time>2026-04-18T14:41:37Z</time></trkpt><trkpt lat="45.015007577240404" lon="8.167725221582025"><ele>153.0</ele><time>2026-04-18T14:41:38Z</time></trkpt><trkpt lat="45.01503517988346" lon="8.167824664068783"><ele>153.0</ele><time>2026-04-18T14:41:39Z</time></trkpt><trkpt lat="45.01506161198079" lon="8.167928396691638"><ele>153.0</ele><time>2026-04-18T14:41:40Z</time></trkpt><trkpt lat="45.015086693387744" lon="8.168011012959338"><ele>153.0</ele><time>2026-04-18T14:41:41Z</time></trkpt><trkpt lat="45.01510819362915" lon="8.168100820792407"><ele>153.0</ele><time>2026-04-18T14:41:42Z</time></trkpt><trkpt lat="45.01513121098021" lon="8.168195126972236"><ele>153.0</ele><time>2026-04-18T14:41:43Z</time></trkpt><trkpt lat="45.01516145768196" lon="8.168296813672567"><ele>153.0</ele><time>2026-04-18T14:41:44Z</time></trkpt><trkpt lat="45.0151938943286" lon="8.168403569979521"><ele>153.0</ele><time>2026-04-18T14:41:45Z</time></trkpt><trkpt lat="45.015224976942015" lon="8.168518458311143"><ele>153.0</ele><time>2026-04-18T14:41:46Z</time></trkpt><trkpt lat="45.015255897644316" lon="8.168641559911336"><ele>153.0</ele><time>2026-04-18T14:41:47Z</time></trkpt><trkpt lat="45.01528526845343" lon="8.16877007115923"><ele>153.0</ele><time>2026-04-18T14:41:48Z</time></trkpt><trkpt lat="45.01531276250186" lon="8.168894484120461"><ele>153.0</ele><time>2026-04-18T14:41:49Z</time></trkpt><trkpt lat="45.015339636997524" lon="8.169021225206537"><ele>153.0</ele><time>2026-04-18T14:41:50Z</time></trkpt><trkpt lat="45.01536744253357" lon="8.16914216081352"><ele>153.16666666666666</ele><time>2026-04-18T14:41:51Z</time></trkpt><trkpt lat="45.015391093338586" lon="8.16924889138269"><ele>153.33333333333334</ele><time>2026-04-18T14:41:52Z</time></trkpt><trkpt lat="45.01541556623466" lon="8.169355234505062"><ele>153.5</ele><time>2026-04-18T14:41:53Z</time></trkpt><trkpt lat="45.01543588410645" lon="8.169449428148027"><ele>153.66666666666669</ele><time>2026-04-18T14:41:54Z</time></trkpt><trkpt lat="45.01549110851904" lon="8.169619323110682"><ele>153.83333333333334</ele><time>2026-04-18T14:41:56Z</time></trkpt><trkpt lat="45.01552104194183" lon="8.169728197391061"><ele>154.0</ele><time>2026-04-18T14:41:57Z</time></trkpt><trkpt lat="45.015543277179276" lon="8.169858622059357"><ele>154.2</ele><time>2026-04-18T14:41:58Z</time></trkpt><trkpt lat="45.01556143899487" lon="8.169992116301055"><ele>154.4</ele><time>2026-04-18T14:41:59Z</time></trkpt><trkpt lat="45.01558206351731" lon="8.170130218461145"><ele>154.6</ele><time>2026-04-18T14:42:00Z</time></trkpt><trkpt lat="45.01559806330535" lon="8.170254680536654"><ele>154.8</ele><time>2026-04-18T14:42:01Z</time></trkpt><trkpt lat="45.01561528890526" lon="8.17038572518548"><ele>155.0</ele><time>2026-04-18T14:42:02Z</time></trkpt><trkpt lat="45.01563645075686" lon="8.17050754598365"><ele>155.0</ele><time>2026-04-18T14:42:03Z</time></trkpt><trkpt lat="45.01566157642249" lon="8.170640157712839"><ele>155.0</ele><time>2026-04-18T14:42:04Z</time></trkpt><trkpt lat="45.015687435774936" lon="8.17077630703995"><ele>155.0</ele><time>2026-04-18T14:42:05Z</time></trkpt><trkpt lat="45.015711815931134" lon="8.17091117986566"><ele>155.0</ele><time>2026-04-18T14:42:06Z</time></trkpt><trkpt lat="45.01573471610078" lon="8.171053843638838"><ele>155.0</ele><time>2026-04-18T14:42:07Z</time></trkpt><trkpt lat="45.01576015240559" lon="8.171207831723365"><ele>155.6</ele><time>2026-04-18T14:42:08Z</time></trkpt><trkpt lat="45.01578876326321" lon="8.171367714474929"><ele>156.2</ele><time>2026-04-18T14:42:09Z</time></trkpt><trkpt lat="45.015819498768444" lon="8.171523431146229"><ele>156.8</ele><time>2026-04-18T14:42:10Z</time></trkpt><trkpt lat="45.01585464522355" lon="8.171652706567324"><ele>157.4</ele><time>2026-04-18T14:42:11Z</time></trkpt><trkpt lat="45.01588746622143" lon="8.171768433307982"><ele>158.0</ele><time>2026-04-18T14:42:12Z</time></trkpt><trkpt lat="45.015904622229534" lon="8.171905926538113"><ele>161.0</ele><time>2026-04-18T14:42:13Z</time></trkpt><trkpt lat="45.01590693190936" lon="8.172070323644778"><ele>164.0</ele><time>2026-04-18T14:42:14Z</time></trkpt><trkpt lat="45.015913213519426" lon="8.172254458238914"><ele>167.0</ele><time>2026-04-18T14:42:15Z</time></trkpt><trkpt lat="45.01592410898593" lon="8.172417390231093"><ele>170.0</ele><time>2026-04-18T14:42:16Z</time></trkpt><trkpt lat="45.01592638826217" lon="8.172558575269058"><ele>170.83333333333331</ele><time>2026-04-18T14:42:17Z</time></trkpt><trkpt lat="45.01592261859436" lon="8.17267345297978"><ele>171.66666666666666</ele><time>2026-04-18T14:42:18Z</time></trkpt><trkpt lat="45.01590909589083" lon="8.172771097014358"><ele>172.5</ele><time>2026-04-18T14:42:19Z</time></trkpt><trkpt lat="45.01589254209646" lon="8.172870726124724"><ele>173.33333333333334</ele><time>2026-04-18T14:42:20Z</time></trkpt><trkpt lat="45.01587644614012" lon="8.172959565175061"><ele>174.16666666666669</ele><time>2026-04-18T14:42:21Z</time></trkpt><trkpt lat="45.01586106374149" lon="8.173072486156524"><ele>175.0</ele><time>2026-04-18T14:42:22Z</time></trkpt><trkpt lat="45.01584846990141" lon="8.17319076064418"><ele>175.0</ele><time>2026-04-18T14:42:23Z</time></trkpt><trkpt lat="45.01584677037921" lon="8.173315304837917"><ele>175.0</ele><time>2026-04-18T14:42:24Z</time></trkpt><trkpt lat="45.015857409965264" lon="8.173429325716766"><ele>175.0</ele><time>2026-04-18T14:42:25Z</time></trkpt><trkpt lat="45.015875675954796" lon="8.173527339761373"><ele>175.0</ele><time>2026-04-18T14:42:26Z</time></trkpt><trkpt lat="45.01589257103499" lon="8.173628003548927"><ele>175.0</ele><time>2026-04-18T14:42:27Z</time></trkpt><trkpt lat="45.01591308795867" lon="8.173724435824235"><ele>175.0</ele><time>2026-04-18T14:42:28Z</time></trkpt><trkpt lat="45.01593444469927" lon="8.173826651422107"><ele>175.0</ele><time>2026-04-18T14:42:29Z</time></trkpt><trkpt lat="45.01593682512502" lon="8.173945899241334"><ele>175.0</ele><time>2026-04-18T14:42:30Z</time></trkpt><trkpt lat="45.0159173874886" lon="8.174066275257747"><ele>175.0</ele><time>2026-04-18T14:42:31Z</time></trkpt><trkpt lat="45.01586943182936" lon="8.174198502642016"><ele>175.0</ele><time>2026-04-18T14:42:32Z</time></trkpt><trkpt lat="45.01581994482089" lon="8.17431660560834"><ele>175.0</ele><time>2026-04-18T14:42:33Z</time></trkpt><trkpt lat="45.0157775943347" lon="8.174450401313306"><ele>171.5</ele><time>2026-04-18T14:42:34Z</time></trkpt><trkpt lat="45.01572746956066" lon="8.17460148725379"><ele>168.0</ele><time>2026-04-18T14:42:35Z</time></trkpt><trkpt lat="45.01567844264405" lon="8.174746319506593"><ele>164.5</ele><time>2026-04-18T14:42:36Z</time></trkpt><trkpt lat="45.01562138676698" lon="8.174899923014939"><ele>161.0</ele><time>2026-04-18T14:42:37Z</time></trkpt><trkpt lat="45.015561927149015" lon="8.17505864213546"><ele>160.60000000000002</ele><time>2026-04-18T14:42:38Z</time></trkpt><trkpt lat="45.015505097723455" lon="8.17518805810327"><ele>160.20000000000002</ele><time>2026-04-18T14:42:39Z</time></trkpt><trkpt lat="45.015451989678944" lon="8.175309126482707"><ele>159.8</ele><time>2026-04-18T14:42:40Z</time></trkpt><trkpt lat="45.01539818563011" lon="8.175433261321889"><ele>159.4</ele><time>2026-04-18T14:42:41Z</time></trkpt><trkpt lat="45.015355479163716" lon="8.175528821375558"><ele>159.0</ele><time>2026-04-18T14:42:42Z</time></trkpt><trkpt lat="45.015296156683135" lon="8.175661947828058"><ele>159.6</ele><time>2026-04-18T14:42:44Z</time></trkpt><trkpt lat="45.01529743831425" lon="8.175757150062706"><ele>160.2</ele><time>2026-04-18T14:42:46Z</time></trkpt><trkpt lat="45.015374573662825" lon="8.175816489142361"><ele>160.79999999999998</ele><time>2026-04-18T14:42:48Z</time></trkpt><trkpt lat="45.015463874382206" lon="8.175839859582519"><ele>161.4</ele><time>2026-04-18T14:42:49Z</time></trkpt><trkpt lat="45.01557845960815" lon="8.175873548803649"><ele>162.0</ele><time>2026-04-18T14:42:50Z</time></trkpt><trkpt lat="45.01570737743489" lon="8.175919169646086"><ele>161.0</ele><time>2026-04-18T14:42:51Z</time></trkpt><trkpt lat="45.015874161905444" lon="8.175982143935967"><ele>160.0</ele><time>2026-04-18T14:42:52Z</time></trkpt><trkpt lat="45.01603337033436" lon="8.176042887328675"><ele>159.0</ele><time>2026-04-18T14:42:53Z</time></trkpt><trkpt lat="45.016168772048914" lon="8.176100734812625"><ele>159.0</ele><time>2026-04-18T14:42:54Z</time></trkpt><trkpt lat="45.016292771054744" lon="8.176157421714025"><ele>159.0</ele><time>2026-04-18T14:42:55Z</time></trkpt><trkpt lat="45.016419882217306" lon="8.176211566396802"><ele>159.0</ele><time>2026-04-18T14:42:56Z</time></trkpt><trkpt lat="45.01653745942068" lon="8.176257899033883"><ele>159.0</ele><time>2026-04-18T14:42:57Z</time></trkpt><trkpt lat="45.01663989055879" lon="8.176311533753358"><ele>159.0</ele><time>2026-04-18T14:42:58Z</time></trkpt><trkpt lat="45.01674792532168" lon="8.176393988877054"><ele>159.0</ele><time>2026-04-18T14:42:59Z</time></trkpt><trkpt lat="45.016860669389516" lon="8.176509449549414"><ele>159.0</ele><time>2026-04-18T14:43:00Z</time></trkpt><trkpt lat="45.01697524949146" lon="8.176636255507177"><ele>159.0</ele><time>2026-04-18T14:43:01Z</time></trkpt><trkpt lat="45.01707638294199" lon="8.176754105320263"><ele>159.0</ele><time>2026-04-18T14:43:02Z</time></trkpt><trkpt lat="45.01717745966772" lon="8.176893500853652"><ele>159.0</ele><time>2026-04-18T14:43:03Z</time></trkpt><trkpt lat="45.0172622497462" lon="8.177030836124807"><ele>159.0</ele><time>2026-04-18T14:43:04Z</time></trkpt><trkpt lat="45.017324640487686" lon="8.17713896204892"><ele>159.0</ele><time>2026-04-18T14:43:05Z</time></trkpt><trkpt lat="45.017377664172564" lon="8.177247587477469"><ele>160.0</ele><time>2026-04-18T14:43:06Z</time></trkpt><trkpt lat="45.01744993162364" lon="8.177363643969983"><ele>161.0</ele><time>2026-04-18T14:43:07Z</time></trkpt><trkpt lat="45.017554243577855" lon="8.177469185019701"><ele>162.0</ele><time>2026-04-18T14:43:08Z</time></trkpt><trkpt lat="45.01766379111964" lon="8.177559270237577"><ele>163.0</ele><time>2026-04-18T14:43:09Z</time></trkpt><trkpt lat="45.017734540596244" lon="8.177637866727661"><ele>163.0</ele><time>2026-04-18T14:43:10Z</time></trkpt><trkpt lat="45.01777528587129" lon="8.177725348208597"><ele>163.0</ele><time>2026-04-18T14:43:11Z</time></trkpt><trkpt lat="45.01779081302547" lon="8.177836223656051"><ele>163.0</ele><time>2026-04-18T14:43:12Z</time></trkpt><trkpt lat="45.017781073429305" lon="8.177954730192514"><ele>163.0</ele><time>2026-04-18T14:43:13Z</time></trkpt><trkpt lat="45.01775028049568" lon="8.17808641811659"><ele>163.0</ele><time>2026-04-18T14:43:14Z</time></trkpt><trkpt lat="45.01770654075235" lon="8.17820666109064"><ele>163.0</ele><time>2026-04-18T14:43:15Z</time></trkpt><trkpt lat="45.017675976724114" lon="8.178307910127156"><ele>163.2</ele><time>2026-04-18T14:43:16Z</time></trkpt><trkpt lat="45.01767946946269" lon="8.17840092367287"><ele>163.4</ele><time>2026-04-18T14:43:17Z</time></trkpt><trkpt lat="45.017745147835896" lon="8.178578793934932"><ele>163.6</ele><time>2026-04-18T14:43:19Z</time></trkpt><trkpt lat="45.0178095372276" lon="8.17868494005173"><ele>163.79999999999998</ele><time>2026-04-18T14:43:20Z</time></trkpt><trkpt lat="45.0178899130605" lon="8.178805311619369"><ele>164.0</ele><time>2026-04-18T14:43:21Z</time></trkpt><trkpt lat="45.01797459362737" lon="8.178929348482287"><ele>165.66666666666666</ele><time>2026-04-18T14:43:22Z</time></trkpt><trkpt lat="45.018047518097966" lon="8.179040608583643"><ele>167.33333333333331</ele><time>2026-04-18T14:43:23Z</time></trkpt><trkpt lat="45.01809741583852" lon="8.179126746918476"><ele>169.0</ele><time>2026-04-18T14:43:24Z</time></trkpt><trkpt lat="45.018136837683876" lon="8.179199390796532"><ele>170.66666666666666</ele><time>2026-04-18T14:43:25Z</time></trkpt><trkpt lat="45.01817310167463" lon="8.179284037863567"><ele>172.33333333333334</ele><time>2026-04-18T14:43:26Z</time></trkpt><trkpt lat="45.01818698935605" lon="8.179381199518112"><ele>174.0</ele><time>2026-04-18T14:43:27Z</time></trkpt><trkpt lat="45.018176987174606" lon="8.179486906516427"><ele>174.0</ele><time>2026-04-18T14:43:28Z</time></trkpt><trkpt lat="45.018153783712215" lon="8.179618167704767"><ele>174.0</ele><time>2026-04-18T14:43:29Z</time></trkpt><trkpt lat="45.018121328584805" lon="8.17975277838189"><ele>174.0</ele><time>2026-04-18T14:43:30Z</time></trkpt><trkpt lat="45.01810318805495" lon="8.179885622703509"><ele>174.0</ele><time>2026-04-18T14:43:31Z</time></trkpt><trkpt lat="45.01811082472849" lon="8.180001454816832"><ele>174.0</ele><time>2026-04-18T14:43:32Z</time></trkpt><trkpt lat="45.01812981771318" lon="8.180121968460842"><ele>174.5</ele><time>2026-04-18T14:43:33Z</time></trkpt><trkpt lat="45.01816350866016" lon="8.18023372268801"><ele>175.0</ele><time>2026-04-18T14:43:34Z</time></trkpt><trkpt lat="45.018197172065264" lon="8.180345946516637"><ele>175.5</ele><time>2026-04-18T14:43:35Z</time></trkpt><trkpt lat="45.01824528691549" lon="8.18045712741294"><ele>176.0</ele><time>2026-04-18T14:43:36Z</time></trkpt><trkpt lat="45.01829937143328" lon="8.180570004005395"><ele>176.5</ele><time>2026-04-18T14:43:37Z</time></trkpt><trkpt lat="45.018346989117944" lon="8.180671323686461"><ele>177.0</ele><time>2026-04-18T14:43:38Z</time></trkpt><trkpt lat="45.018399106376634" lon="8.180779523684778"><ele>179.0</ele><time>2026-04-18T14:43:39Z</time></trkpt><trkpt lat="45.01844960414049" lon="8.180871579725022"><ele>181.0</ele><time>2026-04-18T14:43:40Z</time></trkpt><trkpt lat="45.01849097096055" lon="8.180960937936561"><ele>183.0</ele><time>2026-04-18T14:43:41Z</time></trkpt><trkpt lat="45.01853961609304" lon="8.181042883382748"><ele>185.0</ele><time>2026-04-18T14:43:42Z</time></trkpt><trkpt lat="45.01860804962832" lon="8.181121135311006"><ele>187.0</ele><time>2026-04-18T14:43:43Z</time></trkpt><trkpt lat="45.018683552855265" lon="8.181188666481933"><ele>189.0</ele><time>2026-04-18T14:43:44Z</time></trkpt><trkpt lat="45.01875002416548" lon="8.181246730457246"><ele>189.0</ele><time>2026-04-18T14:43:45Z</time></trkpt><trkpt lat="45.01887215893663" lon="8.181337369879241"><ele>189.0</ele><time>2026-04-18T14:43:47Z</time></trkpt><trkpt lat="45.01897466685809" lon="8.181380607904806"><ele>189.0</ele><time>2026-04-18T14:43:48Z</time></trkpt><trkpt lat="45.01909703226709" lon="8.181419263772497"><ele>189.0</ele><time>2026-04-18T14:43:49Z</time></trkpt><trkpt lat="45.0192187300614" lon="8.18144672600638"><ele>190.25</ele><time>2026-04-18T14:43:50Z</time></trkpt><trkpt lat="45.01933913253408" lon="8.18147879924441"><ele>191.5</ele><time>2026-04-18T14:43:51Z</time></trkpt><trkpt lat="45.01946341843129" lon="8.181516986556664"><ele>192.75</ele><time>2026-04-18T14:43:52Z</time></trkpt><trkpt lat="45.01958822523237" lon="8.181562692417124"><ele>194.0</ele><time>2026-04-18T14:43:53Z</time></trkpt><trkpt lat="45.01970643433732" lon="8.181601047167137"><ele>194.00000000000003</ele><time>2026-04-18T14:43:54Z</time></trkpt><trkpt lat="45.01980703113254" lon="8.181632642475567"><ele>194.0</ele><time>2026-04-18T14:43:55Z</time></trkpt><trkpt lat="45.01989751427882" lon="8.181653807653777"><ele>194.0</ele><time>2026-04-18T14:43:56Z</time></trkpt><trkpt lat="45.01997166346469" lon="8.181668254215637"><ele>194.0</ele><time>2026-04-18T14:43:57Z</time></trkpt><trkpt lat="45.02003803185087" lon="8.181685924945944"><ele>194.00000000000003</ele><time>2026-04-18T14:43:58Z</time></trkpt><trkpt lat="45.02010988903501" lon="8.181712644515443"><ele>194.0</ele><time>2026-04-18T14:43:59Z</time></trkpt><trkpt lat="45.02019762561713" lon="8.18174221900575"><ele>194.2</ele><time>2026-04-18T14:44:00Z</time></trkpt><trkpt lat="45.020289980610855" lon="8.181777733756944"><ele>194.39999999999998</ele><time>2026-04-18T14:44:01Z</time></trkpt><trkpt lat="45.020383357175746" lon="8.181822596043132"><ele>194.6</ele><time>2026-04-18T14:44:02Z</time></trkpt><trkpt lat="45.02048100453306" lon="8.181865104090177"><ele>194.8</ele><time>2026-04-18T14:44:03Z</time></trkpt><trkpt lat="45.0205818969825" lon="8.181931735620033"><ele>195.0</ele><time>2026-04-18T14:44:04Z</time></trkpt><trkpt lat="45.02068066692275" lon="8.182009326914379"><ele>195.0</ele><time>2026-04-18T14:44:05Z</time></trkpt><trkpt lat="45.02074988495346" lon="8.182323039888775"><ele>195.0</ele><time>2026-04-18T14:44:06Z</time></trkpt><trkpt lat="45.02084326418808" lon="8.182345693963285"><ele>195.0</ele><time>2026-04-18T14:44:07Z</time></trkpt><trkpt lat="45.02091285782135" lon="8.182364469275972"><ele>195.0</ele><time>2026-04-18T14:44:08Z</time></trkpt><trkpt lat="45.021024478044005" lon="8.18239408955527"><ele>195.0</ele><time>2026-04-18T14:44:10Z</time></trkpt><trkpt lat="45.02090280273972" lon="8.182356974951603"><ele>195.0</ele><time>2026-04-18T14:44:29Z</time></trkpt><trkpt lat="45.02081045090544" lon="8.182315150141973"><ele>195.0</ele><time>2026-04-18T14:44:30Z</time></trkpt><trkpt lat="45.020700799475065" lon="8.182293749949755"><ele>195.0</ele><time>2026-04-18T14:44:31Z</time></trkpt><trkpt lat="45.02058333518924" lon="8.182277208146642"><ele>195.0</ele><time>2026-04-18T14:44:32Z</time></trkpt><trkpt lat="45.020475173440616" lon="8.182261079165956"><ele>195.0</ele><time>2026-04-18T14:44:33Z</time></trkpt><trkpt lat="45.02037337338781" lon="8.182240389751362"><ele>195.0</ele><time>2026-04-18T14:44:34Z</time></trkpt><trkpt lat="45.02027976112916" lon="8.182221842478524"><ele>195.0</ele><time>2026-04-18T14:44:35Z</time></trkpt><trkpt lat="45.02021094787857" lon="8.182197344850472"><ele>195.0</ele><time>2026-04-18T14:44:36Z</time></trkpt><trkpt lat="45.02014534967472" lon="8.182178228027642"><ele>195.0</ele><time>2026-04-18T14:44:37Z</time></trkpt><trkpt lat="45.02003754319259" lon="8.182156347367929"><ele>194.83333333333334</ele><time>2026-04-18T14:44:39Z</time></trkpt><trkpt lat="45.019956552093255" lon="8.182133763482588"><ele>194.66666666666669</ele><time>2026-04-18T14:44:41Z</time></trkpt><trkpt lat="45.01989375614879" lon="8.182116691125847"><ele>194.5</ele><time>2026-04-18T14:44:43Z</time></trkpt><trkpt lat="45.019819630328165" lon="8.182104211333309"><ele>194.33333333333334</ele><time>2026-04-18T14:44:45Z</time></trkpt><trkpt lat="45.01972561633801" lon="8.182089693457337"><ele>194.16666666666669</ele><time>2026-04-18T14:44:47Z</time></trkpt><trkpt lat="45.019647181178044" lon="8.182075346470258"><ele>194.0</ele><time>2026-04-18T14:44:48Z</time></trkpt><trkpt lat="45.01954485540185" lon="8.1820576562139"><ele>194.0</ele><time>2026-04-18T14:44:49Z</time></trkpt><trkpt lat="45.019425563249385" lon="8.182032131838525"><ele>194.0</ele><time>2026-04-18T14:44:50Z</time></trkpt><trkpt lat="45.019290681644456" lon="8.182004718742215"><ele>194.0</ele><time>2026-04-18T14:44:51Z</time></trkpt><trkpt lat="45.01914583015521" lon="8.181955180071133"><ele>194.0</ele><time>2026-04-18T14:44:52Z</time></trkpt><trkpt lat="45.018998788064366" lon="8.181924620799377"><ele>191.75</ele><time>2026-04-18T14:44:53Z</time></trkpt><trkpt lat="45.01885893118723" lon="8.181895554807767"><ele>189.5</ele><time>2026-04-18T14:44:54Z</time></trkpt><trkpt lat="45.01872613581661" lon="8.181869459540533"><ele>187.25</ele><time>2026-04-18T14:44:55Z</time></trkpt><trkpt lat="45.01859896760189" lon="8.181845077004983"><ele>185.0</ele><time>2026-04-18T14:44:56Z</time></trkpt><trkpt lat="45.018476530131004" lon="8.181823338047979"><ele>185.0</ele><time>2026-04-18T14:44:57Z</time></trkpt><trkpt lat="45.018357654204145" lon="8.181824313680815"><ele>185.0</ele><time>2026-04-18T14:44:58Z</time></trkpt><trkpt lat="45.01824628892991" lon="8.181786959795293"><ele>185.0</ele><time>2026-04-18T14:44:59Z</time></trkpt><trkpt lat="45.01813828150802" lon="8.1817564299007"><ele>185.0</ele><time>2026-04-18T14:45:00Z</time></trkpt><trkpt lat="45.01803306785073" lon="8.181727425534843"><ele>183.0</ele><time>2026-04-18T14:45:01Z</time></trkpt><trkpt lat="45.01791150776884" lon="8.181679168890822"><ele>181.0</ele><time>2026-04-18T14:45:02Z</time></trkpt><trkpt lat="45.01777559174516" lon="8.18166590637262"><ele>179.0</ele><time>2026-04-18T14:45:03Z</time></trkpt><trkpt lat="45.017631858431336" lon="8.1816376473276"><ele>177.0</ele><time>2026-04-18T14:45:04Z</time></trkpt><trkpt lat="45.01748038094585" lon="8.181607014249256"><ele>176.25</ele><time>2026-04-18T14:45:05Z</time></trkpt><trkpt lat="45.01734046965002" lon="8.181591551678029"><ele>175.5</ele><time>2026-04-18T14:45:06Z</time></trkpt><trkpt lat="45.01720563551886" lon="8.18157006031658"><ele>174.75</ele><time>2026-04-18T14:45:07Z</time></trkpt><trkpt lat="45.01706898335273" lon="8.181546767718407"><ele>174.0</ele><time>2026-04-18T14:45:08Z</time></trkpt><trkpt lat="45.016933035215864" lon="8.181523999433683"><ele>175.66666666666666</ele><time>2026-04-18T14:45:09Z</time></trkpt><trkpt lat="45.016788728096905" lon="8.18149855416029"><ele>177.33333333333331</ele><time>2026-04-18T14:45:10Z</time></trkpt><trkpt lat="45.016638277201245" lon="8.181472066744861"><ele>179.0</ele><time>2026-04-18T14:45:11Z</time></trkpt><trkpt lat="45.016483643010616" lon="8.181443045842567"><ele>179.0</ele><time>2026-04-18T14:45:12Z</time></trkpt><trkpt lat="45.01632671390075" lon="8.18141266223703"><ele>179.0</ele><time>2026-04-18T14:45:13Z</time></trkpt><trkpt lat="45.016166169173985" lon="8.181378486250448"><ele>179.0</ele><time>2026-04-18T14:45:14Z</time></trkpt><trkpt lat="45.01600256549274" lon="8.181344028016229"><ele>179.0</ele><time>2026-04-18T14:45:15Z</time></trkpt><trkpt lat="45.015835925419196" lon="8.181309976033075"><ele>179.0</ele><time>2026-04-18T14:45:16Z</time></trkpt><trkpt lat="45.0156713545141" lon="8.181277301298607"><ele>179.0</ele><time>2026-04-18T14:45:17Z</time></trkpt><trkpt lat="45.01550376919061" lon="8.181249383660633"><ele>176.0</ele><time>2026-04-18T14:45:18Z</time></trkpt><trkpt lat="45.01533657669225" lon="8.181218902834267"><ele>173.0</ele><time>2026-04-18T14:45:19Z</time></trkpt><trkpt lat="45.01516853700872" lon="8.181189054076741"><ele>170.0</ele><time>2026-04-18T14:45:20Z</time></trkpt><trkpt lat="45.01501148429226" lon="8.181158860570342"><ele>166.66666666666666</ele><time>2026-04-18T14:45:21Z</time></trkpt><trkpt lat="45.014858910951176" lon="8.181131308052635"><ele>163.33333333333334</ele><time>2026-04-18T14:45:22Z</time></trkpt><trkpt lat="45.01470486246856" lon="8.181098392779836"><ele>160.0</ele><time>2026-04-18T14:45:23Z</time></trkpt><trkpt lat="45.01454748412963" lon="8.181069994152358"><ele>160.0</ele><time>2026-04-18T14:45:24Z</time></trkpt><trkpt lat="45.01439177853586" lon="8.181015089590826"><ele>160.0</ele><time>2026-04-18T14:45:25Z</time></trkpt><trkpt lat="45.01422931920931" lon="8.180982172492087"><ele>160.0</ele><time>2026-04-18T14:45:26Z</time></trkpt><trkpt lat="45.01406404354272" lon="8.18094926840248"><ele>158.33333333333334</ele><time>2026-04-18T14:45:27Z</time></trkpt><trkpt lat="45.01389557847141" lon="8.180917458154195"><ele>156.66666666666666</ele><time>2026-04-18T14:45:28Z</time></trkpt><trkpt lat="45.01373028771632" lon="8.180913153511554"><ele>155.0</ele><time>2026-04-18T14:45:29Z</time></trkpt><trkpt lat="45.013573067472954" lon="8.180899615889949"><ele>155.0</ele><time>2026-04-18T14:45:30Z</time></trkpt><trkpt lat="45.01338714774295" lon="8.180913897876437"><ele>155.0</ele><time>2026-04-18T14:45:31Z</time></trkpt><trkpt lat="45.013188224165155" lon="8.18097537561411"><ele>155.0</ele><time>2026-04-18T14:45:32Z</time></trkpt><trkpt lat="45.012981730106475" lon="8.181057191709103"><ele>154.33333333333331</ele><time>2026-04-18T14:45:33Z</time></trkpt><trkpt lat="45.01279834613225" lon="8.181228241969087"><ele>153.66666666666666</ele><time>2026-04-18T14:45:34Z</time></trkpt><trkpt lat="45.012621106820845" lon="8.18142727489243"><ele>153.0</ele><time>2026-04-18T14:45:35Z</time></trkpt><trkpt lat="45.012420326640736" lon="8.181656103075273"><ele>151.0</ele><time>2026-04-18T14:45:36Z</time></trkpt><trkpt lat="45.01221659352433" lon="8.18192821357258"><ele>149.0</ele><time>2026-04-18T14:45:37Z</time></trkpt><trkpt lat="45.01200522145745" lon="8.182212659335505"><ele>149.5</ele><time>2026-04-18T14:45:38Z</time></trkpt><trkpt lat="45.01182210988867" lon="8.18247943841534"><ele>150.0</ele><time>2026-04-18T14:45:39Z</time></trkpt><trkpt lat="45.01164720878654" lon="8.182716729969691"><ele>150.0</ele><time>2026-04-18T14:45:40Z</time></trkpt><trkpt lat="45.011485349768854" lon="8.182936753765297"><ele>150.0</ele><time>2026-04-18T14:45:41Z</time></trkpt><trkpt lat="45.011177887016586" lon="8.183339828341655"><ele>150.0</ele><time>2026-04-18T14:45:43Z</time></trkpt><trkpt lat="45.01104187244098" lon="8.183528588513598"><ele>150.0</ele><time>2026-04-18T14:45:44Z</time></trkpt><trkpt lat="45.01091520497602" lon="8.183695027441923"><ele>150.0</ele><time>2026-04-18T14:45:45Z</time></trkpt><trkpt lat="45.01077746315118" lon="8.183796679343672"><ele>150.0</ele><time>2026-04-18T14:45:46Z</time></trkpt><trkpt lat="45.01061687329459" lon="8.183878079451816"><ele>150.0</ele><time>2026-04-18T14:45:47Z</time></trkpt><trkpt lat="45.010441494274126" lon="8.183908594231204"><ele>150.0</ele><time>2026-04-18T14:45:48Z</time></trkpt><trkpt lat="45.010262286742574" lon="8.183912724853528"><ele>150.0</ele><time>2026-04-18T14:45:49Z</time></trkpt><trkpt lat="45.010100972848484" lon="8.183855889506463"><ele>150.0</ele><time>2026-04-18T14:45:50Z</time></trkpt><trkpt lat="45.009946743086196" lon="8.183757331351934"><ele>150.0</ele><time>2026-04-18T14:45:51Z</time></trkpt><trkpt lat="45.00980789002736" lon="8.183622612819958"><ele>150.0</ele><time>2026-04-18T14:45:52Z</time></trkpt><trkpt lat="45.00968815045481" lon="8.183488859316496"><ele>150.0</ele><time>2026-04-18T14:45:53Z</time></trkpt><trkpt lat="45.00957542916951" lon="8.183368422935242"><ele>150.0</ele><time>2026-04-18T14:45:54Z</time></trkpt><trkpt lat="45.00947266807745" lon="8.183263630874785"><ele>150.0</ele><time>2026-04-18T14:45:55Z</time></trkpt><trkpt lat="45.009377317995856" lon="8.183164409828949"><ele>150.0</ele><time>2026-04-18T14:45:56Z</time></trkpt><trkpt lat="45.00929080134137" lon="8.183074641608588"><ele>150.0</ele><time>2026-04-18T14:45:57Z</time></trkpt><trkpt lat="45.00921807368732" lon="8.183000055766929"><ele>150.0</ele><time>2026-04-18T14:45:58Z</time></trkpt><trkpt lat="45.009166710363814" lon="8.182947375720815"><ele>150.0</ele><time>2026-04-18T14:45:59Z</time></trkpt><trkpt lat="45.00908006472822" lon="8.182847956018316"><ele>150.0</ele><time>2026-04-18T14:46:01Z</time></trkpt><trkpt lat="45.00902704374865" lon="8.182766695024588"><ele>150.0</ele><time>2026-04-18T14:46:03Z</time></trkpt></trkseg></trk></gpx>